<?xml version="1.0" encoding="UTF-8" standalone="no" ?>
<gpx xmlns="http://www.topografix.com/GPX/1/1" xmlns:xsi="http://www.w3.org/2001/XMLSchema-instance" xsi:schemaLocation="http://www.topografix.com/GPX/1/1 http://www.topografix.com/GPX/1/1/gpx.xsd" version="1.1" creator="VisuGPX - https://www.visugpx.com">
  <metadata>
    <name>Sainte Victoire </name>
    <desc><![CDATA[grp_trc:[nouvelles]]]></desc>
  </metadata>
  <trk>
    <name><![CDATA[16 juil. 2022 à 11:56:22]]></name>
    <cmt><![CDATA[16 juil. 2022 à 11:56:22]]></cmt>
    <trkseg>
      <trkpt lat="45.9819" lon="6.82075">
        <ele>2093</ele>
        <time>2022-07-16T09:56:23Z</time>
      </trkpt>
      <trkpt lat="45.9819" lon="6.82075">
        <ele>2093</ele>
        <time>2022-07-16T09:56:24Z</time>
      </trkpt>
      <trkpt lat="45.97838" lon="6.81449">
        <ele>2152</ele>
        <time>2022-07-16T10:44:45Z</time>
      </trkpt>
      <trkpt lat="45.97838" lon="6.81449">
        <ele>2152</ele>
        <time>2022-07-16T10:44:46Z</time>
      </trkpt>
      <trkpt lat="45.97836" lon="6.81458">
        <ele>2153</ele>
        <time>2022-07-16T11:10:05Z</time>
      </trkpt>
      <trkpt lat="45.97835" lon="6.81467">
        <ele>2153</ele>
        <time>2022-07-16T11:10:09Z</time>
      </trkpt>
      <trkpt lat="45.97833" lon="6.81464">
        <ele>2153</ele>
        <time>2022-07-16T11:49:13Z</time>
      </trkpt>
      <trkpt lat="45.97832" lon="6.81469">
        <ele>2152</ele>
        <time>2022-07-16T11:50:54Z</time>
      </trkpt>
      <trkpt lat="45.97828" lon="6.81466">
        <ele>2152</ele>
        <time>2022-07-16T11:51:14Z</time>
      </trkpt>
      <trkpt lat="45.97825" lon="6.8147">
        <ele>2152</ele>
        <time>2022-07-16T11:52:10Z</time>
      </trkpt>
      <trkpt lat="45.97822" lon="6.81462">
        <ele>2153</ele>
        <time>2022-07-16T11:56:01Z</time>
      </trkpt>
      <trkpt lat="45.97828" lon="6.81459">
        <ele>2152</ele>
        <time>2022-07-16T11:58:48Z</time>
      </trkpt>
      <trkpt lat="45.97834" lon="6.81457">
        <ele>2153</ele>
        <time>2022-07-16T11:59:01Z</time>
      </trkpt>
      <trkpt lat="45.97837" lon="6.81451">
        <ele>2153</ele>
        <time>2022-07-16T11:59:06Z</time>
      </trkpt>
      <trkpt lat="45.97842" lon="6.81441">
        <ele>2153</ele>
        <time>2022-07-16T11:59:14Z</time>
      </trkpt>
      <trkpt lat="45.97847" lon="6.81439">
        <ele>2153</ele>
        <time>2022-07-16T11:59:18Z</time>
      </trkpt>
      <trkpt lat="45.97849" lon="6.81435">
        <ele>2155</ele>
        <time>2022-07-16T11:59:34Z</time>
      </trkpt>
      <trkpt lat="45.97853" lon="6.8143">
        <ele>2157</ele>
        <time>2022-07-16T11:59:44Z</time>
      </trkpt>
      <trkpt lat="45.97857" lon="6.81427">
        <ele>2158</ele>
        <time>2022-07-16T11:59:54Z</time>
      </trkpt>
      <trkpt lat="45.97864" lon="6.81426">
        <ele>2160</ele>
        <time>2022-07-16T12:00:09Z</time>
      </trkpt>
      <trkpt lat="45.9787" lon="6.81429">
        <ele>2161</ele>
        <time>2022-07-16T12:00:20Z</time>
      </trkpt>
      <trkpt lat="45.97883" lon="6.81425">
        <ele>2163</ele>
        <time>2022-07-16T12:00:43Z</time>
      </trkpt>
      <trkpt lat="45.97888" lon="6.81421">
        <ele>2165</ele>
        <time>2022-07-16T12:00:53Z</time>
      </trkpt>
      <trkpt lat="45.97894" lon="6.81423">
        <ele>2166</ele>
        <time>2022-07-16T12:01:04Z</time>
      </trkpt>
      <trkpt lat="45.97898" lon="6.81418">
        <ele>2167</ele>
        <time>2022-07-16T12:01:14Z</time>
      </trkpt>
      <trkpt lat="45.97902" lon="6.81411">
        <ele>2168</ele>
        <time>2022-07-16T12:01:24Z</time>
      </trkpt>
      <trkpt lat="45.97905" lon="6.81404">
        <ele>2169</ele>
        <time>2022-07-16T12:01:34Z</time>
      </trkpt>
      <trkpt lat="45.97908" lon="6.81408">
        <ele>2171</ele>
        <time>2022-07-16T12:01:49Z</time>
      </trkpt>
      <trkpt lat="45.97913" lon="6.81408">
        <ele>2172</ele>
        <time>2022-07-16T12:01:59Z</time>
      </trkpt>
      <trkpt lat="45.97914" lon="6.81402">
        <ele>2173</ele>
        <time>2022-07-16T12:02:09Z</time>
      </trkpt>
      <trkpt lat="45.97914" lon="6.81394">
        <ele>2176</ele>
        <time>2022-07-16T12:02:24Z</time>
      </trkpt>
      <trkpt lat="45.97912" lon="6.81385">
        <ele>2178</ele>
        <time>2022-07-16T12:02:42Z</time>
      </trkpt>
      <trkpt lat="45.97915" lon="6.81367">
        <ele>2180</ele>
        <time>2022-07-16T12:03:07Z</time>
      </trkpt>
      <trkpt lat="45.97918" lon="6.81363">
        <ele>2181</ele>
        <time>2022-07-16T12:03:18Z</time>
      </trkpt>
      <trkpt lat="45.97932" lon="6.81352">
        <ele>2185</ele>
        <time>2022-07-16T12:03:48Z</time>
      </trkpt>
      <trkpt lat="45.97935" lon="6.81344">
        <ele>2188</ele>
        <time>2022-07-16T12:04:05Z</time>
      </trkpt>
      <trkpt lat="45.97941" lon="6.81341">
        <ele>2189</ele>
        <time>2022-07-16T12:04:15Z</time>
      </trkpt>
      <trkpt lat="45.97942" lon="6.81332">
        <ele>2190</ele>
        <time>2022-07-16T12:04:25Z</time>
      </trkpt>
      <trkpt lat="45.97946" lon="6.81327">
        <ele>2192</ele>
        <time>2022-07-16T12:04:37Z</time>
      </trkpt>
      <trkpt lat="45.9795" lon="6.81325">
        <ele>2193</ele>
        <time>2022-07-16T12:04:43Z</time>
      </trkpt>
      <trkpt lat="45.97955" lon="6.81323">
        <ele>2193</ele>
        <time>2022-07-16T12:04:59Z</time>
      </trkpt>
      <trkpt lat="45.9796" lon="6.81322">
        <ele>2194</ele>
        <time>2022-07-16T12:05:04Z</time>
      </trkpt>
      <trkpt lat="45.97963" lon="6.81315">
        <ele>2194</ele>
        <time>2022-07-16T12:05:10Z</time>
      </trkpt>
      <trkpt lat="45.97968" lon="6.81313">
        <ele>2194</ele>
        <time>2022-07-16T12:05:13Z</time>
      </trkpt>
      <trkpt lat="45.97971" lon="6.81311">
        <ele>2195</ele>
        <time>2022-07-16T12:05:28Z</time>
      </trkpt>
      <trkpt lat="45.97975" lon="6.81314">
        <ele>2194</ele>
        <time>2022-07-16T12:05:32Z</time>
      </trkpt>
      <trkpt lat="45.97979" lon="6.8132">
        <ele>2195</ele>
        <time>2022-07-16T12:05:40Z</time>
      </trkpt>
      <trkpt lat="45.97984" lon="6.81317">
        <ele>2196</ele>
        <time>2022-07-16T12:05:46Z</time>
      </trkpt>
      <trkpt lat="45.9799" lon="6.81321">
        <ele>2196</ele>
        <time>2022-07-16T12:05:56Z</time>
      </trkpt>
      <trkpt lat="45.97995" lon="6.81316">
        <ele>2197</ele>
        <time>2022-07-16T12:06:02Z</time>
      </trkpt>
      <trkpt lat="45.97999" lon="6.81317">
        <ele>2197</ele>
        <time>2022-07-16T12:06:45Z</time>
      </trkpt>
      <trkpt lat="45.98005" lon="6.81313">
        <ele>2198</ele>
        <time>2022-07-16T12:06:53Z</time>
      </trkpt>
      <trkpt lat="45.98011" lon="6.81311">
        <ele>2198</ele>
        <time>2022-07-16T12:07:00Z</time>
      </trkpt>
      <trkpt lat="45.98017" lon="6.81304">
        <ele>2198</ele>
        <time>2022-07-16T12:07:08Z</time>
      </trkpt>
      <trkpt lat="45.98024" lon="6.81301">
        <ele>2198</ele>
        <time>2022-07-16T12:07:18Z</time>
      </trkpt>
      <trkpt lat="45.98026" lon="6.81289">
        <ele>2199</ele>
        <time>2022-07-16T12:07:28Z</time>
      </trkpt>
      <trkpt lat="45.98029" lon="6.81284">
        <ele>2200</ele>
        <time>2022-07-16T12:07:35Z</time>
      </trkpt>
      <trkpt lat="45.98035" lon="6.81278">
        <ele>2200</ele>
        <time>2022-07-16T12:07:45Z</time>
      </trkpt>
      <trkpt lat="45.9804" lon="6.81273">
        <ele>2202</ele>
        <time>2022-07-16T12:08:01Z</time>
      </trkpt>
      <trkpt lat="45.98044" lon="6.81267">
        <ele>2204</ele>
        <time>2022-07-16T12:08:16Z</time>
      </trkpt>
      <trkpt lat="45.98048" lon="6.81263">
        <ele>2206</ele>
        <time>2022-07-16T12:08:26Z</time>
      </trkpt>
      <trkpt lat="45.98048" lon="6.81257">
        <ele>2207</ele>
        <time>2022-07-16T12:08:36Z</time>
      </trkpt>
      <trkpt lat="45.98042" lon="6.81244">
        <ele>2213</ele>
        <time>2022-07-16T12:09:14Z</time>
      </trkpt>
      <trkpt lat="45.98029" lon="6.81238">
        <ele>2218</ele>
        <time>2022-07-16T12:09:44Z</time>
      </trkpt>
      <trkpt lat="45.98025" lon="6.81229">
        <ele>2220</ele>
        <time>2022-07-16T12:10:01Z</time>
      </trkpt>
      <trkpt lat="45.9801" lon="6.81217">
        <ele>2225</ele>
        <time>2022-07-16T12:10:36Z</time>
      </trkpt>
      <trkpt lat="45.98009" lon="6.81209">
        <ele>2227</ele>
        <time>2022-07-16T12:11:23Z</time>
      </trkpt>
      <trkpt lat="45.98002" lon="6.81204">
        <ele>2229</ele>
        <time>2022-07-16T12:11:34Z</time>
      </trkpt>
      <trkpt lat="45.98003" lon="6.81195">
        <ele>2234</ele>
        <time>2022-07-16T12:12:04Z</time>
      </trkpt>
      <trkpt lat="45.98004" lon="6.81189">
        <ele>2236</ele>
        <time>2022-07-16T12:12:19Z</time>
      </trkpt>
      <trkpt lat="45.98004" lon="6.81182">
        <ele>2239</ele>
        <time>2022-07-16T12:12:39Z</time>
      </trkpt>
      <trkpt lat="45.98" lon="6.81178">
        <ele>2241</ele>
        <time>2022-07-16T12:12:54Z</time>
      </trkpt>
      <trkpt lat="45.97993" lon="6.8117">
        <ele>2244</ele>
        <time>2022-07-16T12:13:13Z</time>
      </trkpt>
      <trkpt lat="45.9799" lon="6.81164">
        <ele>2250</ele>
        <time>2022-07-16T12:14:05Z</time>
      </trkpt>
      <trkpt lat="45.97985" lon="6.81159">
        <ele>2253</ele>
        <time>2022-07-16T12:14:20Z</time>
      </trkpt>
      <trkpt lat="45.9798" lon="6.81151">
        <ele>2257</ele>
        <time>2022-07-16T12:14:45Z</time>
      </trkpt>
      <trkpt lat="45.97978" lon="6.81146">
        <ele>2261</ele>
        <time>2022-07-16T12:15:18Z</time>
      </trkpt>
      <trkpt lat="45.97977" lon="6.81133">
        <ele>2267</ele>
        <time>2022-07-16T12:15:58Z</time>
      </trkpt>
      <trkpt lat="45.9797" lon="6.81119">
        <ele>2274</ele>
        <time>2022-07-16T12:16:49Z</time>
      </trkpt>
      <trkpt lat="45.97966" lon="6.81115">
        <ele>2276</ele>
        <time>2022-07-16T12:17:00Z</time>
      </trkpt>
      <trkpt lat="45.97969" lon="6.8111">
        <ele>2279</ele>
        <time>2022-07-16T12:17:23Z</time>
      </trkpt>
      <trkpt lat="45.97971" lon="6.81105">
        <ele>2280</ele>
        <time>2022-07-16T12:17:33Z</time>
      </trkpt>
      <trkpt lat="45.97973" lon="6.81099">
        <ele>2281</ele>
        <time>2022-07-16T12:17:40Z</time>
      </trkpt>
      <trkpt lat="45.97972" lon="6.81092">
        <ele>2284</ele>
        <time>2022-07-16T12:18:00Z</time>
      </trkpt>
      <trkpt lat="45.97969" lon="6.81085">
        <ele>2286</ele>
        <time>2022-07-16T12:18:10Z</time>
      </trkpt>
      <trkpt lat="45.97966" lon="6.8108">
        <ele>2286</ele>
        <time>2022-07-16T12:18:14Z</time>
      </trkpt>
      <trkpt lat="45.97967" lon="6.81071">
        <ele>2287</ele>
        <time>2022-07-16T12:18:26Z</time>
      </trkpt>
      <trkpt lat="45.97969" lon="6.81064">
        <ele>2287</ele>
        <time>2022-07-16T12:18:36Z</time>
      </trkpt>
      <trkpt lat="45.97969" lon="6.81056">
        <ele>2288</ele>
        <time>2022-07-16T12:19:11Z</time>
      </trkpt>
      <trkpt lat="45.97974" lon="6.81057">
        <ele>2289</ele>
        <time>2022-07-16T12:19:23Z</time>
      </trkpt>
      <trkpt lat="45.97976" lon="6.81049">
        <ele>2289</ele>
        <time>2022-07-16T12:19:33Z</time>
      </trkpt>
      <trkpt lat="45.97985" lon="6.81037">
        <ele>2292</ele>
        <time>2022-07-16T12:19:54Z</time>
      </trkpt>
      <trkpt lat="45.9799" lon="6.81036">
        <ele>2294</ele>
        <time>2022-07-16T12:20:04Z</time>
      </trkpt>
      <trkpt lat="45.97996" lon="6.81033">
        <ele>2294</ele>
        <time>2022-07-16T12:20:14Z</time>
      </trkpt>
      <trkpt lat="45.9801" lon="6.81031">
        <ele>2297</ele>
        <time>2022-07-16T12:20:35Z</time>
      </trkpt>
      <trkpt lat="45.98013" lon="6.81019">
        <ele>2298</ele>
        <time>2022-07-16T12:20:44Z</time>
      </trkpt>
      <trkpt lat="45.98016" lon="6.81015">
        <ele>2298</ele>
        <time>2022-07-16T12:20:51Z</time>
      </trkpt>
      <trkpt lat="45.98018" lon="6.81003">
        <ele>2300</ele>
        <time>2022-07-16T12:21:01Z</time>
      </trkpt>
      <trkpt lat="45.98017" lon="6.80994">
        <ele>2301</ele>
        <time>2022-07-16T12:21:10Z</time>
      </trkpt>
      <trkpt lat="45.98018" lon="6.80983">
        <ele>2300</ele>
        <time>2022-07-16T12:21:22Z</time>
      </trkpt>
      <trkpt lat="45.98016" lon="6.80964">
        <ele>2300</ele>
        <time>2022-07-16T12:21:40Z</time>
      </trkpt>
      <trkpt lat="45.98015" lon="6.80955">
        <ele>2301</ele>
        <time>2022-07-16T12:21:50Z</time>
      </trkpt>
      <trkpt lat="45.98013" lon="6.80949">
        <ele>2301</ele>
        <time>2022-07-16T12:21:55Z</time>
      </trkpt>
      <trkpt lat="45.98011" lon="6.80941">
        <ele>2301</ele>
        <time>2022-07-16T12:22:01Z</time>
      </trkpt>
      <trkpt lat="45.98019" lon="6.80913">
        <ele>2300</ele>
        <time>2022-07-16T12:22:25Z</time>
      </trkpt>
      <trkpt lat="45.98019" lon="6.80901">
        <ele>2299</ele>
        <time>2022-07-16T12:22:36Z</time>
      </trkpt>
      <trkpt lat="45.9802" lon="6.80892">
        <ele>2299</ele>
        <time>2022-07-16T12:22:46Z</time>
      </trkpt>
      <trkpt lat="45.98022" lon="6.80884">
        <ele>2297</ele>
        <time>2022-07-16T12:22:56Z</time>
      </trkpt>
      <trkpt lat="45.9802" lon="6.80866">
        <ele>2295</ele>
        <time>2022-07-16T12:23:17Z</time>
      </trkpt>
      <trkpt lat="45.98023" lon="6.80859">
        <ele>2294</ele>
        <time>2022-07-16T12:23:25Z</time>
      </trkpt>
      <trkpt lat="45.98031" lon="6.80837">
        <ele>2293</ele>
        <time>2022-07-16T12:23:45Z</time>
      </trkpt>
      <trkpt lat="45.98034" lon="6.80828">
        <ele>2292</ele>
        <time>2022-07-16T12:24:00Z</time>
      </trkpt>
      <trkpt lat="45.98034" lon="6.80821">
        <ele>2291</ele>
        <time>2022-07-16T12:24:07Z</time>
      </trkpt>
      <trkpt lat="45.98032" lon="6.80814">
        <ele>2290</ele>
        <time>2022-07-16T12:24:13Z</time>
      </trkpt>
      <trkpt lat="45.98033" lon="6.80803">
        <ele>2289</ele>
        <time>2022-07-16T12:24:23Z</time>
      </trkpt>
      <trkpt lat="45.98026" lon="6.80784">
        <ele>2288</ele>
        <time>2022-07-16T12:24:39Z</time>
      </trkpt>
      <trkpt lat="45.98025" lon="6.80776">
        <ele>2287</ele>
        <time>2022-07-16T12:24:45Z</time>
      </trkpt>
      <trkpt lat="45.98021" lon="6.8077">
        <ele>2287</ele>
        <time>2022-07-16T12:24:53Z</time>
      </trkpt>
      <trkpt lat="45.98019" lon="6.80762">
        <ele>2286</ele>
        <time>2022-07-16T12:25:13Z</time>
      </trkpt>
      <trkpt lat="45.98019" lon="6.80752">
        <ele>2286</ele>
        <time>2022-07-16T12:25:23Z</time>
      </trkpt>
      <trkpt lat="45.98022" lon="6.8073">
        <ele>2284</ele>
        <time>2022-07-16T12:25:46Z</time>
      </trkpt>
      <trkpt lat="45.98017" lon="6.80723">
        <ele>2285</ele>
        <time>2022-07-16T12:25:54Z</time>
      </trkpt>
      <trkpt lat="45.98015" lon="6.80716">
        <ele>2284</ele>
        <time>2022-07-16T12:26:05Z</time>
      </trkpt>
      <trkpt lat="45.98013" lon="6.80707">
        <ele>2283</ele>
        <time>2022-07-16T12:26:15Z</time>
      </trkpt>
      <trkpt lat="45.9801" lon="6.80696">
        <ele>2283</ele>
        <time>2022-07-16T12:26:25Z</time>
      </trkpt>
      <trkpt lat="45.98017" lon="6.80674">
        <ele>2280</ele>
        <time>2022-07-16T12:26:48Z</time>
      </trkpt>
      <trkpt lat="45.98014" lon="6.80666">
        <ele>2281</ele>
        <time>2022-07-16T12:26:59Z</time>
      </trkpt>
      <trkpt lat="45.98013" lon="6.80657">
        <ele>2280</ele>
        <time>2022-07-16T12:27:10Z</time>
      </trkpt>
      <trkpt lat="45.98013" lon="6.80646">
        <ele>2277</ele>
        <time>2022-07-16T12:27:30Z</time>
      </trkpt>
      <trkpt lat="45.98007" lon="6.80639">
        <ele>2277</ele>
        <time>2022-07-16T12:27:41Z</time>
      </trkpt>
      <trkpt lat="45.98008" lon="6.80629">
        <ele>2275</ele>
        <time>2022-07-16T12:27:53Z</time>
      </trkpt>
      <trkpt lat="45.98004" lon="6.80622">
        <ele>2274</ele>
        <time>2022-07-16T12:28:03Z</time>
      </trkpt>
      <trkpt lat="45.98" lon="6.80613">
        <ele>2273</ele>
        <time>2022-07-16T12:28:13Z</time>
      </trkpt>
      <trkpt lat="45.97998" lon="6.80605">
        <ele>2274</ele>
        <time>2022-07-16T12:28:20Z</time>
      </trkpt>
      <trkpt lat="45.97999" lon="6.80599">
        <ele>2274</ele>
        <time>2022-07-16T12:28:26Z</time>
      </trkpt>
      <trkpt lat="45.97997" lon="6.80591">
        <ele>2274</ele>
        <time>2022-07-16T12:28:36Z</time>
      </trkpt>
      <trkpt lat="45.97995" lon="6.80581">
        <ele>2274</ele>
        <time>2022-07-16T12:28:46Z</time>
      </trkpt>
      <trkpt lat="45.97996" lon="6.80569">
        <ele>2273</ele>
        <time>2022-07-16T12:28:56Z</time>
      </trkpt>
      <trkpt lat="45.97992" lon="6.80557">
        <ele>2272</ele>
        <time>2022-07-16T12:29:07Z</time>
      </trkpt>
      <trkpt lat="45.97986" lon="6.8054">
        <ele>2272</ele>
        <time>2022-07-16T12:29:19Z</time>
      </trkpt>
      <trkpt lat="45.97989" lon="6.80534">
        <ele>2273</ele>
        <time>2022-07-16T12:29:26Z</time>
      </trkpt>
      <trkpt lat="45.97984" lon="6.80529">
        <ele>2273</ele>
        <time>2022-07-16T12:29:30Z</time>
      </trkpt>
      <trkpt lat="45.97987" lon="6.80506">
        <ele>2271</ele>
        <time>2022-07-16T12:29:54Z</time>
      </trkpt>
      <trkpt lat="45.97985" lon="6.80499">
        <ele>2271</ele>
        <time>2022-07-16T12:30:01Z</time>
      </trkpt>
      <trkpt lat="45.97983" lon="6.80492">
        <ele>2271</ele>
        <time>2022-07-16T12:30:08Z</time>
      </trkpt>
      <trkpt lat="45.97982" lon="6.80482">
        <ele>2270</ele>
        <time>2022-07-16T12:30:18Z</time>
      </trkpt>
      <trkpt lat="45.97979" lon="6.80475">
        <ele>2269</ele>
        <time>2022-07-16T12:30:23Z</time>
      </trkpt>
      <trkpt lat="45.97981" lon="6.80457">
        <ele>2268</ele>
        <time>2022-07-16T12:30:38Z</time>
      </trkpt>
      <trkpt lat="45.97981" lon="6.80451">
        <ele>2267</ele>
        <time>2022-07-16T12:30:46Z</time>
      </trkpt>
      <trkpt lat="45.97979" lon="6.80445">
        <ele>2266</ele>
        <time>2022-07-16T12:30:52Z</time>
      </trkpt>
      <trkpt lat="45.97979" lon="6.80435">
        <ele>2266</ele>
        <time>2022-07-16T12:31:02Z</time>
      </trkpt>
      <trkpt lat="45.97975" lon="6.80429">
        <ele>2265</ele>
        <time>2022-07-16T12:31:12Z</time>
      </trkpt>
      <trkpt lat="45.97972" lon="6.80423">
        <ele>2265</ele>
        <time>2022-07-16T12:31:32Z</time>
      </trkpt>
      <trkpt lat="45.97973" lon="6.80421">
        <ele>2263</ele>
        <time>2022-07-16T12:32:09Z</time>
      </trkpt>
      <trkpt lat="45.97974" lon="6.80413">
        <ele>2261</ele>
        <time>2022-07-16T12:32:29Z</time>
      </trkpt>
      <trkpt lat="45.9798" lon="6.80408">
        <ele>2259</ele>
        <time>2022-07-16T12:32:48Z</time>
      </trkpt>
      <trkpt lat="45.97976" lon="6.80404">
        <ele>2258</ele>
        <time>2022-07-16T12:33:00Z</time>
      </trkpt>
      <trkpt lat="45.97979" lon="6.80403">
        <ele>2256</ele>
        <time>2022-07-16T12:33:31Z</time>
      </trkpt>
      <trkpt lat="45.97976" lon="6.80396">
        <ele>2254</ele>
        <time>2022-07-16T12:33:40Z</time>
      </trkpt>
      <trkpt lat="45.97983" lon="6.8038">
        <ele>2248</ele>
        <time>2022-07-16T12:34:15Z</time>
      </trkpt>
      <trkpt lat="45.97986" lon="6.80369">
        <ele>2246</ele>
        <time>2022-07-16T12:34:31Z</time>
      </trkpt>
      <trkpt lat="45.97988" lon="6.80357">
        <ele>2245</ele>
        <time>2022-07-16T12:34:41Z</time>
      </trkpt>
      <trkpt lat="45.97986" lon="6.80351">
        <ele>2244</ele>
        <time>2022-07-16T12:34:48Z</time>
      </trkpt>
      <trkpt lat="45.97992" lon="6.80348">
        <ele>2244</ele>
        <time>2022-07-16T12:35:04Z</time>
      </trkpt>
      <trkpt lat="45.9799" lon="6.80341">
        <ele>2244</ele>
        <time>2022-07-16T12:35:09Z</time>
      </trkpt>
      <trkpt lat="45.97988" lon="6.80333">
        <ele>2243</ele>
        <time>2022-07-16T12:35:17Z</time>
      </trkpt>
      <trkpt lat="45.97992" lon="6.80322">
        <ele>2242</ele>
        <time>2022-07-16T12:35:31Z</time>
      </trkpt>
      <trkpt lat="45.97991" lon="6.80316">
        <ele>2242</ele>
        <time>2022-07-16T12:35:36Z</time>
      </trkpt>
      <trkpt lat="45.97988" lon="6.80308">
        <ele>2241</ele>
        <time>2022-07-16T12:35:45Z</time>
      </trkpt>
      <trkpt lat="45.97985" lon="6.80301">
        <ele>2241</ele>
        <time>2022-07-16T12:35:50Z</time>
      </trkpt>
      <trkpt lat="45.97989" lon="6.80293">
        <ele>2240</ele>
        <time>2022-07-16T12:35:54Z</time>
      </trkpt>
      <trkpt lat="45.97989" lon="6.80284">
        <ele>2241</ele>
        <time>2022-07-16T12:36:03Z</time>
      </trkpt>
      <trkpt lat="45.97987" lon="6.80275">
        <ele>2240</ele>
        <time>2022-07-16T12:36:14Z</time>
      </trkpt>
      <trkpt lat="45.97992" lon="6.8027">
        <ele>2238</ele>
        <time>2022-07-16T12:36:25Z</time>
      </trkpt>
      <trkpt lat="45.97988" lon="6.80264">
        <ele>2237</ele>
        <time>2022-07-16T12:36:35Z</time>
      </trkpt>
      <trkpt lat="45.9799" lon="6.80253">
        <ele>2237</ele>
        <time>2022-07-16T12:36:45Z</time>
      </trkpt>
      <trkpt lat="45.97991" lon="6.80246">
        <ele>2237</ele>
        <time>2022-07-16T12:36:51Z</time>
      </trkpt>
      <trkpt lat="45.97993" lon="6.80238">
        <ele>2235</ele>
        <time>2022-07-16T12:37:06Z</time>
      </trkpt>
      <trkpt lat="45.97992" lon="6.8023">
        <ele>2233</ele>
        <time>2022-07-16T12:37:16Z</time>
      </trkpt>
      <trkpt lat="45.97995" lon="6.8022">
        <ele>2233</ele>
        <time>2022-07-16T12:37:26Z</time>
      </trkpt>
      <trkpt lat="45.97995" lon="6.80213">
        <ele>2231</ele>
        <time>2022-07-16T12:37:36Z</time>
      </trkpt>
      <trkpt lat="45.97992" lon="6.80207">
        <ele>2231</ele>
        <time>2022-07-16T12:37:41Z</time>
      </trkpt>
      <trkpt lat="45.97993" lon="6.802">
        <ele>2229</ele>
        <time>2022-07-16T12:37:48Z</time>
      </trkpt>
      <trkpt lat="45.97993" lon="6.80192">
        <ele>2228</ele>
        <time>2022-07-16T12:37:58Z</time>
      </trkpt>
      <trkpt lat="45.9799" lon="6.80189">
        <ele>2227</ele>
        <time>2022-07-16T12:38:04Z</time>
      </trkpt>
      <trkpt lat="45.97989" lon="6.8018">
        <ele>2225</ele>
        <time>2022-07-16T12:38:16Z</time>
      </trkpt>
      <trkpt lat="45.9799" lon="6.80172">
        <ele>2223</ele>
        <time>2022-07-16T12:38:27Z</time>
      </trkpt>
      <trkpt lat="45.97992" lon="6.80165">
        <ele>2222</ele>
        <time>2022-07-16T12:38:37Z</time>
      </trkpt>
      <trkpt lat="45.97989" lon="6.80158">
        <ele>2221</ele>
        <time>2022-07-16T12:38:42Z</time>
      </trkpt>
      <trkpt lat="45.97988" lon="6.80153">
        <ele>2219</ele>
        <time>2022-07-16T12:38:54Z</time>
      </trkpt>
      <trkpt lat="45.97986" lon="6.80145">
        <ele>2218</ele>
        <time>2022-07-16T12:39:04Z</time>
      </trkpt>
      <trkpt lat="45.97986" lon="6.80137">
        <ele>2217</ele>
        <time>2022-07-16T12:39:39Z</time>
      </trkpt>
      <trkpt lat="45.97992" lon="6.8013">
        <ele>2217</ele>
        <time>2022-07-16T12:39:57Z</time>
      </trkpt>
      <trkpt lat="45.97995" lon="6.80121">
        <ele>2218</ele>
        <time>2022-07-16T12:40:07Z</time>
      </trkpt>
      <trkpt lat="45.97998" lon="6.80115">
        <ele>2218</ele>
        <time>2022-07-16T12:40:18Z</time>
      </trkpt>
      <trkpt lat="45.97998" lon="6.80107">
        <ele>2219</ele>
        <time>2022-07-16T12:40:29Z</time>
      </trkpt>
      <trkpt lat="45.98001" lon="6.80101">
        <ele>2220</ele>
        <time>2022-07-16T12:40:39Z</time>
      </trkpt>
      <trkpt lat="45.98006" lon="6.80094">
        <ele>2221</ele>
        <time>2022-07-16T12:40:49Z</time>
      </trkpt>
      <trkpt lat="45.98011" lon="6.80088">
        <ele>2221</ele>
        <time>2022-07-16T12:41:00Z</time>
      </trkpt>
      <trkpt lat="45.98013" lon="6.80077">
        <ele>2220</ele>
        <time>2022-07-16T12:41:15Z</time>
      </trkpt>
      <trkpt lat="45.98015" lon="6.80072">
        <ele>2220</ele>
        <time>2022-07-16T12:41:21Z</time>
      </trkpt>
      <trkpt lat="45.98016" lon="6.80064">
        <ele>2219</ele>
        <time>2022-07-16T12:41:31Z</time>
      </trkpt>
      <trkpt lat="45.98016" lon="6.80056">
        <ele>2219</ele>
        <time>2022-07-16T12:41:37Z</time>
      </trkpt>
      <trkpt lat="45.98019" lon="6.80054">
        <ele>2218</ele>
        <time>2022-07-16T12:42:02Z</time>
      </trkpt>
      <trkpt lat="45.98018" lon="6.8004">
        <ele>2217</ele>
        <time>2022-07-16T12:42:25Z</time>
      </trkpt>
      <trkpt lat="45.98019" lon="6.80033">
        <ele>2216</ele>
        <time>2022-07-16T12:42:33Z</time>
      </trkpt>
      <trkpt lat="45.98017" lon="6.80023">
        <ele>2216</ele>
        <time>2022-07-16T12:42:43Z</time>
      </trkpt>
      <trkpt lat="45.9802" lon="6.80017">
        <ele>2216</ele>
        <time>2022-07-16T12:42:47Z</time>
      </trkpt>
      <trkpt lat="45.98021" lon="6.80009">
        <ele>2216</ele>
        <time>2022-07-16T12:43:03Z</time>
      </trkpt>
      <trkpt lat="45.98025" lon="6.8">
        <ele>2216</ele>
        <time>2022-07-16T12:43:15Z</time>
      </trkpt>
      <trkpt lat="45.98025" lon="6.7999">
        <ele>2216</ele>
        <time>2022-07-16T12:43:21Z</time>
      </trkpt>
      <trkpt lat="45.98029" lon="6.79982">
        <ele>2216</ele>
        <time>2022-07-16T12:43:39Z</time>
      </trkpt>
      <trkpt lat="45.98029" lon="6.79975">
        <ele>2216</ele>
        <time>2022-07-16T12:43:44Z</time>
      </trkpt>
      <trkpt lat="45.98033" lon="6.79966">
        <ele>2216</ele>
        <time>2022-07-16T12:43:56Z</time>
      </trkpt>
      <trkpt lat="45.98034" lon="6.7996">
        <ele>2217</ele>
        <time>2022-07-16T12:44:06Z</time>
      </trkpt>
      <trkpt lat="45.98037" lon="6.79953">
        <ele>2218</ele>
        <time>2022-07-16T12:44:16Z</time>
      </trkpt>
      <trkpt lat="45.9804" lon="6.79944">
        <ele>2220</ele>
        <time>2022-07-16T12:44:33Z</time>
      </trkpt>
      <trkpt lat="45.98038" lon="6.79936">
        <ele>2221</ele>
        <time>2022-07-16T12:44:40Z</time>
      </trkpt>
      <trkpt lat="45.98039" lon="6.7993">
        <ele>2221</ele>
        <time>2022-07-16T12:44:50Z</time>
      </trkpt>
      <trkpt lat="45.98041" lon="6.79921">
        <ele>2223</ele>
        <time>2022-07-16T12:45:05Z</time>
      </trkpt>
      <trkpt lat="45.98042" lon="6.79908">
        <ele>2225</ele>
        <time>2022-07-16T12:45:21Z</time>
      </trkpt>
      <trkpt lat="45.98047" lon="6.79898">
        <ele>2225</ele>
        <time>2022-07-16T12:45:32Z</time>
      </trkpt>
      <trkpt lat="45.98045" lon="6.79889">
        <ele>2225</ele>
        <time>2022-07-16T12:45:50Z</time>
      </trkpt>
      <trkpt lat="45.98045" lon="6.7988">
        <ele>2228</ele>
        <time>2022-07-16T12:46:10Z</time>
      </trkpt>
      <trkpt lat="45.98041" lon="6.7987">
        <ele>2228</ele>
        <time>2022-07-16T12:46:30Z</time>
      </trkpt>
      <trkpt lat="45.98033" lon="6.79861">
        <ele>2226</ele>
        <time>2022-07-16T12:46:53Z</time>
      </trkpt>
      <trkpt lat="45.9803" lon="6.79855">
        <ele>2226</ele>
        <time>2022-07-16T12:47:05Z</time>
      </trkpt>
      <trkpt lat="45.98024" lon="6.79851">
        <ele>2224</ele>
        <time>2022-07-16T12:47:26Z</time>
      </trkpt>
      <trkpt lat="45.98025" lon="6.7984">
        <ele>2221</ele>
        <time>2022-07-16T12:47:47Z</time>
      </trkpt>
      <trkpt lat="45.98015" lon="6.79829">
        <ele>2218</ele>
        <time>2022-07-16T12:48:06Z</time>
      </trkpt>
      <trkpt lat="45.98011" lon="6.79822">
        <ele>2218</ele>
        <time>2022-07-16T12:48:12Z</time>
      </trkpt>
      <trkpt lat="45.98" lon="6.7982">
        <ele>2215</ele>
        <time>2022-07-16T12:48:31Z</time>
      </trkpt>
      <trkpt lat="45.97993" lon="6.79813">
        <ele>2213</ele>
        <time>2022-07-16T12:48:43Z</time>
      </trkpt>
      <trkpt lat="45.97991" lon="6.79801">
        <ele>2213</ele>
        <time>2022-07-16T12:48:49Z</time>
      </trkpt>
      <trkpt lat="45.97984" lon="6.79794">
        <ele>2211</ele>
        <time>2022-07-16T12:49:07Z</time>
      </trkpt>
      <trkpt lat="45.97978" lon="6.7979">
        <ele>2210</ele>
        <time>2022-07-16T12:49:17Z</time>
      </trkpt>
      <trkpt lat="45.97973" lon="6.79785">
        <ele>2210</ele>
        <time>2022-07-16T12:49:24Z</time>
      </trkpt>
      <trkpt lat="45.97976" lon="6.79777">
        <ele>2210</ele>
        <time>2022-07-16T12:49:34Z</time>
      </trkpt>
      <trkpt lat="45.97975" lon="6.79769">
        <ele>2211</ele>
        <time>2022-07-16T12:49:40Z</time>
      </trkpt>
      <trkpt lat="45.97976" lon="6.79759">
        <ele>2214</ele>
        <time>2022-07-16T12:50:02Z</time>
      </trkpt>
      <trkpt lat="45.97981" lon="6.79749">
        <ele>2218</ele>
        <time>2022-07-16T12:50:32Z</time>
      </trkpt>
      <trkpt lat="45.9798" lon="6.79742">
        <ele>2218</ele>
        <time>2022-07-16T12:50:43Z</time>
      </trkpt>
      <trkpt lat="45.97979" lon="6.79731">
        <ele>2219</ele>
        <time>2022-07-16T12:50:53Z</time>
      </trkpt>
      <trkpt lat="45.97981" lon="6.79722">
        <ele>2222</ele>
        <time>2022-07-16T12:51:17Z</time>
      </trkpt>
      <trkpt lat="45.97985" lon="6.79715">
        <ele>2225</ele>
        <time>2022-07-16T12:51:36Z</time>
      </trkpt>
      <trkpt lat="45.97986" lon="6.79709">
        <ele>2229</ele>
        <time>2022-07-16T12:52:02Z</time>
      </trkpt>
      <trkpt lat="45.97987" lon="6.79688">
        <ele>2233</ele>
        <time>2022-07-16T12:52:43Z</time>
      </trkpt>
      <trkpt lat="45.97989" lon="6.79675">
        <ele>2236</ele>
        <time>2022-07-16T12:53:03Z</time>
      </trkpt>
      <trkpt lat="45.97993" lon="6.79681">
        <ele>2239</ele>
        <time>2022-07-16T12:53:29Z</time>
      </trkpt>
      <trkpt lat="45.97998" lon="6.79672">
        <ele>2242</ele>
        <time>2022-07-16T12:53:55Z</time>
      </trkpt>
      <trkpt lat="45.97999" lon="6.79664">
        <ele>2244</ele>
        <time>2022-07-16T12:54:10Z</time>
      </trkpt>
      <trkpt lat="45.98001" lon="6.79657">
        <ele>2247</ele>
        <time>2022-07-16T12:54:41Z</time>
      </trkpt>
      <trkpt lat="45.98007" lon="6.79656">
        <ele>2250</ele>
        <time>2022-07-16T12:55:02Z</time>
      </trkpt>
      <trkpt lat="45.98012" lon="6.79659">
        <ele>2251</ele>
        <time>2022-07-16T12:55:15Z</time>
      </trkpt>
      <trkpt lat="45.98012" lon="6.79649">
        <ele>2254</ele>
        <time>2022-07-16T12:55:41Z</time>
      </trkpt>
      <trkpt lat="45.98024" lon="6.79647">
        <ele>2257</ele>
        <time>2022-07-16T12:56:08Z</time>
      </trkpt>
      <trkpt lat="45.98027" lon="6.79654">
        <ele>2258</ele>
        <time>2022-07-16T12:56:18Z</time>
      </trkpt>
      <trkpt lat="45.98031" lon="6.79652">
        <ele>2259</ele>
        <time>2022-07-16T12:56:28Z</time>
      </trkpt>
      <trkpt lat="45.98034" lon="6.79644">
        <ele>2256</ele>
        <time>2022-07-16T12:59:22Z</time>
      </trkpt>
      <trkpt lat="45.9804" lon="6.79647">
        <ele>2253</ele>
        <time>2022-07-16T13:00:07Z</time>
      </trkpt>
      <trkpt lat="45.98048" lon="6.79654">
        <ele>2250</ele>
        <time>2022-07-16T13:01:07Z</time>
      </trkpt>
      <trkpt lat="45.98054" lon="6.79657">
        <ele>2249</ele>
        <time>2022-07-16T13:01:30Z</time>
      </trkpt>
      <trkpt lat="45.98058" lon="6.79656">
        <ele>2247</ele>
        <time>2022-07-16T13:02:12Z</time>
      </trkpt>
      <trkpt lat="45.98065" lon="6.79664">
        <ele>2245</ele>
        <time>2022-07-16T13:02:21Z</time>
      </trkpt>
      <trkpt lat="45.98076" lon="6.79684">
        <ele>2241</ele>
        <time>2022-07-16T13:02:41Z</time>
      </trkpt>
      <trkpt lat="45.98091" lon="6.79698">
        <ele>2239</ele>
        <time>2022-07-16T13:02:57Z</time>
      </trkpt>
      <trkpt lat="45.98095" lon="6.79701">
        <ele>2239</ele>
        <time>2022-07-16T13:03:01Z</time>
      </trkpt>
      <trkpt lat="45.98099" lon="6.7971">
        <ele>2238</ele>
        <time>2022-07-16T13:03:11Z</time>
      </trkpt>
      <trkpt lat="45.98107" lon="6.79718">
        <ele>2235</ele>
        <time>2022-07-16T13:03:28Z</time>
      </trkpt>
      <trkpt lat="45.98125" lon="6.79736">
        <ele>2230</ele>
        <time>2022-07-16T13:03:53Z</time>
      </trkpt>
      <trkpt lat="45.98135" lon="6.79739">
        <ele>2227</ele>
        <time>2022-07-16T13:04:05Z</time>
      </trkpt>
      <trkpt lat="45.98139" lon="6.79744">
        <ele>2226</ele>
        <time>2022-07-16T13:04:11Z</time>
      </trkpt>
      <trkpt lat="45.98144" lon="6.7975">
        <ele>2224</ele>
        <time>2022-07-16T13:04:20Z</time>
      </trkpt>
      <trkpt lat="45.98148" lon="6.7975">
        <ele>2222</ele>
        <time>2022-07-16T13:04:26Z</time>
      </trkpt>
      <trkpt lat="45.98155" lon="6.79758">
        <ele>2221</ele>
        <time>2022-07-16T13:05:06Z</time>
      </trkpt>
      <trkpt lat="45.98158" lon="6.79764">
        <ele>2219</ele>
        <time>2022-07-16T13:05:13Z</time>
      </trkpt>
      <trkpt lat="45.98161" lon="6.79768">
        <ele>2219</ele>
        <time>2022-07-16T13:05:18Z</time>
      </trkpt>
      <trkpt lat="45.98174" lon="6.79773">
        <ele>2216</ele>
        <time>2022-07-16T13:05:36Z</time>
      </trkpt>
      <trkpt lat="45.98178" lon="6.79773">
        <ele>2215</ele>
        <time>2022-07-16T13:05:41Z</time>
      </trkpt>
      <trkpt lat="45.9819" lon="6.79787">
        <ele>2212</ele>
        <time>2022-07-16T13:05:58Z</time>
      </trkpt>
      <trkpt lat="45.98193" lon="6.79806">
        <ele>2212</ele>
        <time>2022-07-16T13:06:15Z</time>
      </trkpt>
      <trkpt lat="45.98195" lon="6.79811">
        <ele>2212</ele>
        <time>2022-07-16T13:06:20Z</time>
      </trkpt>
      <trkpt lat="45.98202" lon="6.7982">
        <ele>2213</ele>
        <time>2022-07-16T13:06:31Z</time>
      </trkpt>
      <trkpt lat="45.98203" lon="6.79826">
        <ele>2214</ele>
        <time>2022-07-16T13:06:38Z</time>
      </trkpt>
      <trkpt lat="45.98201" lon="6.79833">
        <ele>2214</ele>
        <time>2022-07-16T13:06:43Z</time>
      </trkpt>
      <trkpt lat="45.98202" lon="6.79838">
        <ele>2216</ele>
        <time>2022-07-16T13:08:40Z</time>
      </trkpt>
      <trkpt lat="45.98199" lon="6.79839">
        <ele>2217</ele>
        <time>2022-07-16T13:11:08Z</time>
      </trkpt>
      <trkpt lat="45.98201" lon="6.79843">
        <ele>2217</ele>
        <time>2022-07-16T13:13:40Z</time>
      </trkpt>
      <trkpt lat="45.98211" lon="6.79827">
        <ele>2215</ele>
        <time>2022-07-16T13:13:56Z</time>
      </trkpt>
      <trkpt lat="45.98211" lon="6.79819">
        <ele>2214</ele>
        <time>2022-07-16T13:14:01Z</time>
      </trkpt>
      <trkpt lat="45.9821" lon="6.79812">
        <ele>2213</ele>
        <time>2022-07-16T13:14:06Z</time>
      </trkpt>
      <trkpt lat="45.98204" lon="6.79805">
        <ele>2212</ele>
        <time>2022-07-16T13:14:13Z</time>
      </trkpt>
      <trkpt lat="45.98206" lon="6.79799">
        <ele>2211</ele>
        <time>2022-07-16T13:14:18Z</time>
      </trkpt>
      <trkpt lat="45.98213" lon="6.7979">
        <ele>2210</ele>
        <time>2022-07-16T13:14:27Z</time>
      </trkpt>
      <trkpt lat="45.98219" lon="6.79788">
        <ele>2209</ele>
        <time>2022-07-16T13:14:34Z</time>
      </trkpt>
      <trkpt lat="45.98227" lon="6.7979">
        <ele>2208</ele>
        <time>2022-07-16T13:14:42Z</time>
      </trkpt>
      <trkpt lat="45.98231" lon="6.79787">
        <ele>2206</ele>
        <time>2022-07-16T13:14:49Z</time>
      </trkpt>
      <trkpt lat="45.98235" lon="6.79782">
        <ele>2206</ele>
        <time>2022-07-16T13:14:53Z</time>
      </trkpt>
      <trkpt lat="45.98264" lon="6.79777">
        <ele>2200</ele>
        <time>2022-07-16T13:15:23Z</time>
      </trkpt>
      <trkpt lat="45.98268" lon="6.79777">
        <ele>2199</ele>
        <time>2022-07-16T13:15:27Z</time>
      </trkpt>
      <trkpt lat="45.98274" lon="6.79776">
        <ele>2198</ele>
        <time>2022-07-16T13:15:34Z</time>
      </trkpt>
      <trkpt lat="45.98282" lon="6.79766">
        <ele>2196</ele>
        <time>2022-07-16T13:15:44Z</time>
      </trkpt>
      <trkpt lat="45.98298" lon="6.79763">
        <ele>2195</ele>
        <time>2022-07-16T13:15:58Z</time>
      </trkpt>
      <trkpt lat="45.98302" lon="6.79765">
        <ele>2194</ele>
        <time>2022-07-16T13:16:02Z</time>
      </trkpt>
      <trkpt lat="45.98308" lon="6.79765">
        <ele>2194</ele>
        <time>2022-07-16T13:16:06Z</time>
      </trkpt>
      <trkpt lat="45.98312" lon="6.79764">
        <ele>2193</ele>
        <time>2022-07-16T13:16:10Z</time>
      </trkpt>
      <trkpt lat="45.98323" lon="6.79769">
        <ele>2192</ele>
        <time>2022-07-16T13:16:20Z</time>
      </trkpt>
      <trkpt lat="45.98327" lon="6.7977">
        <ele>2192</ele>
        <time>2022-07-16T13:16:24Z</time>
      </trkpt>
      <trkpt lat="45.9834" lon="6.79782">
        <ele>2188</ele>
        <time>2022-07-16T13:16:44Z</time>
      </trkpt>
      <trkpt lat="45.98342" lon="6.79787">
        <ele>2188</ele>
        <time>2022-07-16T13:16:48Z</time>
      </trkpt>
      <trkpt lat="45.98347" lon="6.79791">
        <ele>2187</ele>
        <time>2022-07-16T13:16:53Z</time>
      </trkpt>
      <trkpt lat="45.98351" lon="6.79791">
        <ele>2186</ele>
        <time>2022-07-16T13:17:01Z</time>
      </trkpt>
      <trkpt lat="45.98355" lon="6.79793">
        <ele>2185</ele>
        <time>2022-07-16T13:17:04Z</time>
      </trkpt>
      <trkpt lat="45.98362" lon="6.7979">
        <ele>2184</ele>
        <time>2022-07-16T13:17:12Z</time>
      </trkpt>
      <trkpt lat="45.98369" lon="6.7979">
        <ele>2182</ele>
        <time>2022-07-16T13:17:21Z</time>
      </trkpt>
      <trkpt lat="45.98374" lon="6.79791">
        <ele>2180</ele>
        <time>2022-07-16T13:17:31Z</time>
      </trkpt>
      <trkpt lat="45.98382" lon="6.79788">
        <ele>2177</ele>
        <time>2022-07-16T13:17:41Z</time>
      </trkpt>
      <trkpt lat="45.98391" lon="6.79789">
        <ele>2175</ele>
        <time>2022-07-16T13:17:53Z</time>
      </trkpt>
      <trkpt lat="45.98394" lon="6.79795">
        <ele>2174</ele>
        <time>2022-07-16T13:17:57Z</time>
      </trkpt>
      <trkpt lat="45.984" lon="6.79791">
        <ele>2172</ele>
        <time>2022-07-16T13:18:05Z</time>
      </trkpt>
      <trkpt lat="45.98408" lon="6.79781">
        <ele>2170</ele>
        <time>2022-07-16T13:18:16Z</time>
      </trkpt>
      <trkpt lat="45.98414" lon="6.7978">
        <ele>2168</ele>
        <time>2022-07-16T13:18:22Z</time>
      </trkpt>
      <trkpt lat="45.98418" lon="6.79782">
        <ele>2167</ele>
        <time>2022-07-16T13:18:26Z</time>
      </trkpt>
      <trkpt lat="45.98423" lon="6.79787">
        <ele>2165</ele>
        <time>2022-07-16T13:18:52Z</time>
      </trkpt>
      <trkpt lat="45.98426" lon="6.79791">
        <ele>2165</ele>
        <time>2022-07-16T13:18:55Z</time>
      </trkpt>
      <trkpt lat="45.9843" lon="6.79794">
        <ele>2165</ele>
        <time>2022-07-16T13:19:00Z</time>
      </trkpt>
      <trkpt lat="45.98432" lon="6.79801">
        <ele>2165</ele>
        <time>2022-07-16T13:19:04Z</time>
      </trkpt>
      <trkpt lat="45.98449" lon="6.7981">
        <ele>2163</ele>
        <time>2022-07-16T13:19:22Z</time>
      </trkpt>
      <trkpt lat="45.98451" lon="6.79816">
        <ele>2163</ele>
        <time>2022-07-16T13:19:26Z</time>
      </trkpt>
      <trkpt lat="45.98456" lon="6.79818">
        <ele>2162</ele>
        <time>2022-07-16T13:19:31Z</time>
      </trkpt>
      <trkpt lat="45.98472" lon="6.79824">
        <ele>2161</ele>
        <time>2022-07-16T13:19:47Z</time>
      </trkpt>
      <trkpt lat="45.98475" lon="6.79817">
        <ele>2160</ele>
        <time>2022-07-16T13:19:50Z</time>
      </trkpt>
      <trkpt lat="45.98481" lon="6.79821">
        <ele>2160</ele>
        <time>2022-07-16T13:19:57Z</time>
      </trkpt>
      <trkpt lat="45.9849" lon="6.79825">
        <ele>2159</ele>
        <time>2022-07-16T13:20:06Z</time>
      </trkpt>
      <trkpt lat="45.98496" lon="6.79822">
        <ele>2158</ele>
        <time>2022-07-16T13:20:13Z</time>
      </trkpt>
      <trkpt lat="45.985" lon="6.79823">
        <ele>2157</ele>
        <time>2022-07-16T13:20:16Z</time>
      </trkpt>
      <trkpt lat="45.98504" lon="6.79823">
        <ele>2157</ele>
        <time>2022-07-16T13:20:20Z</time>
      </trkpt>
      <trkpt lat="45.98511" lon="6.79815">
        <ele>2156</ele>
        <time>2022-07-16T13:20:28Z</time>
      </trkpt>
      <trkpt lat="45.98524" lon="6.79818">
        <ele>2155</ele>
        <time>2022-07-16T13:20:39Z</time>
      </trkpt>
      <trkpt lat="45.98531" lon="6.79822">
        <ele>2153</ele>
        <time>2022-07-16T13:20:48Z</time>
      </trkpt>
      <trkpt lat="45.98541" lon="6.79829">
        <ele>2152</ele>
        <time>2022-07-16T13:20:59Z</time>
      </trkpt>
      <trkpt lat="45.98545" lon="6.79831">
        <ele>2151</ele>
        <time>2022-07-16T13:21:04Z</time>
      </trkpt>
      <trkpt lat="45.98547" lon="6.79836">
        <ele>2151</ele>
        <time>2022-07-16T13:21:07Z</time>
      </trkpt>
      <trkpt lat="45.98548" lon="6.79845">
        <ele>2151</ele>
        <time>2022-07-16T13:21:13Z</time>
      </trkpt>
      <trkpt lat="45.98547" lon="6.79852">
        <ele>2151</ele>
        <time>2022-07-16T13:21:17Z</time>
      </trkpt>
      <trkpt lat="45.98551" lon="6.79863">
        <ele>2150</ele>
        <time>2022-07-16T13:21:25Z</time>
      </trkpt>
      <trkpt lat="45.98552" lon="6.79871">
        <ele>2150</ele>
        <time>2022-07-16T13:21:29Z</time>
      </trkpt>
      <trkpt lat="45.98554" lon="6.79876">
        <ele>2150</ele>
        <time>2022-07-16T13:21:33Z</time>
      </trkpt>
      <trkpt lat="45.98553" lon="6.79883">
        <ele>2150</ele>
        <time>2022-07-16T13:21:36Z</time>
      </trkpt>
      <trkpt lat="45.98554" lon="6.79904">
        <ele>2148</ele>
        <time>2022-07-16T13:21:49Z</time>
      </trkpt>
      <trkpt lat="45.98557" lon="6.7991">
        <ele>2147</ele>
        <time>2022-07-16T13:21:54Z</time>
      </trkpt>
      <trkpt lat="45.9856" lon="6.79916">
        <ele>2147</ele>
        <time>2022-07-16T13:21:57Z</time>
      </trkpt>
      <trkpt lat="45.98564" lon="6.79935">
        <ele>2146</ele>
        <time>2022-07-16T13:22:09Z</time>
      </trkpt>
      <trkpt lat="45.98567" lon="6.79941">
        <ele>2146</ele>
        <time>2022-07-16T13:22:13Z</time>
      </trkpt>
      <trkpt lat="45.98571" lon="6.79945">
        <ele>2145</ele>
        <time>2022-07-16T13:22:17Z</time>
      </trkpt>
      <trkpt lat="45.98576" lon="6.79947">
        <ele>2145</ele>
        <time>2022-07-16T13:22:20Z</time>
      </trkpt>
      <trkpt lat="45.9858" lon="6.79948">
        <ele>2145</ele>
        <time>2022-07-16T13:22:23Z</time>
      </trkpt>
      <trkpt lat="45.98585" lon="6.79948">
        <ele>2145</ele>
        <time>2022-07-16T13:22:27Z</time>
      </trkpt>
      <trkpt lat="45.98589" lon="6.79943">
        <ele>2144</ele>
        <time>2022-07-16T13:22:31Z</time>
      </trkpt>
      <trkpt lat="45.98594" lon="6.79943">
        <ele>2143</ele>
        <time>2022-07-16T13:22:36Z</time>
      </trkpt>
      <trkpt lat="45.98601" lon="6.79945">
        <ele>2142</ele>
        <time>2022-07-16T13:22:43Z</time>
      </trkpt>
      <trkpt lat="45.98606" lon="6.79944">
        <ele>2141</ele>
        <time>2022-07-16T13:22:47Z</time>
      </trkpt>
      <trkpt lat="45.9861" lon="6.7995">
        <ele>2142</ele>
        <time>2022-07-16T13:22:55Z</time>
      </trkpt>
      <trkpt lat="45.98614" lon="6.79959">
        <ele>2141</ele>
        <time>2022-07-16T13:23:03Z</time>
      </trkpt>
      <trkpt lat="45.98617" lon="6.79963">
        <ele>2140</ele>
        <time>2022-07-16T13:23:06Z</time>
      </trkpt>
      <trkpt lat="45.98631" lon="6.79974">
        <ele>2138</ele>
        <time>2022-07-16T13:23:22Z</time>
      </trkpt>
      <trkpt lat="45.98638" lon="6.79971">
        <ele>2136</ele>
        <time>2022-07-16T13:23:29Z</time>
      </trkpt>
      <trkpt lat="45.98642" lon="6.79974">
        <ele>2135</ele>
        <time>2022-07-16T13:23:37Z</time>
      </trkpt>
      <trkpt lat="45.98645" lon="6.79979">
        <ele>2134</ele>
        <time>2022-07-16T13:23:42Z</time>
      </trkpt>
      <trkpt lat="45.9865" lon="6.79978">
        <ele>2133</ele>
        <time>2022-07-16T13:23:50Z</time>
      </trkpt>
      <trkpt lat="45.98655" lon="6.7998">
        <ele>2130</ele>
        <time>2022-07-16T13:24:00Z</time>
      </trkpt>
      <trkpt lat="45.98662" lon="6.79978">
        <ele>2128</ele>
        <time>2022-07-16T13:24:10Z</time>
      </trkpt>
      <trkpt lat="45.98671" lon="6.79975">
        <ele>2126</ele>
        <time>2022-07-16T13:24:23Z</time>
      </trkpt>
      <trkpt lat="45.98677" lon="6.79981">
        <ele>2123</ele>
        <time>2022-07-16T13:24:35Z</time>
      </trkpt>
      <trkpt lat="45.98679" lon="6.79987">
        <ele>2122</ele>
        <time>2022-07-16T13:24:40Z</time>
      </trkpt>
      <trkpt lat="45.98695" lon="6.79982">
        <ele>2119</ele>
        <time>2022-07-16T13:24:57Z</time>
      </trkpt>
      <trkpt lat="45.987" lon="6.79978">
        <ele>2117</ele>
        <time>2022-07-16T13:25:04Z</time>
      </trkpt>
      <trkpt lat="45.98707" lon="6.79983">
        <ele>2115</ele>
        <time>2022-07-16T13:25:16Z</time>
      </trkpt>
      <trkpt lat="45.9871" lon="6.79978">
        <ele>2114</ele>
        <time>2022-07-16T13:25:21Z</time>
      </trkpt>
      <trkpt lat="45.98714" lon="6.79976">
        <ele>2113</ele>
        <time>2022-07-16T13:25:25Z</time>
      </trkpt>
      <trkpt lat="45.98727" lon="6.79975">
        <ele>2110</ele>
        <time>2022-07-16T13:25:40Z</time>
      </trkpt>
      <trkpt lat="45.98729" lon="6.7997">
        <ele>2110</ele>
        <time>2022-07-16T13:25:43Z</time>
      </trkpt>
      <trkpt lat="45.98734" lon="6.7997">
        <ele>2108</ele>
        <time>2022-07-16T13:25:50Z</time>
      </trkpt>
      <trkpt lat="45.98741" lon="6.79973">
        <ele>2105</ele>
        <time>2022-07-16T13:26:05Z</time>
      </trkpt>
      <trkpt lat="45.98746" lon="6.79974">
        <ele>2104</ele>
        <time>2022-07-16T13:26:09Z</time>
      </trkpt>
      <trkpt lat="45.98752" lon="6.79972">
        <ele>2103</ele>
        <time>2022-07-16T13:26:16Z</time>
      </trkpt>
      <trkpt lat="45.98756" lon="6.7997">
        <ele>2101</ele>
        <time>2022-07-16T13:26:24Z</time>
      </trkpt>
      <trkpt lat="45.98761" lon="6.79967">
        <ele>2099</ele>
        <time>2022-07-16T13:26:42Z</time>
      </trkpt>
      <trkpt lat="45.98764" lon="6.79962">
        <ele>2098</ele>
        <time>2022-07-16T13:26:46Z</time>
      </trkpt>
      <trkpt lat="45.9877" lon="6.79959">
        <ele>2097</ele>
        <time>2022-07-16T13:26:52Z</time>
      </trkpt>
      <trkpt lat="45.98774" lon="6.79955">
        <ele>2096</ele>
        <time>2022-07-16T13:26:57Z</time>
      </trkpt>
      <trkpt lat="45.98779" lon="6.79952">
        <ele>2095</ele>
        <time>2022-07-16T13:27:06Z</time>
      </trkpt>
      <trkpt lat="45.9878" lon="6.79946">
        <ele>2092</ele>
        <time>2022-07-16T13:27:16Z</time>
      </trkpt>
      <trkpt lat="45.98788" lon="6.79932">
        <ele>2087</ele>
        <time>2022-07-16T13:27:33Z</time>
      </trkpt>
      <trkpt lat="45.98793" lon="6.7993">
        <ele>2087</ele>
        <time>2022-07-16T13:27:38Z</time>
      </trkpt>
      <trkpt lat="45.98794" lon="6.79922">
        <ele>2085</ele>
        <time>2022-07-16T13:27:46Z</time>
      </trkpt>
      <trkpt lat="45.98799" lon="6.7992">
        <ele>2084</ele>
        <time>2022-07-16T13:27:51Z</time>
      </trkpt>
      <trkpt lat="45.98799" lon="6.79923">
        <ele>2081</ele>
        <time>2022-07-16T13:28:06Z</time>
      </trkpt>
      <trkpt lat="45.98798" lon="6.79935">
        <ele>2080</ele>
        <time>2022-07-16T13:28:15Z</time>
      </trkpt>
      <trkpt lat="45.98795" lon="6.79951">
        <ele>2077</ele>
        <time>2022-07-16T13:28:28Z</time>
      </trkpt>
      <trkpt lat="45.98799" lon="6.79972">
        <ele>2075</ele>
        <time>2022-07-16T13:28:42Z</time>
      </trkpt>
      <trkpt lat="45.988" lon="6.79981">
        <ele>2075</ele>
        <time>2022-07-16T13:28:49Z</time>
      </trkpt>
      <trkpt lat="45.98806" lon="6.79986">
        <ele>2075</ele>
        <time>2022-07-16T13:28:56Z</time>
      </trkpt>
      <trkpt lat="45.98809" lon="6.7999">
        <ele>2075</ele>
        <time>2022-07-16T13:29:00Z</time>
      </trkpt>
      <trkpt lat="45.98813" lon="6.79993">
        <ele>2075</ele>
        <time>2022-07-16T13:29:04Z</time>
      </trkpt>
      <trkpt lat="45.98819" lon="6.79994">
        <ele>2074</ele>
        <time>2022-07-16T13:29:10Z</time>
      </trkpt>
      <trkpt lat="45.98821" lon="6.79999">
        <ele>2073</ele>
        <time>2022-07-16T13:29:13Z</time>
      </trkpt>
      <trkpt lat="45.98828" lon="6.8">
        <ele>2073</ele>
        <time>2022-07-16T13:29:19Z</time>
      </trkpt>
      <trkpt lat="45.98834" lon="6.80006">
        <ele>2072</ele>
        <time>2022-07-16T13:29:28Z</time>
      </trkpt>
      <trkpt lat="45.98837" lon="6.80011">
        <ele>2072</ele>
        <time>2022-07-16T13:29:32Z</time>
      </trkpt>
      <trkpt lat="45.98841" lon="6.80014">
        <ele>2072</ele>
        <time>2022-07-16T13:29:36Z</time>
      </trkpt>
      <trkpt lat="45.98844" lon="6.80027">
        <ele>2072</ele>
        <time>2022-07-16T13:29:46Z</time>
      </trkpt>
      <trkpt lat="45.98848" lon="6.80027">
        <ele>2072</ele>
        <time>2022-07-16T13:29:50Z</time>
      </trkpt>
      <trkpt lat="45.98853" lon="6.80023">
        <ele>2071</ele>
        <time>2022-07-16T13:29:54Z</time>
      </trkpt>
      <trkpt lat="45.98857" lon="6.80025">
        <ele>2071</ele>
        <time>2022-07-16T13:30:01Z</time>
      </trkpt>
      <trkpt lat="45.98861" lon="6.80027">
        <ele>2069</ele>
        <time>2022-07-16T13:30:16Z</time>
      </trkpt>
      <trkpt lat="45.9887" lon="6.8003">
        <ele>2067</ele>
        <time>2022-07-16T13:30:26Z</time>
      </trkpt>
      <trkpt lat="45.98875" lon="6.80033">
        <ele>2066</ele>
        <time>2022-07-16T13:30:33Z</time>
      </trkpt>
      <trkpt lat="45.9888" lon="6.80034">
        <ele>2065</ele>
        <time>2022-07-16T13:30:52Z</time>
      </trkpt>
      <trkpt lat="45.98887" lon="6.80037">
        <ele>2065</ele>
        <time>2022-07-16T13:31:07Z</time>
      </trkpt>
      <trkpt lat="45.98897" lon="6.80051">
        <ele>2064</ele>
        <time>2022-07-16T13:31:19Z</time>
      </trkpt>
      <trkpt lat="45.98906" lon="6.80055">
        <ele>2063</ele>
        <time>2022-07-16T13:31:27Z</time>
      </trkpt>
      <trkpt lat="45.98909" lon="6.80058">
        <ele>2063</ele>
        <time>2022-07-16T13:31:31Z</time>
      </trkpt>
      <trkpt lat="45.98915" lon="6.80068">
        <ele>2062</ele>
        <time>2022-07-16T13:31:38Z</time>
      </trkpt>
      <trkpt lat="45.98923" lon="6.80072">
        <ele>2062</ele>
        <time>2022-07-16T13:31:46Z</time>
      </trkpt>
      <trkpt lat="45.98927" lon="6.80072">
        <ele>2062</ele>
        <time>2022-07-16T13:31:50Z</time>
      </trkpt>
      <trkpt lat="45.98931" lon="6.80072">
        <ele>2061</ele>
        <time>2022-07-16T13:31:54Z</time>
      </trkpt>
      <trkpt lat="45.98935" lon="6.80075">
        <ele>2061</ele>
        <time>2022-07-16T13:31:58Z</time>
      </trkpt>
      <trkpt lat="45.98938" lon="6.8008">
        <ele>2061</ele>
        <time>2022-07-16T13:32:01Z</time>
      </trkpt>
      <trkpt lat="45.98942" lon="6.80082">
        <ele>2061</ele>
        <time>2022-07-16T13:32:06Z</time>
      </trkpt>
      <trkpt lat="45.9895" lon="6.8009">
        <ele>2060</ele>
        <time>2022-07-16T13:32:14Z</time>
      </trkpt>
      <trkpt lat="45.98954" lon="6.80092">
        <ele>2060</ele>
        <time>2022-07-16T13:32:18Z</time>
      </trkpt>
      <trkpt lat="45.98956" lon="6.80098">
        <ele>2059</ele>
        <time>2022-07-16T13:32:21Z</time>
      </trkpt>
      <trkpt lat="45.98965" lon="6.80107">
        <ele>2058</ele>
        <time>2022-07-16T13:32:31Z</time>
      </trkpt>
      <trkpt lat="45.9897" lon="6.8011">
        <ele>2058</ele>
        <time>2022-07-16T13:32:35Z</time>
      </trkpt>
      <trkpt lat="45.98973" lon="6.80114">
        <ele>2058</ele>
        <time>2022-07-16T13:32:39Z</time>
      </trkpt>
      <trkpt lat="45.98978" lon="6.80117">
        <ele>2058</ele>
        <time>2022-07-16T13:32:45Z</time>
      </trkpt>
      <trkpt lat="45.98987" lon="6.80108">
        <ele>2058</ele>
        <time>2022-07-16T13:32:52Z</time>
      </trkpt>
      <trkpt lat="45.98991" lon="6.80109">
        <ele>2058</ele>
        <time>2022-07-16T13:32:55Z</time>
      </trkpt>
      <trkpt lat="45.98995" lon="6.80107">
        <ele>2057</ele>
        <time>2022-07-16T13:32:59Z</time>
      </trkpt>
      <trkpt lat="45.99002" lon="6.80108">
        <ele>2057</ele>
        <time>2022-07-16T13:33:06Z</time>
      </trkpt>
      <trkpt lat="45.99012" lon="6.80106">
        <ele>2057</ele>
        <time>2022-07-16T13:33:15Z</time>
      </trkpt>
      <trkpt lat="45.99016" lon="6.80106">
        <ele>2057</ele>
        <time>2022-07-16T13:33:19Z</time>
      </trkpt>
      <trkpt lat="45.99026" lon="6.80105">
        <ele>2057</ele>
        <time>2022-07-16T13:33:28Z</time>
      </trkpt>
      <trkpt lat="45.99031" lon="6.80103">
        <ele>2057</ele>
        <time>2022-07-16T13:33:33Z</time>
      </trkpt>
      <trkpt lat="45.99041" lon="6.80104">
        <ele>2057</ele>
        <time>2022-07-16T13:33:42Z</time>
      </trkpt>
      <trkpt lat="45.99045" lon="6.801">
        <ele>2057</ele>
        <time>2022-07-16T13:33:46Z</time>
      </trkpt>
      <trkpt lat="45.99058" lon="6.8009">
        <ele>2057</ele>
        <time>2022-07-16T13:33:58Z</time>
      </trkpt>
      <trkpt lat="45.99059" lon="6.80094">
        <ele>2057</ele>
        <time>2022-07-16T13:34:34Z</time>
      </trkpt>
      <trkpt lat="45.99058" lon="6.801">
        <ele>2057</ele>
        <time>2022-07-16T13:34:39Z</time>
      </trkpt>
      <trkpt lat="45.99058" lon="6.80099">
        <ele>2058</ele>
        <time>2022-07-16T13:35:11Z</time>
      </trkpt>
      <trkpt lat="45.99059" lon="6.80092">
        <ele>2058</ele>
        <time>2022-07-16T13:35:16Z</time>
      </trkpt>
      <trkpt lat="45.99058" lon="6.80083">
        <ele>2057</ele>
        <time>2022-07-16T13:35:25Z</time>
      </trkpt>
      <trkpt lat="45.99058" lon="6.80088">
        <ele>2060</ele>
        <time>2022-07-16T13:48:51Z</time>
      </trkpt>
      <trkpt lat="45.99056" lon="6.80088">
        <ele>2059</ele>
        <time>2022-07-16T13:49:29Z</time>
      </trkpt>
      <trkpt lat="45.99055" lon="6.80084">
        <ele>2059</ele>
        <time>2022-07-16T13:49:55Z</time>
      </trkpt>
      <trkpt lat="45.9906" lon="6.80085">
        <ele>2059</ele>
        <time>2022-07-16T13:50:15Z</time>
      </trkpt>
      <trkpt lat="45.9906" lon="6.80086">
        <ele>2059</ele>
        <time>2022-07-16T13:51:20Z</time>
      </trkpt>
      <trkpt lat="45.99064" lon="6.80086">
        <ele>2061</ele>
        <time>2022-07-16T13:53:46Z</time>
      </trkpt>
      <trkpt lat="45.99069" lon="6.80091">
        <ele>2061</ele>
        <time>2022-07-16T13:53:51Z</time>
      </trkpt>
      <trkpt lat="45.99073" lon="6.80091">
        <ele>2061</ele>
        <time>2022-07-16T13:53:56Z</time>
      </trkpt>
      <trkpt lat="45.99078" lon="6.80093">
        <ele>2061</ele>
        <time>2022-07-16T13:54:01Z</time>
      </trkpt>
      <trkpt lat="45.99107" lon="6.80088">
        <ele>2061</ele>
        <time>2022-07-16T13:54:25Z</time>
      </trkpt>
      <trkpt lat="45.99111" lon="6.80085">
        <ele>2061</ele>
        <time>2022-07-16T13:54:30Z</time>
      </trkpt>
      <trkpt lat="45.99119" lon="6.80084">
        <ele>2061</ele>
        <time>2022-07-16T13:54:38Z</time>
      </trkpt>
      <trkpt lat="45.99134" lon="6.80077">
        <ele>2061</ele>
        <time>2022-07-16T13:54:50Z</time>
      </trkpt>
      <trkpt lat="45.9914" lon="6.80077">
        <ele>2061</ele>
        <time>2022-07-16T13:54:56Z</time>
      </trkpt>
      <trkpt lat="45.99167" lon="6.80067">
        <ele>2061</ele>
        <time>2022-07-16T13:55:21Z</time>
      </trkpt>
      <trkpt lat="45.99171" lon="6.80063">
        <ele>2061</ele>
        <time>2022-07-16T13:55:26Z</time>
      </trkpt>
      <trkpt lat="45.99207" lon="6.80042">
        <ele>2061</ele>
        <time>2022-07-16T13:55:59Z</time>
      </trkpt>
      <trkpt lat="45.99231" lon="6.80032">
        <ele>2061</ele>
        <time>2022-07-16T13:56:19Z</time>
      </trkpt>
      <trkpt lat="45.99235" lon="6.80029">
        <ele>2061</ele>
        <time>2022-07-16T13:56:23Z</time>
      </trkpt>
      <trkpt lat="45.99269" lon="6.80018">
        <ele>2061</ele>
        <time>2022-07-16T13:56:53Z</time>
      </trkpt>
      <trkpt lat="45.99279" lon="6.80015">
        <ele>2061</ele>
        <time>2022-07-16T13:57:02Z</time>
      </trkpt>
      <trkpt lat="45.99288" lon="6.80009">
        <ele>2061</ele>
        <time>2022-07-16T13:57:10Z</time>
      </trkpt>
      <trkpt lat="45.99315" lon="6.79997">
        <ele>2060</ele>
        <time>2022-07-16T13:57:34Z</time>
      </trkpt>
      <trkpt lat="45.99329" lon="6.79989">
        <ele>2060</ele>
        <time>2022-07-16T13:57:47Z</time>
      </trkpt>
      <trkpt lat="45.99343" lon="6.79981">
        <ele>2060</ele>
        <time>2022-07-16T13:58:01Z</time>
      </trkpt>
      <trkpt lat="45.9935" lon="6.79972">
        <ele>2059</ele>
        <time>2022-07-16T13:58:09Z</time>
      </trkpt>
      <trkpt lat="45.9936" lon="6.7997">
        <ele>2060</ele>
        <time>2022-07-16T13:58:18Z</time>
      </trkpt>
      <trkpt lat="45.99363" lon="6.79967">
        <ele>2060</ele>
        <time>2022-07-16T13:58:22Z</time>
      </trkpt>
      <trkpt lat="45.99366" lon="6.79961">
        <ele>2060</ele>
        <time>2022-07-16T13:58:26Z</time>
      </trkpt>
      <trkpt lat="45.99367" lon="6.79942">
        <ele>2061</ele>
        <time>2022-07-16T13:58:39Z</time>
      </trkpt>
      <trkpt lat="45.99368" lon="6.79942">
        <ele>2061</ele>
        <time>2022-07-16T13:59:00Z</time>
      </trkpt>
      <trkpt lat="45.9937" lon="6.79948">
        <ele>2061</ele>
        <time>2022-07-16T13:59:05Z</time>
      </trkpt>
      <trkpt lat="45.99373" lon="6.79954">
        <ele>2061</ele>
        <time>2022-07-16T13:59:10Z</time>
      </trkpt>
      <trkpt lat="45.99377" lon="6.79957">
        <ele>2061</ele>
        <time>2022-07-16T13:59:14Z</time>
      </trkpt>
      <trkpt lat="45.99381" lon="6.79953">
        <ele>2061</ele>
        <time>2022-07-16T13:59:19Z</time>
      </trkpt>
      <trkpt lat="45.99385" lon="6.79952">
        <ele>2062</ele>
        <time>2022-07-16T13:59:23Z</time>
      </trkpt>
      <trkpt lat="45.9939" lon="6.79952">
        <ele>2062</ele>
        <time>2022-07-16T13:59:28Z</time>
      </trkpt>
      <trkpt lat="45.99394" lon="6.7995">
        <ele>2062</ele>
        <time>2022-07-16T13:59:32Z</time>
      </trkpt>
      <trkpt lat="45.99399" lon="6.7995">
        <ele>2062</ele>
        <time>2022-07-16T13:59:36Z</time>
      </trkpt>
      <trkpt lat="45.99404" lon="6.7995">
        <ele>2062</ele>
        <time>2022-07-16T13:59:40Z</time>
      </trkpt>
      <trkpt lat="45.99411" lon="6.79944">
        <ele>2062</ele>
        <time>2022-07-16T13:59:48Z</time>
      </trkpt>
      <trkpt lat="45.99414" lon="6.79939">
        <ele>2062</ele>
        <time>2022-07-16T13:59:52Z</time>
      </trkpt>
      <trkpt lat="45.99417" lon="6.79936">
        <ele>2062</ele>
        <time>2022-07-16T13:59:56Z</time>
      </trkpt>
      <trkpt lat="45.99422" lon="6.79933">
        <ele>2062</ele>
        <time>2022-07-16T14:00:04Z</time>
      </trkpt>
      <trkpt lat="45.99427" lon="6.79925">
        <ele>2062</ele>
        <time>2022-07-16T14:00:16Z</time>
      </trkpt>
      <trkpt lat="45.9943" lon="6.7992">
        <ele>2063</ele>
        <time>2022-07-16T14:00:19Z</time>
      </trkpt>
      <trkpt lat="45.99432" lon="6.79913">
        <ele>2063</ele>
        <time>2022-07-16T14:00:24Z</time>
      </trkpt>
      <trkpt lat="45.99432" lon="6.79906">
        <ele>2063</ele>
        <time>2022-07-16T14:00:29Z</time>
      </trkpt>
      <trkpt lat="45.99429" lon="6.79902">
        <ele>2064</ele>
        <time>2022-07-16T14:00:33Z</time>
      </trkpt>
      <trkpt lat="45.99425" lon="6.79898">
        <ele>2064</ele>
        <time>2022-07-16T14:00:37Z</time>
      </trkpt>
      <trkpt lat="45.9942" lon="6.79887">
        <ele>2064</ele>
        <time>2022-07-16T14:00:47Z</time>
      </trkpt>
      <trkpt lat="45.99418" lon="6.79881">
        <ele>2064</ele>
        <time>2022-07-16T14:00:52Z</time>
      </trkpt>
      <trkpt lat="45.99415" lon="6.79877">
        <ele>2064</ele>
        <time>2022-07-16T14:00:56Z</time>
      </trkpt>
      <trkpt lat="45.99412" lon="6.79871">
        <ele>2064</ele>
        <time>2022-07-16T14:01:00Z</time>
      </trkpt>
      <trkpt lat="45.99408" lon="6.79868">
        <ele>2063</ele>
        <time>2022-07-16T14:01:04Z</time>
      </trkpt>
      <trkpt lat="45.99405" lon="6.79864">
        <ele>2063</ele>
        <time>2022-07-16T14:01:08Z</time>
      </trkpt>
      <trkpt lat="45.994" lon="6.79851">
        <ele>2063</ele>
        <time>2022-07-16T14:01:18Z</time>
      </trkpt>
      <trkpt lat="45.99396" lon="6.7985">
        <ele>2062</ele>
        <time>2022-07-16T14:01:22Z</time>
      </trkpt>
      <trkpt lat="45.99391" lon="6.79843">
        <ele>2062</ele>
        <time>2022-07-16T14:01:29Z</time>
      </trkpt>
      <trkpt lat="45.99391" lon="6.79835">
        <ele>2063</ele>
        <time>2022-07-16T14:01:35Z</time>
      </trkpt>
      <trkpt lat="45.9939" lon="6.79829">
        <ele>2062</ele>
        <time>2022-07-16T14:01:39Z</time>
      </trkpt>
      <trkpt lat="45.99385" lon="6.79828">
        <ele>2062</ele>
        <time>2022-07-16T14:01:43Z</time>
      </trkpt>
      <trkpt lat="45.9938" lon="6.79826">
        <ele>2063</ele>
        <time>2022-07-16T14:01:48Z</time>
      </trkpt>
      <trkpt lat="45.99362" lon="6.79815">
        <ele>2063</ele>
        <time>2022-07-16T14:02:07Z</time>
      </trkpt>
      <trkpt lat="45.99365" lon="6.7981">
        <ele>2063</ele>
        <time>2022-07-16T14:02:12Z</time>
      </trkpt>
      <trkpt lat="45.99364" lon="6.79802">
        <ele>2062</ele>
        <time>2022-07-16T14:02:20Z</time>
      </trkpt>
      <trkpt lat="45.99359" lon="6.798">
        <ele>2063</ele>
        <time>2022-07-16T14:02:27Z</time>
      </trkpt>
      <trkpt lat="45.99355" lon="6.79796">
        <ele>2063</ele>
        <time>2022-07-16T14:03:37Z</time>
      </trkpt>
      <trkpt lat="45.99347" lon="6.79789">
        <ele>2063</ele>
        <time>2022-07-16T14:04:21Z</time>
      </trkpt>
      <trkpt lat="45.99334" lon="6.79784">
        <ele>2062</ele>
        <time>2022-07-16T14:04:34Z</time>
      </trkpt>
      <trkpt lat="45.99321" lon="6.79786">
        <ele>2062</ele>
        <time>2022-07-16T14:04:45Z</time>
      </trkpt>
      <trkpt lat="45.99317" lon="6.79783">
        <ele>2062</ele>
        <time>2022-07-16T14:04:49Z</time>
      </trkpt>
      <trkpt lat="45.99313" lon="6.79781">
        <ele>2061</ele>
        <time>2022-07-16T14:04:53Z</time>
      </trkpt>
      <trkpt lat="45.99304" lon="6.79782">
        <ele>2061</ele>
        <time>2022-07-16T14:04:59Z</time>
      </trkpt>
      <trkpt lat="45.993" lon="6.79784">
        <ele>2061</ele>
        <time>2022-07-16T14:05:03Z</time>
      </trkpt>
      <trkpt lat="45.99296" lon="6.79787">
        <ele>2061</ele>
        <time>2022-07-16T14:05:08Z</time>
      </trkpt>
      <trkpt lat="45.99281" lon="6.7979">
        <ele>2061</ele>
        <time>2022-07-16T14:05:20Z</time>
      </trkpt>
      <trkpt lat="45.99275" lon="6.79792">
        <ele>2061</ele>
        <time>2022-07-16T14:05:26Z</time>
      </trkpt>
      <trkpt lat="45.99272" lon="6.79796">
        <ele>2062</ele>
        <time>2022-07-16T14:05:30Z</time>
      </trkpt>
      <trkpt lat="45.99267" lon="6.79794">
        <ele>2062</ele>
        <time>2022-07-16T14:05:34Z</time>
      </trkpt>
      <trkpt lat="45.99261" lon="6.79798">
        <ele>2062</ele>
        <time>2022-07-16T14:05:40Z</time>
      </trkpt>
      <trkpt lat="45.99245" lon="6.79796">
        <ele>2063</ele>
        <time>2022-07-16T14:05:56Z</time>
      </trkpt>
      <trkpt lat="45.9924" lon="6.79788">
        <ele>2063</ele>
        <time>2022-07-16T14:06:01Z</time>
      </trkpt>
      <trkpt lat="45.99231" lon="6.79778">
        <ele>2063</ele>
        <time>2022-07-16T14:06:13Z</time>
      </trkpt>
      <trkpt lat="45.99225" lon="6.79772">
        <ele>2063</ele>
        <time>2022-07-16T14:06:20Z</time>
      </trkpt>
      <trkpt lat="45.99216" lon="6.79766">
        <ele>2063</ele>
        <time>2022-07-16T14:06:29Z</time>
      </trkpt>
      <trkpt lat="45.99213" lon="6.79763">
        <ele>2063</ele>
        <time>2022-07-16T14:06:33Z</time>
      </trkpt>
      <trkpt lat="45.99211" lon="6.79756">
        <ele>2063</ele>
        <time>2022-07-16T14:06:37Z</time>
      </trkpt>
      <trkpt lat="45.9921" lon="6.79724">
        <ele>2063</ele>
        <time>2022-07-16T14:06:59Z</time>
      </trkpt>
      <trkpt lat="45.99213" lon="6.79714">
        <ele>2064</ele>
        <time>2022-07-16T14:07:07Z</time>
      </trkpt>
      <trkpt lat="45.99215" lon="6.79706">
        <ele>2063</ele>
        <time>2022-07-16T14:07:12Z</time>
      </trkpt>
      <trkpt lat="45.99214" lon="6.79698">
        <ele>2063</ele>
        <time>2022-07-16T14:07:16Z</time>
      </trkpt>
      <trkpt lat="45.99212" lon="6.7969">
        <ele>2063</ele>
        <time>2022-07-16T14:07:21Z</time>
      </trkpt>
      <trkpt lat="45.99214" lon="6.79684">
        <ele>2064</ele>
        <time>2022-07-16T14:07:25Z</time>
      </trkpt>
      <trkpt lat="45.99215" lon="6.79676">
        <ele>2064</ele>
        <time>2022-07-16T14:07:30Z</time>
      </trkpt>
      <trkpt lat="45.99215" lon="6.7966">
        <ele>2064</ele>
        <time>2022-07-16T14:07:40Z</time>
      </trkpt>
      <trkpt lat="45.99217" lon="6.79648">
        <ele>2064</ele>
        <time>2022-07-16T14:07:48Z</time>
      </trkpt>
      <trkpt lat="45.99221" lon="6.7964">
        <ele>2064</ele>
        <time>2022-07-16T14:07:53Z</time>
      </trkpt>
      <trkpt lat="45.99219" lon="6.79633">
        <ele>2063</ele>
        <time>2022-07-16T14:07:57Z</time>
      </trkpt>
      <trkpt lat="45.99221" lon="6.79625">
        <ele>2063</ele>
        <time>2022-07-16T14:08:02Z</time>
      </trkpt>
      <trkpt lat="45.99225" lon="6.79616">
        <ele>2063</ele>
        <time>2022-07-16T14:08:09Z</time>
      </trkpt>
      <trkpt lat="45.99225" lon="6.79608">
        <ele>2063</ele>
        <time>2022-07-16T14:08:14Z</time>
      </trkpt>
      <trkpt lat="45.99228" lon="6.79601">
        <ele>2062</ele>
        <time>2022-07-16T14:08:17Z</time>
      </trkpt>
      <trkpt lat="45.99227" lon="6.79593">
        <ele>2062</ele>
        <time>2022-07-16T14:08:22Z</time>
      </trkpt>
      <trkpt lat="45.99225" lon="6.79585">
        <ele>2062</ele>
        <time>2022-07-16T14:08:26Z</time>
      </trkpt>
      <trkpt lat="45.99226" lon="6.79578">
        <ele>2062</ele>
        <time>2022-07-16T14:08:31Z</time>
      </trkpt>
      <trkpt lat="45.99231" lon="6.79573">
        <ele>2062</ele>
        <time>2022-07-16T14:08:35Z</time>
      </trkpt>
      <trkpt lat="45.99231" lon="6.79565">
        <ele>2062</ele>
        <time>2022-07-16T14:08:40Z</time>
      </trkpt>
      <trkpt lat="45.9923" lon="6.79558">
        <ele>2062</ele>
        <time>2022-07-16T14:08:44Z</time>
      </trkpt>
      <trkpt lat="45.9923" lon="6.79551">
        <ele>2062</ele>
        <time>2022-07-16T14:08:48Z</time>
      </trkpt>
      <trkpt lat="45.99232" lon="6.79544">
        <ele>2062</ele>
        <time>2022-07-16T14:08:53Z</time>
      </trkpt>
      <trkpt lat="45.9923" lon="6.79537">
        <ele>2062</ele>
        <time>2022-07-16T14:08:58Z</time>
      </trkpt>
      <trkpt lat="45.99226" lon="6.7953">
        <ele>2062</ele>
        <time>2022-07-16T14:09:02Z</time>
      </trkpt>
      <trkpt lat="45.99229" lon="6.79524">
        <ele>2062</ele>
        <time>2022-07-16T14:09:06Z</time>
      </trkpt>
      <trkpt lat="45.99228" lon="6.79515">
        <ele>2063</ele>
        <time>2022-07-16T14:09:12Z</time>
      </trkpt>
      <trkpt lat="45.99226" lon="6.79508">
        <ele>2062</ele>
        <time>2022-07-16T14:09:16Z</time>
      </trkpt>
      <trkpt lat="45.99227" lon="6.795">
        <ele>2062</ele>
        <time>2022-07-16T14:09:21Z</time>
      </trkpt>
      <trkpt lat="45.99226" lon="6.79492">
        <ele>2062</ele>
        <time>2022-07-16T14:09:26Z</time>
      </trkpt>
      <trkpt lat="45.99225" lon="6.79485">
        <ele>2062</ele>
        <time>2022-07-16T14:09:30Z</time>
      </trkpt>
      <trkpt lat="45.99225" lon="6.79478">
        <ele>2062</ele>
        <time>2022-07-16T14:09:34Z</time>
      </trkpt>
      <trkpt lat="45.99224" lon="6.79471">
        <ele>2062</ele>
        <time>2022-07-16T14:09:39Z</time>
      </trkpt>
      <trkpt lat="45.99221" lon="6.79465">
        <ele>2062</ele>
        <time>2022-07-16T14:09:43Z</time>
      </trkpt>
      <trkpt lat="45.9922" lon="6.79458">
        <ele>2062</ele>
        <time>2022-07-16T14:09:48Z</time>
      </trkpt>
      <trkpt lat="45.9922" lon="6.79451">
        <ele>2062</ele>
        <time>2022-07-16T14:09:52Z</time>
      </trkpt>
      <trkpt lat="45.9922" lon="6.79442">
        <ele>2062</ele>
        <time>2022-07-16T14:09:58Z</time>
      </trkpt>
      <trkpt lat="45.99222" lon="6.79434">
        <ele>2062</ele>
        <time>2022-07-16T14:10:03Z</time>
      </trkpt>
      <trkpt lat="45.99221" lon="6.79424">
        <ele>2062</ele>
        <time>2022-07-16T14:10:11Z</time>
      </trkpt>
      <trkpt lat="45.99215" lon="6.79397">
        <ele>2062</ele>
        <time>2022-07-16T14:10:27Z</time>
      </trkpt>
      <trkpt lat="45.99217" lon="6.79391">
        <ele>2062</ele>
        <time>2022-07-16T14:10:32Z</time>
      </trkpt>
      <trkpt lat="45.99216" lon="6.79384">
        <ele>2062</ele>
        <time>2022-07-16T14:10:37Z</time>
      </trkpt>
      <trkpt lat="45.99213" lon="6.7937">
        <ele>2062</ele>
        <time>2022-07-16T14:10:46Z</time>
      </trkpt>
      <trkpt lat="45.99216" lon="6.79357">
        <ele>2061</ele>
        <time>2022-07-16T14:10:55Z</time>
      </trkpt>
      <trkpt lat="45.9922" lon="6.7934">
        <ele>2063</ele>
        <time>2022-07-16T14:11:07Z</time>
      </trkpt>
      <trkpt lat="45.99223" lon="6.79332">
        <ele>2062</ele>
        <time>2022-07-16T14:11:14Z</time>
      </trkpt>
      <trkpt lat="45.99231" lon="6.79327">
        <ele>2062</ele>
        <time>2022-07-16T14:11:22Z</time>
      </trkpt>
      <trkpt lat="45.99235" lon="6.79324">
        <ele>2062</ele>
        <time>2022-07-16T14:11:26Z</time>
      </trkpt>
      <trkpt lat="45.99243" lon="6.79321">
        <ele>2062</ele>
        <time>2022-07-16T14:11:34Z</time>
      </trkpt>
      <trkpt lat="45.99249" lon="6.79311">
        <ele>2062</ele>
        <time>2022-07-16T14:11:42Z</time>
      </trkpt>
      <trkpt lat="45.99252" lon="6.79306">
        <ele>2061</ele>
        <time>2022-07-16T14:11:47Z</time>
      </trkpt>
      <trkpt lat="45.99257" lon="6.79306">
        <ele>2062</ele>
        <time>2022-07-16T14:11:57Z</time>
      </trkpt>
      <trkpt lat="45.99254" lon="6.79295">
        <ele>2061</ele>
        <time>2022-07-16T14:12:26Z</time>
      </trkpt>
      <trkpt lat="45.99251" lon="6.79291">
        <ele>2060</ele>
        <time>2022-07-16T14:12:33Z</time>
      </trkpt>
      <trkpt lat="45.99245" lon="6.79287">
        <ele>2060</ele>
        <time>2022-07-16T14:12:39Z</time>
      </trkpt>
      <trkpt lat="45.99236" lon="6.79281">
        <ele>2061</ele>
        <time>2022-07-16T14:12:52Z</time>
      </trkpt>
      <trkpt lat="45.99229" lon="6.79281">
        <ele>2061</ele>
        <time>2022-07-16T14:12:59Z</time>
      </trkpt>
      <trkpt lat="45.99222" lon="6.7928">
        <ele>2061</ele>
        <time>2022-07-16T14:13:05Z</time>
      </trkpt>
      <trkpt lat="45.99218" lon="6.79282">
        <ele>2061</ele>
        <time>2022-07-16T14:13:09Z</time>
      </trkpt>
      <trkpt lat="45.9921" lon="6.79289">
        <ele>2060</ele>
        <time>2022-07-16T14:13:17Z</time>
      </trkpt>
      <trkpt lat="45.99202" lon="6.79299">
        <ele>2061</ele>
        <time>2022-07-16T14:13:27Z</time>
      </trkpt>
      <trkpt lat="45.9919" lon="6.79305">
        <ele>2062</ele>
        <time>2022-07-16T14:13:40Z</time>
      </trkpt>
      <trkpt lat="45.99182" lon="6.79322">
        <ele>2063</ele>
        <time>2022-07-16T14:13:53Z</time>
      </trkpt>
      <trkpt lat="45.9918" lon="6.79334">
        <ele>2065</ele>
        <time>2022-07-16T14:14:03Z</time>
      </trkpt>
      <trkpt lat="45.99179" lon="6.79341">
        <ele>2064</ele>
        <time>2022-07-16T14:14:14Z</time>
      </trkpt>
      <trkpt lat="45.99173" lon="6.79355">
        <ele>2061</ele>
        <time>2022-07-16T14:14:29Z</time>
      </trkpt>
      <trkpt lat="45.99171" lon="6.79361">
        <ele>2061</ele>
        <time>2022-07-16T14:14:32Z</time>
      </trkpt>
      <trkpt lat="45.99169" lon="6.79367">
        <ele>2061</ele>
        <time>2022-07-16T14:14:37Z</time>
      </trkpt>
      <trkpt lat="45.99168" lon="6.79374">
        <ele>2061</ele>
        <time>2022-07-16T14:14:41Z</time>
      </trkpt>
      <trkpt lat="45.99168" lon="6.79383">
        <ele>2061</ele>
        <time>2022-07-16T14:14:48Z</time>
      </trkpt>
      <trkpt lat="45.99162" lon="6.79397">
        <ele>2060</ele>
        <time>2022-07-16T14:14:59Z</time>
      </trkpt>
      <trkpt lat="45.99158" lon="6.79401">
        <ele>2061</ele>
        <time>2022-07-16T14:15:03Z</time>
      </trkpt>
      <trkpt lat="45.99152" lon="6.79419">
        <ele>2060</ele>
        <time>2022-07-16T14:15:16Z</time>
      </trkpt>
      <trkpt lat="45.99148" lon="6.79427">
        <ele>2060</ele>
        <time>2022-07-16T14:15:29Z</time>
      </trkpt>
      <trkpt lat="45.99146" lon="6.79439">
        <ele>2060</ele>
        <time>2022-07-16T14:15:36Z</time>
      </trkpt>
      <trkpt lat="45.99148" lon="6.79457">
        <ele>2061</ele>
        <time>2022-07-16T14:15:46Z</time>
      </trkpt>
      <trkpt lat="45.99146" lon="6.7947">
        <ele>2061</ele>
        <time>2022-07-16T14:15:55Z</time>
      </trkpt>
      <trkpt lat="45.99145" lon="6.79475">
        <ele>2061</ele>
        <time>2022-07-16T14:16:00Z</time>
      </trkpt>
      <trkpt lat="45.99145" lon="6.79482">
        <ele>2062</ele>
        <time>2022-07-16T14:16:04Z</time>
      </trkpt>
      <trkpt lat="45.99139" lon="6.79518">
        <ele>2062</ele>
        <time>2022-07-16T14:16:29Z</time>
      </trkpt>
      <trkpt lat="45.99136" lon="6.79523">
        <ele>2062</ele>
        <time>2022-07-16T14:16:33Z</time>
      </trkpt>
      <trkpt lat="45.99135" lon="6.79535">
        <ele>2062</ele>
        <time>2022-07-16T14:16:40Z</time>
      </trkpt>
      <trkpt lat="45.99129" lon="6.79547">
        <ele>2061</ele>
        <time>2022-07-16T14:16:49Z</time>
      </trkpt>
      <trkpt lat="45.99126" lon="6.79552">
        <ele>2061</ele>
        <time>2022-07-16T14:16:53Z</time>
      </trkpt>
      <trkpt lat="45.9912" lon="6.79569">
        <ele>2061</ele>
        <time>2022-07-16T14:17:03Z</time>
      </trkpt>
      <trkpt lat="45.99111" lon="6.79578">
        <ele>2062</ele>
        <time>2022-07-16T14:17:14Z</time>
      </trkpt>
      <trkpt lat="45.99106" lon="6.79578">
        <ele>2062</ele>
        <time>2022-07-16T14:17:18Z</time>
      </trkpt>
      <trkpt lat="45.99098" lon="6.79589">
        <ele>2062</ele>
        <time>2022-07-16T14:17:27Z</time>
      </trkpt>
      <trkpt lat="45.99094" lon="6.79591">
        <ele>2063</ele>
        <time>2022-07-16T14:17:31Z</time>
      </trkpt>
      <trkpt lat="45.99091" lon="6.79595">
        <ele>2063</ele>
        <time>2022-07-16T14:17:36Z</time>
      </trkpt>
      <trkpt lat="45.99086" lon="6.79607">
        <ele>2063</ele>
        <time>2022-07-16T14:17:44Z</time>
      </trkpt>
      <trkpt lat="45.99083" lon="6.7961">
        <ele>2063</ele>
        <time>2022-07-16T14:17:48Z</time>
      </trkpt>
      <trkpt lat="45.99078" lon="6.79612">
        <ele>2063</ele>
        <time>2022-07-16T14:17:53Z</time>
      </trkpt>
      <trkpt lat="45.99075" lon="6.79617">
        <ele>2063</ele>
        <time>2022-07-16T14:17:57Z</time>
      </trkpt>
      <trkpt lat="45.99071" lon="6.79621">
        <ele>2064</ele>
        <time>2022-07-16T14:18:01Z</time>
      </trkpt>
      <trkpt lat="45.99055" lon="6.79627">
        <ele>2064</ele>
        <time>2022-07-16T14:18:20Z</time>
      </trkpt>
      <trkpt lat="45.99053" lon="6.79634">
        <ele>2064</ele>
        <time>2022-07-16T14:18:24Z</time>
      </trkpt>
      <trkpt lat="45.99049" lon="6.79638">
        <ele>2063</ele>
        <time>2022-07-16T14:18:31Z</time>
      </trkpt>
      <trkpt lat="45.99041" lon="6.79635">
        <ele>2062</ele>
        <time>2022-07-16T14:18:40Z</time>
      </trkpt>
      <trkpt lat="45.99036" lon="6.79638">
        <ele>2061</ele>
        <time>2022-07-16T14:18:44Z</time>
      </trkpt>
      <trkpt lat="45.99027" lon="6.79645">
        <ele>2061</ele>
        <time>2022-07-16T14:18:53Z</time>
      </trkpt>
      <trkpt lat="45.99014" lon="6.7966">
        <ele>2060</ele>
        <time>2022-07-16T14:19:09Z</time>
      </trkpt>
      <trkpt lat="45.9901" lon="6.79661">
        <ele>2060</ele>
        <time>2022-07-16T14:19:12Z</time>
      </trkpt>
      <trkpt lat="45.99004" lon="6.79666">
        <ele>2060</ele>
        <time>2022-07-16T14:19:19Z</time>
      </trkpt>
      <trkpt lat="45.99003" lon="6.79673">
        <ele>2060</ele>
        <time>2022-07-16T14:19:23Z</time>
      </trkpt>
      <trkpt lat="45.98999" lon="6.79677">
        <ele>2060</ele>
        <time>2022-07-16T14:19:27Z</time>
      </trkpt>
      <trkpt lat="45.98994" lon="6.79676">
        <ele>2060</ele>
        <time>2022-07-16T14:19:30Z</time>
      </trkpt>
      <trkpt lat="45.98991" lon="6.79683">
        <ele>2060</ele>
        <time>2022-07-16T14:19:34Z</time>
      </trkpt>
      <trkpt lat="45.98987" lon="6.79684">
        <ele>2060</ele>
        <time>2022-07-16T14:19:39Z</time>
      </trkpt>
      <trkpt lat="45.98981" lon="6.79696">
        <ele>2060</ele>
        <time>2022-07-16T14:19:49Z</time>
      </trkpt>
      <trkpt lat="45.98979" lon="6.79703">
        <ele>2060</ele>
        <time>2022-07-16T14:19:53Z</time>
      </trkpt>
      <trkpt lat="45.98967" lon="6.79718">
        <ele>2060</ele>
        <time>2022-07-16T14:20:06Z</time>
      </trkpt>
      <trkpt lat="45.98961" lon="6.79721">
        <ele>2060</ele>
        <time>2022-07-16T14:20:13Z</time>
      </trkpt>
      <trkpt lat="45.98958" lon="6.79726">
        <ele>2060</ele>
        <time>2022-07-16T14:20:17Z</time>
      </trkpt>
      <trkpt lat="45.98951" lon="6.79738">
        <ele>2059</ele>
        <time>2022-07-16T14:20:29Z</time>
      </trkpt>
      <trkpt lat="45.98949" lon="6.79744">
        <ele>2060</ele>
        <time>2022-07-16T14:20:33Z</time>
      </trkpt>
      <trkpt lat="45.98946" lon="6.7975">
        <ele>2059</ele>
        <time>2022-07-16T14:20:36Z</time>
      </trkpt>
      <trkpt lat="45.98941" lon="6.79754">
        <ele>2060</ele>
        <time>2022-07-16T14:20:40Z</time>
      </trkpt>
      <trkpt lat="45.98935" lon="6.79773">
        <ele>2059</ele>
        <time>2022-07-16T14:20:54Z</time>
      </trkpt>
      <trkpt lat="45.98931" lon="6.79778">
        <ele>2060</ele>
        <time>2022-07-16T14:21:00Z</time>
      </trkpt>
      <trkpt lat="45.98928" lon="6.79784">
        <ele>2059</ele>
        <time>2022-07-16T14:21:04Z</time>
      </trkpt>
      <trkpt lat="45.98921" lon="6.79809">
        <ele>2059</ele>
        <time>2022-07-16T14:21:21Z</time>
      </trkpt>
      <trkpt lat="45.98922" lon="6.79817">
        <ele>2059</ele>
        <time>2022-07-16T14:21:26Z</time>
      </trkpt>
      <trkpt lat="45.98919" lon="6.79827">
        <ele>2060</ele>
        <time>2022-07-16T14:21:34Z</time>
      </trkpt>
      <trkpt lat="45.98917" lon="6.79834">
        <ele>2060</ele>
        <time>2022-07-16T14:21:36Z</time>
      </trkpt>
      <trkpt lat="45.98908" lon="6.79845">
        <ele>2060</ele>
        <time>2022-07-16T14:21:48Z</time>
      </trkpt>
      <trkpt lat="45.98903" lon="6.7985">
        <ele>2060</ele>
        <time>2022-07-16T14:21:52Z</time>
      </trkpt>
      <trkpt lat="45.98898" lon="6.79851">
        <ele>2060</ele>
        <time>2022-07-16T14:21:59Z</time>
      </trkpt>
      <trkpt lat="45.98895" lon="6.79857">
        <ele>2061</ele>
        <time>2022-07-16T14:22:04Z</time>
      </trkpt>
      <trkpt lat="45.98872" lon="6.79867">
        <ele>2062</ele>
        <time>2022-07-16T14:22:26Z</time>
      </trkpt>
      <trkpt lat="45.98867" lon="6.7987">
        <ele>2063</ele>
        <time>2022-07-16T14:22:34Z</time>
      </trkpt>
      <trkpt lat="45.98858" lon="6.79871">
        <ele>2064</ele>
        <time>2022-07-16T14:22:43Z</time>
      </trkpt>
      <trkpt lat="45.98855" lon="6.79877">
        <ele>2064</ele>
        <time>2022-07-16T14:22:47Z</time>
      </trkpt>
      <trkpt lat="45.9885" lon="6.79876">
        <ele>2065</ele>
        <time>2022-07-16T14:22:51Z</time>
      </trkpt>
      <trkpt lat="45.98842" lon="6.79882">
        <ele>2066</ele>
        <time>2022-07-16T14:23:03Z</time>
      </trkpt>
      <trkpt lat="45.98835" lon="6.79882">
        <ele>2068</ele>
        <time>2022-07-16T14:23:11Z</time>
      </trkpt>
      <trkpt lat="45.98826" lon="6.7989">
        <ele>2069</ele>
        <time>2022-07-16T14:23:23Z</time>
      </trkpt>
      <trkpt lat="45.98824" lon="6.79894">
        <ele>2071</ele>
        <time>2022-07-16T14:23:35Z</time>
      </trkpt>
      <trkpt lat="45.98819" lon="6.79896">
        <ele>2072</ele>
        <time>2022-07-16T14:23:45Z</time>
      </trkpt>
      <trkpt lat="45.98816" lon="6.79902">
        <ele>2074</ele>
        <time>2022-07-16T14:23:55Z</time>
      </trkpt>
      <trkpt lat="45.9881" lon="6.79903">
        <ele>2075</ele>
        <time>2022-07-16T14:24:05Z</time>
      </trkpt>
      <trkpt lat="45.98808" lon="6.7991">
        <ele>2077</ele>
        <time>2022-07-16T14:24:15Z</time>
      </trkpt>
      <trkpt lat="45.98803" lon="6.7991">
        <ele>2078</ele>
        <time>2022-07-16T14:24:25Z</time>
      </trkpt>
      <trkpt lat="45.98802" lon="6.7992">
        <ele>2079</ele>
        <time>2022-07-16T14:24:33Z</time>
      </trkpt>
      <trkpt lat="45.988" lon="6.79913">
        <ele>2082</ele>
        <time>2022-07-16T14:24:54Z</time>
      </trkpt>
      <trkpt lat="45.98796" lon="6.79913">
        <ele>2083</ele>
        <time>2022-07-16T14:25:04Z</time>
      </trkpt>
      <trkpt lat="45.98791" lon="6.79921">
        <ele>2085</ele>
        <time>2022-07-16T14:25:15Z</time>
      </trkpt>
      <trkpt lat="45.98789" lon="6.79926">
        <ele>2086</ele>
        <time>2022-07-16T14:25:26Z</time>
      </trkpt>
      <trkpt lat="45.98784" lon="6.7993">
        <ele>2088</ele>
        <time>2022-07-16T14:25:37Z</time>
      </trkpt>
      <trkpt lat="45.98777" lon="6.79942">
        <ele>2091</ele>
        <time>2022-07-16T14:26:02Z</time>
      </trkpt>
      <trkpt lat="45.98772" lon="6.79945">
        <ele>2095</ele>
        <time>2022-07-16T14:26:22Z</time>
      </trkpt>
      <trkpt lat="45.9877" lon="6.79952">
        <ele>2096</ele>
        <time>2022-07-16T14:26:28Z</time>
      </trkpt>
      <trkpt lat="45.98763" lon="6.79955">
        <ele>2097</ele>
        <time>2022-07-16T14:26:40Z</time>
      </trkpt>
      <trkpt lat="45.9876" lon="6.79961">
        <ele>2098</ele>
        <time>2022-07-16T14:26:50Z</time>
      </trkpt>
      <trkpt lat="45.9875" lon="6.79959">
        <ele>2100</ele>
        <time>2022-07-16T14:27:01Z</time>
      </trkpt>
      <trkpt lat="45.98745" lon="6.79963">
        <ele>2102</ele>
        <time>2022-07-16T14:27:18Z</time>
      </trkpt>
      <trkpt lat="45.98741" lon="6.79967">
        <ele>2105</ele>
        <time>2022-07-16T14:27:36Z</time>
      </trkpt>
      <trkpt lat="45.98738" lon="6.79963">
        <ele>2107</ele>
        <time>2022-07-16T14:27:46Z</time>
      </trkpt>
      <trkpt lat="45.98732" lon="6.79966">
        <ele>2108</ele>
        <time>2022-07-16T14:27:56Z</time>
      </trkpt>
      <trkpt lat="45.98727" lon="6.79964">
        <ele>2109</ele>
        <time>2022-07-16T14:28:01Z</time>
      </trkpt>
      <trkpt lat="45.98723" lon="6.79968">
        <ele>2110</ele>
        <time>2022-07-16T14:28:09Z</time>
      </trkpt>
      <trkpt lat="45.98716" lon="6.79965">
        <ele>2112</ele>
        <time>2022-07-16T14:28:20Z</time>
      </trkpt>
      <trkpt lat="45.98711" lon="6.79966">
        <ele>2113</ele>
        <time>2022-07-16T14:28:26Z</time>
      </trkpt>
      <trkpt lat="45.98709" lon="6.79973">
        <ele>2114</ele>
        <time>2022-07-16T14:28:33Z</time>
      </trkpt>
      <trkpt lat="45.98705" lon="6.79972">
        <ele>2114</ele>
        <time>2022-07-16T14:28:38Z</time>
      </trkpt>
      <trkpt lat="45.98699" lon="6.79972">
        <ele>2116</ele>
        <time>2022-07-16T14:28:48Z</time>
      </trkpt>
      <trkpt lat="45.98685" lon="6.79973">
        <ele>2120</ele>
        <time>2022-07-16T14:29:15Z</time>
      </trkpt>
      <trkpt lat="45.98671" lon="6.79971">
        <ele>2123</ele>
        <time>2022-07-16T14:29:40Z</time>
      </trkpt>
      <trkpt lat="45.98663" lon="6.7997">
        <ele>2125</ele>
        <time>2022-07-16T14:29:49Z</time>
      </trkpt>
      <trkpt lat="45.98657" lon="6.79978">
        <ele>2127</ele>
        <time>2022-07-16T14:30:03Z</time>
      </trkpt>
      <trkpt lat="45.98652" lon="6.79977">
        <ele>2130</ele>
        <time>2022-07-16T14:30:24Z</time>
      </trkpt>
      <trkpt lat="45.98645" lon="6.79978">
        <ele>2133</ele>
        <time>2022-07-16T14:30:37Z</time>
      </trkpt>
      <trkpt lat="45.98641" lon="6.79978">
        <ele>2133</ele>
        <time>2022-07-16T14:30:44Z</time>
      </trkpt>
      <trkpt lat="45.98634" lon="6.79977">
        <ele>2134</ele>
        <time>2022-07-16T14:30:55Z</time>
      </trkpt>
      <trkpt lat="45.98626" lon="6.79971">
        <ele>2136</ele>
        <time>2022-07-16T14:31:10Z</time>
      </trkpt>
      <trkpt lat="45.98621" lon="6.79973">
        <ele>2136</ele>
        <time>2022-07-16T14:31:17Z</time>
      </trkpt>
      <trkpt lat="45.98614" lon="6.79971">
        <ele>2137</ele>
        <time>2022-07-16T14:31:25Z</time>
      </trkpt>
      <trkpt lat="45.98611" lon="6.79964">
        <ele>2139</ele>
        <time>2022-07-16T14:31:38Z</time>
      </trkpt>
      <trkpt lat="45.98611" lon="6.79951">
        <ele>2140</ele>
        <time>2022-07-16T14:31:50Z</time>
      </trkpt>
      <trkpt lat="45.98608" lon="6.79946">
        <ele>2140</ele>
        <time>2022-07-16T14:31:54Z</time>
      </trkpt>
      <trkpt lat="45.98602" lon="6.79945">
        <ele>2140</ele>
        <time>2022-07-16T14:31:58Z</time>
      </trkpt>
      <trkpt lat="45.98595" lon="6.79945">
        <ele>2142</ele>
        <time>2022-07-16T14:32:08Z</time>
      </trkpt>
      <trkpt lat="45.98587" lon="6.7994">
        <ele>2142</ele>
        <time>2022-07-16T14:32:18Z</time>
      </trkpt>
      <trkpt lat="45.98583" lon="6.79941">
        <ele>2144</ele>
        <time>2022-07-16T14:32:28Z</time>
      </trkpt>
      <trkpt lat="45.98578" lon="6.79938">
        <ele>2144</ele>
        <time>2022-07-16T14:32:34Z</time>
      </trkpt>
      <trkpt lat="45.98574" lon="6.7993">
        <ele>2145</ele>
        <time>2022-07-16T14:32:44Z</time>
      </trkpt>
      <trkpt lat="45.9857" lon="6.79925">
        <ele>2145</ele>
        <time>2022-07-16T14:32:48Z</time>
      </trkpt>
      <trkpt lat="45.98569" lon="6.79919">
        <ele>2145</ele>
        <time>2022-07-16T14:32:53Z</time>
      </trkpt>
      <trkpt lat="45.9856" lon="6.79902">
        <ele>2147</ele>
        <time>2022-07-16T14:33:09Z</time>
      </trkpt>
      <trkpt lat="45.98561" lon="6.79893">
        <ele>2148</ele>
        <time>2022-07-16T14:33:17Z</time>
      </trkpt>
      <trkpt lat="45.98553" lon="6.79863">
        <ele>2149</ele>
        <time>2022-07-16T14:33:39Z</time>
      </trkpt>
      <trkpt lat="45.98552" lon="6.79837">
        <ele>2150</ele>
        <time>2022-07-16T14:34:00Z</time>
      </trkpt>
      <trkpt lat="45.98549" lon="6.79832">
        <ele>2150</ele>
        <time>2022-07-16T14:34:04Z</time>
      </trkpt>
      <trkpt lat="45.98533" lon="6.79821">
        <ele>2151</ele>
        <time>2022-07-16T14:34:19Z</time>
      </trkpt>
      <trkpt lat="45.98529" lon="6.79816">
        <ele>2152</ele>
        <time>2022-07-16T14:34:27Z</time>
      </trkpt>
      <trkpt lat="45.9852" lon="6.79813">
        <ele>2153</ele>
        <time>2022-07-16T14:34:39Z</time>
      </trkpt>
      <trkpt lat="45.98508" lon="6.79817">
        <ele>2155</ele>
        <time>2022-07-16T14:34:53Z</time>
      </trkpt>
      <trkpt lat="45.98505" lon="6.79822">
        <ele>2156</ele>
        <time>2022-07-16T14:35:00Z</time>
      </trkpt>
      <trkpt lat="45.98496" lon="6.79821">
        <ele>2156</ele>
        <time>2022-07-16T14:35:10Z</time>
      </trkpt>
      <trkpt lat="45.98491" lon="6.79819">
        <ele>2157</ele>
        <time>2022-07-16T14:35:15Z</time>
      </trkpt>
      <trkpt lat="45.98487" lon="6.79819">
        <ele>2158</ele>
        <time>2022-07-16T14:35:22Z</time>
      </trkpt>
      <trkpt lat="45.98483" lon="6.79816">
        <ele>2158</ele>
        <time>2022-07-16T14:35:27Z</time>
      </trkpt>
      <trkpt lat="45.98476" lon="6.79813">
        <ele>2159</ele>
        <time>2022-07-16T14:35:36Z</time>
      </trkpt>
      <trkpt lat="45.98471" lon="6.79814">
        <ele>2159</ele>
        <time>2022-07-16T14:35:41Z</time>
      </trkpt>
      <trkpt lat="45.98467" lon="6.79817">
        <ele>2159</ele>
        <time>2022-07-16T14:35:45Z</time>
      </trkpt>
      <trkpt lat="45.98461" lon="6.79815">
        <ele>2160</ele>
        <time>2022-07-16T14:35:54Z</time>
      </trkpt>
      <trkpt lat="45.98455" lon="6.7981">
        <ele>2161</ele>
        <time>2022-07-16T14:36:05Z</time>
      </trkpt>
      <trkpt lat="45.98451" lon="6.79809">
        <ele>2161</ele>
        <time>2022-07-16T14:36:11Z</time>
      </trkpt>
      <trkpt lat="45.98429" lon="6.79789">
        <ele>2163</ele>
        <time>2022-07-16T14:36:41Z</time>
      </trkpt>
      <trkpt lat="45.98424" lon="6.79784">
        <ele>2164</ele>
        <time>2022-07-16T14:36:48Z</time>
      </trkpt>
      <trkpt lat="45.98421" lon="6.79781">
        <ele>2165</ele>
        <time>2022-07-16T14:36:55Z</time>
      </trkpt>
      <trkpt lat="45.9841" lon="6.7978">
        <ele>2167</ele>
        <time>2022-07-16T14:37:11Z</time>
      </trkpt>
      <trkpt lat="45.98406" lon="6.79782">
        <ele>2169</ele>
        <time>2022-07-16T14:37:21Z</time>
      </trkpt>
      <trkpt lat="45.98399" lon="6.79782">
        <ele>2170</ele>
        <time>2022-07-16T14:37:32Z</time>
      </trkpt>
      <trkpt lat="45.98395" lon="6.7978">
        <ele>2171</ele>
        <time>2022-07-16T14:37:42Z</time>
      </trkpt>
      <trkpt lat="45.98391" lon="6.79782">
        <ele>2172</ele>
        <time>2022-07-16T14:37:47Z</time>
      </trkpt>
      <trkpt lat="45.98385" lon="6.79785">
        <ele>2173</ele>
        <time>2022-07-16T14:38:00Z</time>
      </trkpt>
      <trkpt lat="45.9838" lon="6.79782">
        <ele>2175</ele>
        <time>2022-07-16T14:38:11Z</time>
      </trkpt>
      <trkpt lat="45.98373" lon="6.79783">
        <ele>2176</ele>
        <time>2022-07-16T14:38:21Z</time>
      </trkpt>
      <trkpt lat="45.98358" lon="6.79786">
        <ele>2180</ele>
        <time>2022-07-16T14:38:51Z</time>
      </trkpt>
      <trkpt lat="45.98352" lon="6.79786">
        <ele>2182</ele>
        <time>2022-07-16T14:39:01Z</time>
      </trkpt>
      <trkpt lat="45.98346" lon="6.79781">
        <ele>2183</ele>
        <time>2022-07-16T14:39:17Z</time>
      </trkpt>
      <trkpt lat="45.9834" lon="6.7978">
        <ele>2184</ele>
        <time>2022-07-16T14:39:27Z</time>
      </trkpt>
      <trkpt lat="45.98323" lon="6.79765">
        <ele>2188</ele>
        <time>2022-07-16T14:39:59Z</time>
      </trkpt>
      <trkpt lat="45.98318" lon="6.79768">
        <ele>2188</ele>
        <time>2022-07-16T14:40:08Z</time>
      </trkpt>
      <trkpt lat="45.98306" lon="6.79767">
        <ele>2190</ele>
        <time>2022-07-16T14:40:23Z</time>
      </trkpt>
      <trkpt lat="45.98301" lon="6.7976">
        <ele>2190</ele>
        <time>2022-07-16T14:40:29Z</time>
      </trkpt>
      <trkpt lat="45.98297" lon="6.7976">
        <ele>2191</ele>
        <time>2022-07-16T14:40:33Z</time>
      </trkpt>
      <trkpt lat="45.98292" lon="6.79763">
        <ele>2191</ele>
        <time>2022-07-16T14:40:37Z</time>
      </trkpt>
      <trkpt lat="45.98286" lon="6.79762">
        <ele>2191</ele>
        <time>2022-07-16T14:40:44Z</time>
      </trkpt>
      <trkpt lat="45.98283" lon="6.79759">
        <ele>2192</ele>
        <time>2022-07-16T14:40:48Z</time>
      </trkpt>
      <trkpt lat="45.98276" lon="6.79761">
        <ele>2192</ele>
        <time>2022-07-16T14:40:55Z</time>
      </trkpt>
      <trkpt lat="45.98259" lon="6.79771">
        <ele>2195</ele>
        <time>2022-07-16T14:41:18Z</time>
      </trkpt>
      <trkpt lat="45.98254" lon="6.79774">
        <ele>2196</ele>
        <time>2022-07-16T14:41:26Z</time>
      </trkpt>
      <trkpt lat="45.98236" lon="6.79774">
        <ele>2200</ele>
        <time>2022-07-16T14:41:52Z</time>
      </trkpt>
      <trkpt lat="45.98231" lon="6.79775">
        <ele>2201</ele>
        <time>2022-07-16T14:41:59Z</time>
      </trkpt>
      <trkpt lat="45.98214" lon="6.79782">
        <ele>2204</ele>
        <time>2022-07-16T14:42:23Z</time>
      </trkpt>
      <trkpt lat="45.98202" lon="6.79791">
        <ele>2206</ele>
        <time>2022-07-16T14:42:38Z</time>
      </trkpt>
      <trkpt lat="45.98202" lon="6.79804">
        <ele>2208</ele>
        <time>2022-07-16T14:42:49Z</time>
      </trkpt>
      <trkpt lat="45.98206" lon="6.7981">
        <ele>2208</ele>
        <time>2022-07-16T14:42:55Z</time>
      </trkpt>
      <trkpt lat="45.98209" lon="6.79815">
        <ele>2209</ele>
        <time>2022-07-16T14:43:03Z</time>
      </trkpt>
      <trkpt lat="45.98208" lon="6.79823">
        <ele>2209</ele>
        <time>2022-07-16T14:43:09Z</time>
      </trkpt>
      <trkpt lat="45.98199" lon="6.79835">
        <ele>2211</ele>
        <time>2022-07-16T14:43:23Z</time>
      </trkpt>
      <trkpt lat="45.982" lon="6.7984">
        <ele>2216</ele>
        <time>2022-07-16T14:48:07Z</time>
      </trkpt>
      <trkpt lat="45.98195" lon="6.79839">
        <ele>2216</ele>
        <time>2022-07-16T14:52:32Z</time>
      </trkpt>
      <trkpt lat="45.9819" lon="6.79843">
        <ele>2219</ele>
        <time>2022-07-16T14:53:26Z</time>
      </trkpt>
      <trkpt lat="45.98177" lon="6.79842">
        <ele>2222</ele>
        <time>2022-07-16T14:53:48Z</time>
      </trkpt>
      <trkpt lat="45.98166" lon="6.79847">
        <ele>2226</ele>
        <time>2022-07-16T14:54:18Z</time>
      </trkpt>
      <trkpt lat="45.98164" lon="6.79853">
        <ele>2227</ele>
        <time>2022-07-16T14:54:28Z</time>
      </trkpt>
      <trkpt lat="45.98162" lon="6.7986">
        <ele>2228</ele>
        <time>2022-07-16T14:54:39Z</time>
      </trkpt>
      <trkpt lat="45.98156" lon="6.79859">
        <ele>2230</ele>
        <time>2022-07-16T14:54:51Z</time>
      </trkpt>
      <trkpt lat="45.98152" lon="6.79854">
        <ele>2231</ele>
        <time>2022-07-16T14:55:03Z</time>
      </trkpt>
      <trkpt lat="45.98147" lon="6.79851">
        <ele>2235</ele>
        <time>2022-07-16T14:55:28Z</time>
      </trkpt>
      <trkpt lat="45.98145" lon="6.79858">
        <ele>2236</ele>
        <time>2022-07-16T14:55:38Z</time>
      </trkpt>
      <trkpt lat="45.98141" lon="6.79863">
        <ele>2239</ele>
        <time>2022-07-16T14:55:58Z</time>
      </trkpt>
      <trkpt lat="45.98135" lon="6.79864">
        <ele>2243</ele>
        <time>2022-07-16T14:56:23Z</time>
      </trkpt>
      <trkpt lat="45.98132" lon="6.79871">
        <ele>2246</ele>
        <time>2022-07-16T14:56:44Z</time>
      </trkpt>
      <trkpt lat="45.98128" lon="6.79873">
        <ele>2247</ele>
        <time>2022-07-16T14:56:51Z</time>
      </trkpt>
      <trkpt lat="45.98127" lon="6.79879">
        <ele>2249</ele>
        <time>2022-07-16T14:57:07Z</time>
      </trkpt>
      <trkpt lat="45.98124" lon="6.79885">
        <ele>2252</ele>
        <time>2022-07-16T14:57:27Z</time>
      </trkpt>
      <trkpt lat="45.98122" lon="6.79892">
        <ele>2254</ele>
        <time>2022-07-16T14:57:46Z</time>
      </trkpt>
      <trkpt lat="45.98118" lon="6.79897">
        <ele>2257</ele>
        <time>2022-07-16T14:58:03Z</time>
      </trkpt>
      <trkpt lat="45.98114" lon="6.79897">
        <ele>2261</ele>
        <time>2022-07-16T14:58:33Z</time>
      </trkpt>
      <trkpt lat="45.98108" lon="6.79892">
        <ele>2262</ele>
        <time>2022-07-16T14:58:43Z</time>
      </trkpt>
      <trkpt lat="45.98105" lon="6.79896">
        <ele>2264</ele>
        <time>2022-07-16T14:58:54Z</time>
      </trkpt>
      <trkpt lat="45.981" lon="6.79894">
        <ele>2267</ele>
        <time>2022-07-16T14:59:16Z</time>
      </trkpt>
      <trkpt lat="45.98093" lon="6.7989">
        <ele>2270</ele>
        <time>2022-07-16T14:59:46Z</time>
      </trkpt>
      <trkpt lat="45.98093" lon="6.79898">
        <ele>2273</ele>
        <time>2022-07-16T15:01:34Z</time>
      </trkpt>
      <trkpt lat="45.98096" lon="6.79908">
        <ele>2274</ele>
        <time>2022-07-16T15:01:44Z</time>
      </trkpt>
      <trkpt lat="45.98097" lon="6.79914">
        <ele>2273</ele>
        <time>2022-07-16T15:01:48Z</time>
      </trkpt>
      <trkpt lat="45.98096" lon="6.7992">
        <ele>2272</ele>
        <time>2022-07-16T15:01:52Z</time>
      </trkpt>
      <trkpt lat="45.98097" lon="6.79927">
        <ele>2272</ele>
        <time>2022-07-16T15:01:57Z</time>
      </trkpt>
      <trkpt lat="45.98096" lon="6.79936">
        <ele>2272</ele>
        <time>2022-07-16T15:02:03Z</time>
      </trkpt>
      <trkpt lat="45.98099" lon="6.79945">
        <ele>2272</ele>
        <time>2022-07-16T15:02:10Z</time>
      </trkpt>
      <trkpt lat="45.981" lon="6.79952">
        <ele>2271</ele>
        <time>2022-07-16T15:02:18Z</time>
      </trkpt>
      <trkpt lat="45.98102" lon="6.79963">
        <ele>2271</ele>
        <time>2022-07-16T15:02:27Z</time>
      </trkpt>
      <trkpt lat="45.98105" lon="6.79973">
        <ele>2273</ele>
        <time>2022-07-16T15:02:35Z</time>
      </trkpt>
      <trkpt lat="45.98108" lon="6.79979">
        <ele>2273</ele>
        <time>2022-07-16T15:02:39Z</time>
      </trkpt>
      <trkpt lat="45.9811" lon="6.79987">
        <ele>2273</ele>
        <time>2022-07-16T15:02:46Z</time>
      </trkpt>
      <trkpt lat="45.98113" lon="6.79995">
        <ele>2273</ele>
        <time>2022-07-16T15:02:53Z</time>
      </trkpt>
      <trkpt lat="45.98117" lon="6.79998">
        <ele>2274</ele>
        <time>2022-07-16T15:02:58Z</time>
      </trkpt>
      <trkpt lat="45.98112" lon="6.80003">
        <ele>2275</ele>
        <time>2022-07-16T15:03:04Z</time>
      </trkpt>
      <trkpt lat="45.98107" lon="6.80007">
        <ele>2277</ele>
        <time>2022-07-16T15:03:12Z</time>
      </trkpt>
      <trkpt lat="45.9811" lon="6.80017">
        <ele>2280</ele>
        <time>2022-07-16T15:03:31Z</time>
      </trkpt>
      <trkpt lat="45.98108" lon="6.80022">
        <ele>2281</ele>
        <time>2022-07-16T15:03:38Z</time>
      </trkpt>
      <trkpt lat="45.98112" lon="6.80032">
        <ele>2282</ele>
        <time>2022-07-16T15:03:48Z</time>
      </trkpt>
      <trkpt lat="45.98115" lon="6.80042">
        <ele>2284</ele>
        <time>2022-07-16T15:03:57Z</time>
      </trkpt>
      <trkpt lat="45.98118" lon="6.80047">
        <ele>2284</ele>
        <time>2022-07-16T15:04:03Z</time>
      </trkpt>
      <trkpt lat="45.98114" lon="6.80055">
        <ele>2287</ele>
        <time>2022-07-16T15:04:18Z</time>
      </trkpt>
      <trkpt lat="45.98117" lon="6.80062">
        <ele>2289</ele>
        <time>2022-07-16T15:04:33Z</time>
      </trkpt>
      <trkpt lat="45.98112" lon="6.80069">
        <ele>2292</ele>
        <time>2022-07-16T15:04:51Z</time>
      </trkpt>
      <trkpt lat="45.98115" lon="6.80076">
        <ele>2293</ele>
        <time>2022-07-16T15:04:58Z</time>
      </trkpt>
      <trkpt lat="45.98113" lon="6.80082">
        <ele>2296</ele>
        <time>2022-07-16T15:05:14Z</time>
      </trkpt>
      <trkpt lat="45.9811" lon="6.80088">
        <ele>2299</ele>
        <time>2022-07-16T15:05:26Z</time>
      </trkpt>
      <trkpt lat="45.98113" lon="6.80104">
        <ele>2302</ele>
        <time>2022-07-16T15:05:46Z</time>
      </trkpt>
      <trkpt lat="45.98116" lon="6.80115">
        <ele>2305</ele>
        <time>2022-07-16T15:06:00Z</time>
      </trkpt>
      <trkpt lat="45.9812" lon="6.80131">
        <ele>2308</ele>
        <time>2022-07-16T15:06:20Z</time>
      </trkpt>
      <trkpt lat="45.98118" lon="6.80137">
        <ele>2309</ele>
        <time>2022-07-16T15:06:30Z</time>
      </trkpt>
      <trkpt lat="45.98119" lon="6.80155">
        <ele>2313</ele>
        <time>2022-07-16T15:06:50Z</time>
      </trkpt>
      <trkpt lat="45.98122" lon="6.80165">
        <ele>2314</ele>
        <time>2022-07-16T15:07:00Z</time>
      </trkpt>
      <trkpt lat="45.98122" lon="6.8017">
        <ele>2315</ele>
        <time>2022-07-16T15:07:08Z</time>
      </trkpt>
      <trkpt lat="45.98117" lon="6.80179">
        <ele>2316</ele>
        <time>2022-07-16T15:07:20Z</time>
      </trkpt>
      <trkpt lat="45.98113" lon="6.8018">
        <ele>2317</ele>
        <time>2022-07-16T15:07:24Z</time>
      </trkpt>
      <trkpt lat="45.98115" lon="6.80199">
        <ele>2318</ele>
        <time>2022-07-16T15:07:51Z</time>
      </trkpt>
      <trkpt lat="45.98116" lon="6.80208">
        <ele>2320</ele>
        <time>2022-07-16T15:08:03Z</time>
      </trkpt>
      <trkpt lat="45.98119" lon="6.80214">
        <ele>2320</ele>
        <time>2022-07-16T15:08:08Z</time>
      </trkpt>
      <trkpt lat="45.98115" lon="6.80221">
        <ele>2321</ele>
        <time>2022-07-16T15:08:16Z</time>
      </trkpt>
      <trkpt lat="45.98117" lon="6.80228">
        <ele>2323</ele>
        <time>2022-07-16T15:08:21Z</time>
      </trkpt>
      <trkpt lat="45.98115" lon="6.80233">
        <ele>2323</ele>
        <time>2022-07-16T15:08:29Z</time>
      </trkpt>
      <trkpt lat="45.98114" lon="6.80242">
        <ele>2325</ele>
        <time>2022-07-16T15:08:40Z</time>
      </trkpt>
      <trkpt lat="45.98111" lon="6.80249">
        <ele>2327</ele>
        <time>2022-07-16T15:08:50Z</time>
      </trkpt>
      <trkpt lat="45.98111" lon="6.80258">
        <ele>2330</ele>
        <time>2022-07-16T15:09:10Z</time>
      </trkpt>
      <trkpt lat="45.98109" lon="6.80266">
        <ele>2333</ele>
        <time>2022-07-16T15:09:26Z</time>
      </trkpt>
      <trkpt lat="45.98106" lon="6.80274">
        <ele>2335</ele>
        <time>2022-07-16T15:09:39Z</time>
      </trkpt>
      <trkpt lat="45.98102" lon="6.80275">
        <ele>2336</ele>
        <time>2022-07-16T15:09:47Z</time>
      </trkpt>
      <trkpt lat="45.98102" lon="6.80283">
        <ele>2338</ele>
        <time>2022-07-16T15:09:59Z</time>
      </trkpt>
      <trkpt lat="45.98104" lon="6.80291">
        <ele>2340</ele>
        <time>2022-07-16T15:10:14Z</time>
      </trkpt>
      <trkpt lat="45.98104" lon="6.803">
        <ele>2342</ele>
        <time>2022-07-16T15:10:25Z</time>
      </trkpt>
      <trkpt lat="45.98104" lon="6.80309">
        <ele>2345</ele>
        <time>2022-07-16T15:10:40Z</time>
      </trkpt>
      <trkpt lat="45.98106" lon="6.80315">
        <ele>2346</ele>
        <time>2022-07-16T15:10:50Z</time>
      </trkpt>
      <trkpt lat="45.98103" lon="6.80323">
        <ele>2348</ele>
        <time>2022-07-16T15:11:05Z</time>
      </trkpt>
      <trkpt lat="45.98105" lon="6.80337">
        <ele>2351</ele>
        <time>2022-07-16T15:11:21Z</time>
      </trkpt>
      <trkpt lat="45.98104" lon="6.80345">
        <ele>2353</ele>
        <time>2022-07-16T15:11:32Z</time>
      </trkpt>
      <trkpt lat="45.98101" lon="6.8035">
        <ele>2354</ele>
        <time>2022-07-16T15:11:44Z</time>
      </trkpt>
      <trkpt lat="45.98102" lon="6.80358">
        <ele>2357</ele>
        <time>2022-07-16T15:11:59Z</time>
      </trkpt>
      <trkpt lat="45.98097" lon="6.8036">
        <ele>2360</ele>
        <time>2022-07-16T15:12:14Z</time>
      </trkpt>
      <trkpt lat="45.98101" lon="6.80373">
        <ele>2362</ele>
        <time>2022-07-16T15:12:31Z</time>
      </trkpt>
      <trkpt lat="45.98102" lon="6.80381">
        <ele>2363</ele>
        <time>2022-07-16T15:12:41Z</time>
      </trkpt>
      <trkpt lat="45.98105" lon="6.80388">
        <ele>2364</ele>
        <time>2022-07-16T15:12:46Z</time>
      </trkpt>
      <trkpt lat="45.98105" lon="6.80403">
        <ele>2367</ele>
        <time>2022-07-16T15:13:12Z</time>
      </trkpt>
      <trkpt lat="45.9811" lon="6.80412">
        <ele>2370</ele>
        <time>2022-07-16T15:13:27Z</time>
      </trkpt>
      <trkpt lat="45.98105" lon="6.8042">
        <ele>2373</ele>
        <time>2022-07-16T15:13:46Z</time>
      </trkpt>
      <trkpt lat="45.98103" lon="6.80427">
        <ele>2377</ele>
        <time>2022-07-16T15:14:11Z</time>
      </trkpt>
      <trkpt lat="45.98108" lon="6.80434">
        <ele>2380</ele>
        <time>2022-07-16T15:14:26Z</time>
      </trkpt>
      <trkpt lat="45.98108" lon="6.80443">
        <ele>2382</ele>
        <time>2022-07-16T15:14:41Z</time>
      </trkpt>
      <trkpt lat="45.98111" lon="6.8045">
        <ele>2384</ele>
        <time>2022-07-16T15:14:56Z</time>
      </trkpt>
      <trkpt lat="45.98114" lon="6.80455">
        <ele>2386</ele>
        <time>2022-07-16T15:15:11Z</time>
      </trkpt>
      <trkpt lat="45.98111" lon="6.80461">
        <ele>2388</ele>
        <time>2022-07-16T15:15:27Z</time>
      </trkpt>
      <trkpt lat="45.98115" lon="6.80469">
        <ele>2390</ele>
        <time>2022-07-16T15:15:44Z</time>
      </trkpt>
      <trkpt lat="45.98119" lon="6.80478">
        <ele>2394</ele>
        <time>2022-07-16T15:16:08Z</time>
      </trkpt>
      <trkpt lat="45.9812" lon="6.80482">
        <ele>2397</ele>
        <time>2022-07-16T15:16:31Z</time>
      </trkpt>
      <trkpt lat="45.98126" lon="6.80489">
        <ele>2400</ele>
        <time>2022-07-16T15:16:46Z</time>
      </trkpt>
      <trkpt lat="45.98128" lon="6.80497">
        <ele>2402</ele>
        <time>2022-07-16T15:17:06Z</time>
      </trkpt>
      <trkpt lat="45.98134" lon="6.80499">
        <ele>2404</ele>
        <time>2022-07-16T15:17:21Z</time>
      </trkpt>
      <trkpt lat="45.98134" lon="6.80506">
        <ele>2409</ele>
        <time>2022-07-16T15:17:47Z</time>
      </trkpt>
      <trkpt lat="45.98136" lon="6.80513">
        <ele>2411</ele>
        <time>2022-07-16T15:18:03Z</time>
      </trkpt>
      <trkpt lat="45.98139" lon="6.80517">
        <ele>2415</ele>
        <time>2022-07-16T15:18:33Z</time>
      </trkpt>
      <trkpt lat="45.98141" lon="6.80525">
        <ele>2417</ele>
        <time>2022-07-16T15:18:51Z</time>
      </trkpt>
      <trkpt lat="45.98144" lon="6.80531">
        <ele>2418</ele>
        <time>2022-07-16T15:19:01Z</time>
      </trkpt>
      <trkpt lat="45.98145" lon="6.80538">
        <ele>2419</ele>
        <time>2022-07-16T15:19:11Z</time>
      </trkpt>
      <trkpt lat="45.98148" lon="6.80544">
        <ele>2420</ele>
        <time>2022-07-16T15:19:16Z</time>
      </trkpt>
      <trkpt lat="45.98149" lon="6.80553">
        <ele>2421</ele>
        <time>2022-07-16T15:19:26Z</time>
      </trkpt>
      <trkpt lat="45.98151" lon="6.80561">
        <ele>2423</ele>
        <time>2022-07-16T15:19:36Z</time>
      </trkpt>
      <trkpt lat="45.98154" lon="6.80569">
        <ele>2424</ele>
        <time>2022-07-16T15:19:46Z</time>
      </trkpt>
      <trkpt lat="45.98157" lon="6.80576">
        <ele>2426</ele>
        <time>2022-07-16T15:19:54Z</time>
      </trkpt>
      <trkpt lat="45.9816" lon="6.80581">
        <ele>2426</ele>
        <time>2022-07-16T15:19:58Z</time>
      </trkpt>
      <trkpt lat="45.98161" lon="6.80589">
        <ele>2427</ele>
        <time>2022-07-16T15:20:06Z</time>
      </trkpt>
      <trkpt lat="45.98167" lon="6.80594">
        <ele>2428</ele>
        <time>2022-07-16T15:20:13Z</time>
      </trkpt>
      <trkpt lat="45.98169" lon="6.80603">
        <ele>2429</ele>
        <time>2022-07-16T15:20:22Z</time>
      </trkpt>
      <trkpt lat="45.98172" lon="6.80612">
        <ele>2431</ele>
        <time>2022-07-16T15:20:32Z</time>
      </trkpt>
      <trkpt lat="45.98173" lon="6.80619">
        <ele>2433</ele>
        <time>2022-07-16T15:20:42Z</time>
      </trkpt>
      <trkpt lat="45.98175" lon="6.80627">
        <ele>2435</ele>
        <time>2022-07-16T15:20:53Z</time>
      </trkpt>
      <trkpt lat="45.98176" lon="6.80636">
        <ele>2436</ele>
        <time>2022-07-16T15:21:03Z</time>
      </trkpt>
      <trkpt lat="45.98181" lon="6.80648">
        <ele>2438</ele>
        <time>2022-07-16T15:21:18Z</time>
      </trkpt>
      <trkpt lat="45.98192" lon="6.80668">
        <ele>2439</ele>
        <time>2022-07-16T15:21:36Z</time>
      </trkpt>
      <trkpt lat="45.98194" lon="6.80675">
        <ele>2439</ele>
        <time>2022-07-16T15:21:41Z</time>
      </trkpt>
      <trkpt lat="45.98196" lon="6.80681">
        <ele>2440</ele>
        <time>2022-07-16T15:21:45Z</time>
      </trkpt>
      <trkpt lat="45.98198" lon="6.80687">
        <ele>2440</ele>
        <time>2022-07-16T15:21:49Z</time>
      </trkpt>
      <trkpt lat="45.98204" lon="6.80693">
        <ele>2441</ele>
        <time>2022-07-16T15:21:58Z</time>
      </trkpt>
      <trkpt lat="45.98212" lon="6.80695">
        <ele>2443</ele>
        <time>2022-07-16T15:22:09Z</time>
      </trkpt>
      <trkpt lat="45.98217" lon="6.80704">
        <ele>2446</ele>
        <time>2022-07-16T15:22:24Z</time>
      </trkpt>
      <trkpt lat="45.98213" lon="6.80702">
        <ele>2448</ele>
        <time>2022-07-16T15:23:54Z</time>
      </trkpt>
      <trkpt lat="45.98209" lon="6.80695">
        <ele>2446</ele>
        <time>2022-07-16T15:24:05Z</time>
      </trkpt>
      <trkpt lat="45.98203" lon="6.80691">
        <ele>2444</ele>
        <time>2022-07-16T15:24:16Z</time>
      </trkpt>
      <trkpt lat="45.98196" lon="6.80686">
        <ele>2442</ele>
        <time>2022-07-16T15:24:25Z</time>
      </trkpt>
      <trkpt lat="45.98194" lon="6.80681">
        <ele>2441</ele>
        <time>2022-07-16T15:24:29Z</time>
      </trkpt>
      <trkpt lat="45.98192" lon="6.80675">
        <ele>2441</ele>
        <time>2022-07-16T15:24:33Z</time>
      </trkpt>
      <trkpt lat="45.98191" lon="6.80669">
        <ele>2441</ele>
        <time>2022-07-16T15:24:37Z</time>
      </trkpt>
      <trkpt lat="45.98184" lon="6.80656">
        <ele>2441</ele>
        <time>2022-07-16T15:24:50Z</time>
      </trkpt>
      <trkpt lat="45.98175" lon="6.80649">
        <ele>2440</ele>
        <time>2022-07-16T15:24:59Z</time>
      </trkpt>
      <trkpt lat="45.98173" lon="6.80642">
        <ele>2440</ele>
        <time>2022-07-16T15:25:04Z</time>
      </trkpt>
      <trkpt lat="45.98171" lon="6.80637">
        <ele>2439</ele>
        <time>2022-07-16T15:25:08Z</time>
      </trkpt>
      <trkpt lat="45.98163" lon="6.80607">
        <ele>2433</ele>
        <time>2022-07-16T15:25:37Z</time>
      </trkpt>
      <trkpt lat="45.9816" lon="6.80601">
        <ele>2432</ele>
        <time>2022-07-16T15:25:43Z</time>
      </trkpt>
      <trkpt lat="45.98156" lon="6.80596">
        <ele>2430</ele>
        <time>2022-07-16T15:25:50Z</time>
      </trkpt>
      <trkpt lat="45.98156" lon="6.80588">
        <ele>2429</ele>
        <time>2022-07-16T15:25:56Z</time>
      </trkpt>
      <trkpt lat="45.98154" lon="6.80582">
        <ele>2428</ele>
        <time>2022-07-16T15:26:01Z</time>
      </trkpt>
      <trkpt lat="45.98149" lon="6.80575">
        <ele>2426</ele>
        <time>2022-07-16T15:26:09Z</time>
      </trkpt>
      <trkpt lat="45.98147" lon="6.80569">
        <ele>2426</ele>
        <time>2022-07-16T15:26:14Z</time>
      </trkpt>
      <trkpt lat="45.98143" lon="6.80565">
        <ele>2425</ele>
        <time>2022-07-16T15:26:18Z</time>
      </trkpt>
      <trkpt lat="45.98137" lon="6.80548">
        <ele>2422</ele>
        <time>2022-07-16T15:26:34Z</time>
      </trkpt>
      <trkpt lat="45.98135" lon="6.80535">
        <ele>2419</ele>
        <time>2022-07-16T15:26:46Z</time>
      </trkpt>
      <trkpt lat="45.9813" lon="6.80526">
        <ele>2418</ele>
        <time>2022-07-16T15:26:56Z</time>
      </trkpt>
      <trkpt lat="45.98131" lon="6.80518">
        <ele>2413</ele>
        <time>2022-07-16T15:27:16Z</time>
      </trkpt>
      <trkpt lat="45.98128" lon="6.80503">
        <ele>2405</ele>
        <time>2022-07-16T15:27:46Z</time>
      </trkpt>
      <trkpt lat="45.98125" lon="6.80497">
        <ele>2402</ele>
        <time>2022-07-16T15:28:01Z</time>
      </trkpt>
      <trkpt lat="45.98122" lon="6.80488">
        <ele>2399</ele>
        <time>2022-07-16T15:28:17Z</time>
      </trkpt>
      <trkpt lat="45.98118" lon="6.80481">
        <ele>2396</ele>
        <time>2022-07-16T15:28:29Z</time>
      </trkpt>
      <trkpt lat="45.98114" lon="6.80476">
        <ele>2392</ele>
        <time>2022-07-16T15:28:44Z</time>
      </trkpt>
      <trkpt lat="45.98112" lon="6.8047">
        <ele>2390</ele>
        <time>2022-07-16T15:28:54Z</time>
      </trkpt>
      <trkpt lat="45.98109" lon="6.80464">
        <ele>2388</ele>
        <time>2022-07-16T15:29:05Z</time>
      </trkpt>
      <trkpt lat="45.98105" lon="6.80455">
        <ele>2384</ele>
        <time>2022-07-16T15:29:20Z</time>
      </trkpt>
      <trkpt lat="45.98104" lon="6.80449">
        <ele>2382</ele>
        <time>2022-07-16T15:29:30Z</time>
      </trkpt>
      <trkpt lat="45.981" lon="6.80443">
        <ele>2379</ele>
        <time>2022-07-16T15:29:45Z</time>
      </trkpt>
      <trkpt lat="45.98099" lon="6.80436">
        <ele>2378</ele>
        <time>2022-07-16T15:29:51Z</time>
      </trkpt>
      <trkpt lat="45.98095" lon="6.80428">
        <ele>2375</ele>
        <time>2022-07-16T15:30:04Z</time>
      </trkpt>
      <trkpt lat="45.98086" lon="6.80392">
        <ele>2367</ele>
        <time>2022-07-16T15:30:37Z</time>
      </trkpt>
      <trkpt lat="45.98086" lon="6.80385">
        <ele>2365</ele>
        <time>2022-07-16T15:30:44Z</time>
      </trkpt>
      <trkpt lat="45.981" lon="6.80376">
        <ele>2363</ele>
        <time>2022-07-16T15:30:56Z</time>
      </trkpt>
      <trkpt lat="45.98103" lon="6.8037">
        <ele>2360</ele>
        <time>2022-07-16T15:31:04Z</time>
      </trkpt>
      <trkpt lat="45.981" lon="6.80365">
        <ele>2357</ele>
        <time>2022-07-16T15:31:14Z</time>
      </trkpt>
      <trkpt lat="45.981" lon="6.80357">
        <ele>2355</ele>
        <time>2022-07-16T15:31:24Z</time>
      </trkpt>
      <trkpt lat="45.98104" lon="6.80349">
        <ele>2353</ele>
        <time>2022-07-16T15:31:34Z</time>
      </trkpt>
      <trkpt lat="45.98104" lon="6.80339">
        <ele>2350</ele>
        <time>2022-07-16T15:31:44Z</time>
      </trkpt>
      <trkpt lat="45.981" lon="6.80329">
        <ele>2348</ele>
        <time>2022-07-16T15:31:54Z</time>
      </trkpt>
      <trkpt lat="45.981" lon="6.80309">
        <ele>2343</ele>
        <time>2022-07-16T15:32:15Z</time>
      </trkpt>
      <trkpt lat="45.98097" lon="6.80303">
        <ele>2342</ele>
        <time>2022-07-16T15:32:20Z</time>
      </trkpt>
      <trkpt lat="45.98097" lon="6.80294">
        <ele>2340</ele>
        <time>2022-07-16T15:32:28Z</time>
      </trkpt>
      <trkpt lat="45.98097" lon="6.80283">
        <ele>2336</ele>
        <time>2022-07-16T15:32:40Z</time>
      </trkpt>
      <trkpt lat="45.9811" lon="6.8026">
        <ele>2331</ele>
        <time>2022-07-16T15:33:03Z</time>
      </trkpt>
      <trkpt lat="45.98109" lon="6.80254">
        <ele>2328</ele>
        <time>2022-07-16T15:33:15Z</time>
      </trkpt>
      <trkpt lat="45.98113" lon="6.80249">
        <ele>2326</ele>
        <time>2022-07-16T15:33:27Z</time>
      </trkpt>
      <trkpt lat="45.98116" lon="6.8024">
        <ele>2324</ele>
        <time>2022-07-16T15:33:38Z</time>
      </trkpt>
      <trkpt lat="45.98116" lon="6.8023">
        <ele>2321</ele>
        <time>2022-07-16T15:33:47Z</time>
      </trkpt>
      <trkpt lat="45.98113" lon="6.80225">
        <ele>2320</ele>
        <time>2022-07-16T15:34:07Z</time>
      </trkpt>
      <trkpt lat="45.98116" lon="6.80218">
        <ele>2320</ele>
        <time>2022-07-16T15:34:40Z</time>
      </trkpt>
      <trkpt lat="45.98119" lon="6.80212">
        <ele>2319</ele>
        <time>2022-07-16T15:34:52Z</time>
      </trkpt>
      <trkpt lat="45.98117" lon="6.80205">
        <ele>2318</ele>
        <time>2022-07-16T15:34:57Z</time>
      </trkpt>
      <trkpt lat="45.98114" lon="6.80184">
        <ele>2317</ele>
        <time>2022-07-16T15:35:10Z</time>
      </trkpt>
      <trkpt lat="45.98118" lon="6.80143">
        <ele>2310</ele>
        <time>2022-07-16T15:35:42Z</time>
      </trkpt>
      <trkpt lat="45.98117" lon="6.80128">
        <ele>2307</ele>
        <time>2022-07-16T15:35:54Z</time>
      </trkpt>
      <trkpt lat="45.98114" lon="6.80122">
        <ele>2306</ele>
        <time>2022-07-16T15:35:59Z</time>
      </trkpt>
      <trkpt lat="45.98114" lon="6.80113">
        <ele>2304</ele>
        <time>2022-07-16T15:36:07Z</time>
      </trkpt>
      <trkpt lat="45.98112" lon="6.80103">
        <ele>2302</ele>
        <time>2022-07-16T15:36:17Z</time>
      </trkpt>
      <trkpt lat="45.98115" lon="6.80094">
        <ele>2299</ele>
        <time>2022-07-16T15:36:27Z</time>
      </trkpt>
      <trkpt lat="45.98113" lon="6.80084">
        <ele>2297</ele>
        <time>2022-07-16T15:36:38Z</time>
      </trkpt>
      <trkpt lat="45.98116" lon="6.80074">
        <ele>2290</ele>
        <time>2022-07-16T15:36:59Z</time>
      </trkpt>
      <trkpt lat="45.98114" lon="6.80066">
        <ele>2287</ele>
        <time>2022-07-16T15:37:09Z</time>
      </trkpt>
      <trkpt lat="45.98115" lon="6.80057">
        <ele>2285</ele>
        <time>2022-07-16T15:37:19Z</time>
      </trkpt>
      <trkpt lat="45.98114" lon="6.80044">
        <ele>2281</ele>
        <time>2022-07-16T15:37:34Z</time>
      </trkpt>
      <trkpt lat="45.98117" lon="6.80031">
        <ele>2277</ele>
        <time>2022-07-16T15:37:45Z</time>
      </trkpt>
      <trkpt lat="45.98114" lon="6.80016">
        <ele>2274</ele>
        <time>2022-07-16T15:37:56Z</time>
      </trkpt>
      <trkpt lat="45.98114" lon="6.80008">
        <ele>2274</ele>
        <time>2022-07-16T15:38:04Z</time>
      </trkpt>
      <trkpt lat="45.98114" lon="6.8">
        <ele>2271</ele>
        <time>2022-07-16T15:38:14Z</time>
      </trkpt>
      <trkpt lat="45.98112" lon="6.79993">
        <ele>2270</ele>
        <time>2022-07-16T15:38:19Z</time>
      </trkpt>
      <trkpt lat="45.98108" lon="6.79988">
        <ele>2268</ele>
        <time>2022-07-16T15:38:24Z</time>
      </trkpt>
      <trkpt lat="45.98104" lon="6.79983">
        <ele>2268</ele>
        <time>2022-07-16T15:38:28Z</time>
      </trkpt>
      <trkpt lat="45.98099" lon="6.79971">
        <ele>2268</ele>
        <time>2022-07-16T15:38:35Z</time>
      </trkpt>
      <trkpt lat="45.98095" lon="6.79959">
        <ele>2268</ele>
        <time>2022-07-16T15:38:42Z</time>
      </trkpt>
      <trkpt lat="45.98093" lon="6.7995">
        <ele>2266</ele>
        <time>2022-07-16T15:38:50Z</time>
      </trkpt>
      <trkpt lat="45.9809" lon="6.79945">
        <ele>2267</ele>
        <time>2022-07-16T15:38:54Z</time>
      </trkpt>
      <trkpt lat="45.98089" lon="6.79935">
        <ele>2268</ele>
        <time>2022-07-16T15:39:01Z</time>
      </trkpt>
      <trkpt lat="45.9809" lon="6.79929">
        <ele>2267</ele>
        <time>2022-07-16T15:39:05Z</time>
      </trkpt>
      <trkpt lat="45.98088" lon="6.79921">
        <ele>2267</ele>
        <time>2022-07-16T15:39:10Z</time>
      </trkpt>
      <trkpt lat="45.98089" lon="6.79913">
        <ele>2267</ele>
        <time>2022-07-16T15:39:15Z</time>
      </trkpt>
      <trkpt lat="45.98093" lon="6.79908">
        <ele>2268</ele>
        <time>2022-07-16T15:39:20Z</time>
      </trkpt>
      <trkpt lat="45.98097" lon="6.79904">
        <ele>2270</ele>
        <time>2022-07-16T15:39:29Z</time>
      </trkpt>
      <trkpt lat="45.98095" lon="6.79897">
        <ele>2268</ele>
        <time>2022-07-16T15:39:38Z</time>
      </trkpt>
      <trkpt lat="45.98097" lon="6.79885">
        <ele>2265</ele>
        <time>2022-07-16T15:40:48Z</time>
      </trkpt>
      <trkpt lat="45.98093" lon="6.79872">
        <ele>2264</ele>
        <time>2022-07-16T15:40:59Z</time>
      </trkpt>
      <trkpt lat="45.98094" lon="6.79861">
        <ele>2263</ele>
        <time>2022-07-16T15:41:16Z</time>
      </trkpt>
      <trkpt lat="45.98091" lon="6.79855">
        <ele>2263</ele>
        <time>2022-07-16T15:41:21Z</time>
      </trkpt>
      <trkpt lat="45.9809" lon="6.79847">
        <ele>2263</ele>
        <time>2022-07-16T15:41:28Z</time>
      </trkpt>
      <trkpt lat="45.98088" lon="6.79835">
        <ele>2262</ele>
        <time>2022-07-16T15:41:36Z</time>
      </trkpt>
      <trkpt lat="45.98084" lon="6.79829">
        <ele>2261</ele>
        <time>2022-07-16T15:41:41Z</time>
      </trkpt>
      <trkpt lat="45.9808" lon="6.79823">
        <ele>2261</ele>
        <time>2022-07-16T15:41:48Z</time>
      </trkpt>
      <trkpt lat="45.98077" lon="6.79817">
        <ele>2262</ele>
        <time>2022-07-16T15:41:52Z</time>
      </trkpt>
      <trkpt lat="45.98075" lon="6.7981">
        <ele>2261</ele>
        <time>2022-07-16T15:41:57Z</time>
      </trkpt>
      <trkpt lat="45.98073" lon="6.79802">
        <ele>2261</ele>
        <time>2022-07-16T15:42:03Z</time>
      </trkpt>
      <trkpt lat="45.98063" lon="6.79785">
        <ele>2261</ele>
        <time>2022-07-16T15:42:19Z</time>
      </trkpt>
      <trkpt lat="45.9806" lon="6.79781">
        <ele>2260</ele>
        <time>2022-07-16T15:42:23Z</time>
      </trkpt>
      <trkpt lat="45.98052" lon="6.79765">
        <ele>2258</ele>
        <time>2022-07-16T15:42:37Z</time>
      </trkpt>
      <trkpt lat="45.98052" lon="6.79759">
        <ele>2258</ele>
        <time>2022-07-16T15:42:42Z</time>
      </trkpt>
      <trkpt lat="45.9805" lon="6.79753">
        <ele>2258</ele>
        <time>2022-07-16T15:42:47Z</time>
      </trkpt>
      <trkpt lat="45.98049" lon="6.79746">
        <ele>2257</ele>
        <time>2022-07-16T15:42:52Z</time>
      </trkpt>
      <trkpt lat="45.98049" lon="6.79739">
        <ele>2257</ele>
        <time>2022-07-16T15:42:57Z</time>
      </trkpt>
      <trkpt lat="45.98054" lon="6.79729">
        <ele>2257</ele>
        <time>2022-07-16T15:43:05Z</time>
      </trkpt>
      <trkpt lat="45.9805" lon="6.79722">
        <ele>2256</ele>
        <time>2022-07-16T15:43:11Z</time>
      </trkpt>
      <trkpt lat="45.98048" lon="6.79716">
        <ele>2256</ele>
        <time>2022-07-16T15:43:15Z</time>
      </trkpt>
      <trkpt lat="45.98045" lon="6.79709">
        <ele>2255</ele>
        <time>2022-07-16T15:43:21Z</time>
      </trkpt>
      <trkpt lat="45.9804" lon="6.79703">
        <ele>2255</ele>
        <time>2022-07-16T15:43:27Z</time>
      </trkpt>
      <trkpt lat="45.98039" lon="6.79693">
        <ele>2254</ele>
        <time>2022-07-16T15:43:35Z</time>
      </trkpt>
      <trkpt lat="45.98038" lon="6.79682">
        <ele>2254</ele>
        <time>2022-07-16T15:43:44Z</time>
      </trkpt>
      <trkpt lat="45.98039" lon="6.79676">
        <ele>2254</ele>
        <time>2022-07-16T15:43:50Z</time>
      </trkpt>
      <trkpt lat="45.98035" lon="6.7967">
        <ele>2254</ele>
        <time>2022-07-16T15:43:55Z</time>
      </trkpt>
      <trkpt lat="45.98034" lon="6.79664">
        <ele>2255</ele>
        <time>2022-07-16T15:44:02Z</time>
      </trkpt>
      <trkpt lat="45.9803" lon="6.79655">
        <ele>2255</ele>
        <time>2022-07-16T15:44:13Z</time>
      </trkpt>
      <trkpt lat="45.98024" lon="6.79652">
        <ele>2255</ele>
        <time>2022-07-16T15:44:23Z</time>
      </trkpt>
      <trkpt lat="45.98019" lon="6.7965">
        <ele>2252</ele>
        <time>2022-07-16T15:44:38Z</time>
      </trkpt>
      <trkpt lat="45.98013" lon="6.79646">
        <ele>2250</ele>
        <time>2022-07-16T15:44:48Z</time>
      </trkpt>
      <trkpt lat="45.98013" lon="6.79654">
        <ele>2249</ele>
        <time>2022-07-16T15:45:26Z</time>
      </trkpt>
      <trkpt lat="45.98007" lon="6.79657">
        <ele>2246</ele>
        <time>2022-07-16T15:45:41Z</time>
      </trkpt>
      <trkpt lat="45.98003" lon="6.79652">
        <ele>2245</ele>
        <time>2022-07-16T15:45:47Z</time>
      </trkpt>
      <trkpt lat="45.97999" lon="6.79652">
        <ele>2244</ele>
        <time>2022-07-16T15:45:52Z</time>
      </trkpt>
      <trkpt lat="45.97997" lon="6.7966">
        <ele>2242</ele>
        <time>2022-07-16T15:46:01Z</time>
      </trkpt>
      <trkpt lat="45.97996" lon="6.79667">
        <ele>2239</ele>
        <time>2022-07-16T15:46:13Z</time>
      </trkpt>
      <trkpt lat="45.97996" lon="6.79676">
        <ele>2237</ele>
        <time>2022-07-16T15:46:33Z</time>
      </trkpt>
      <trkpt lat="45.9799" lon="6.79672">
        <ele>2234</ele>
        <time>2022-07-16T15:46:48Z</time>
      </trkpt>
      <trkpt lat="45.97986" lon="6.79678">
        <ele>2233</ele>
        <time>2022-07-16T15:46:59Z</time>
      </trkpt>
      <trkpt lat="45.97983" lon="6.79683">
        <ele>2231</ele>
        <time>2022-07-16T15:47:11Z</time>
      </trkpt>
      <trkpt lat="45.97983" lon="6.79693">
        <ele>2229</ele>
        <time>2022-07-16T15:47:22Z</time>
      </trkpt>
      <trkpt lat="45.97982" lon="6.79702">
        <ele>2227</ele>
        <time>2022-07-16T15:47:32Z</time>
      </trkpt>
      <trkpt lat="45.97982" lon="6.79711">
        <ele>2226</ele>
        <time>2022-07-16T15:47:43Z</time>
      </trkpt>
      <trkpt lat="45.97976" lon="6.79716">
        <ele>2221</ele>
        <time>2022-07-16T15:48:04Z</time>
      </trkpt>
      <trkpt lat="45.9797" lon="6.79746">
        <ele>2215</ele>
        <time>2022-07-16T15:48:34Z</time>
      </trkpt>
      <trkpt lat="45.97973" lon="6.79754">
        <ele>2214</ele>
        <time>2022-07-16T15:48:41Z</time>
      </trkpt>
      <trkpt lat="45.9797" lon="6.79761">
        <ele>2210</ele>
        <time>2022-07-16T15:49:01Z</time>
      </trkpt>
      <trkpt lat="45.97972" lon="6.79773">
        <ele>2208</ele>
        <time>2022-07-16T15:49:11Z</time>
      </trkpt>
      <trkpt lat="45.97964" lon="6.79759">
        <ele>2203</ele>
        <time>2022-07-16T15:49:37Z</time>
      </trkpt>
      <trkpt lat="45.97956" lon="6.7975">
        <ele>2200</ele>
        <time>2022-07-16T15:49:52Z</time>
      </trkpt>
      <trkpt lat="45.97949" lon="6.79751">
        <ele>2198</ele>
        <time>2022-07-16T15:50:02Z</time>
      </trkpt>
      <trkpt lat="45.97944" lon="6.79748">
        <ele>2196</ele>
        <time>2022-07-16T15:50:12Z</time>
      </trkpt>
      <trkpt lat="45.9794" lon="6.79745">
        <ele>2194</ele>
        <time>2022-07-16T15:50:22Z</time>
      </trkpt>
      <trkpt lat="45.97938" lon="6.79739">
        <ele>2193</ele>
        <time>2022-07-16T15:50:27Z</time>
      </trkpt>
      <trkpt lat="45.97921" lon="6.79722">
        <ele>2184</ele>
        <time>2022-07-16T15:50:58Z</time>
      </trkpt>
      <trkpt lat="45.97912" lon="6.79709">
        <ele>2182</ele>
        <time>2022-07-16T15:51:15Z</time>
      </trkpt>
      <trkpt lat="45.97908" lon="6.79708">
        <ele>2180</ele>
        <time>2022-07-16T15:51:20Z</time>
      </trkpt>
      <trkpt lat="45.97903" lon="6.79703">
        <ele>2179</ele>
        <time>2022-07-16T15:51:28Z</time>
      </trkpt>
      <trkpt lat="45.979" lon="6.79697">
        <ele>2178</ele>
        <time>2022-07-16T15:51:33Z</time>
      </trkpt>
      <trkpt lat="45.97897" lon="6.79695">
        <ele>2177</ele>
        <time>2022-07-16T15:51:38Z</time>
      </trkpt>
      <trkpt lat="45.97892" lon="6.79693">
        <ele>2175</ele>
        <time>2022-07-16T15:51:48Z</time>
      </trkpt>
      <trkpt lat="45.97887" lon="6.79681">
        <ele>2172</ele>
        <time>2022-07-16T15:51:59Z</time>
      </trkpt>
      <trkpt lat="45.97875" lon="6.79673">
        <ele>2170</ele>
        <time>2022-07-16T15:52:13Z</time>
      </trkpt>
      <trkpt lat="45.97872" lon="6.79667">
        <ele>2170</ele>
        <time>2022-07-16T15:52:17Z</time>
      </trkpt>
      <trkpt lat="45.97865" lon="6.79669">
        <ele>2167</ele>
        <time>2022-07-16T15:52:29Z</time>
      </trkpt>
      <trkpt lat="45.97859" lon="6.79665">
        <ele>2166</ele>
        <time>2022-07-16T15:52:36Z</time>
      </trkpt>
      <trkpt lat="45.97852" lon="6.79664">
        <ele>2164</ele>
        <time>2022-07-16T15:52:48Z</time>
      </trkpt>
      <trkpt lat="45.97849" lon="6.79659">
        <ele>2162</ele>
        <time>2022-07-16T15:52:53Z</time>
      </trkpt>
      <trkpt lat="45.97846" lon="6.79655">
        <ele>2161</ele>
        <time>2022-07-16T15:52:58Z</time>
      </trkpt>
      <trkpt lat="45.97838" lon="6.79653">
        <ele>2159</ele>
        <time>2022-07-16T15:53:10Z</time>
      </trkpt>
      <trkpt lat="45.97835" lon="6.79649">
        <ele>2157</ele>
        <time>2022-07-16T15:53:18Z</time>
      </trkpt>
      <trkpt lat="45.97822" lon="6.79643">
        <ele>2155</ele>
        <time>2022-07-16T15:53:31Z</time>
      </trkpt>
      <trkpt lat="45.97821" lon="6.79654">
        <ele>2153</ele>
        <time>2022-07-16T15:53:42Z</time>
      </trkpt>
      <trkpt lat="45.97823" lon="6.79669">
        <ele>2151</ele>
        <time>2022-07-16T15:53:54Z</time>
      </trkpt>
      <trkpt lat="45.9783" lon="6.79685">
        <ele>2148</ele>
        <time>2022-07-16T15:54:10Z</time>
      </trkpt>
      <trkpt lat="45.97828" lon="6.79693">
        <ele>2146</ele>
        <time>2022-07-16T15:54:22Z</time>
      </trkpt>
      <trkpt lat="45.97828" lon="6.79703">
        <ele>2145</ele>
        <time>2022-07-16T15:54:32Z</time>
      </trkpt>
      <trkpt lat="45.97828" lon="6.79714">
        <ele>2142</ele>
        <time>2022-07-16T15:54:42Z</time>
      </trkpt>
      <trkpt lat="45.97823" lon="6.79721">
        <ele>2141</ele>
        <time>2022-07-16T15:54:52Z</time>
      </trkpt>
      <trkpt lat="45.97822" lon="6.79732">
        <ele>2139</ele>
        <time>2022-07-16T15:55:02Z</time>
      </trkpt>
      <trkpt lat="45.97817" lon="6.79746">
        <ele>2136</ele>
        <time>2022-07-16T15:55:22Z</time>
      </trkpt>
      <trkpt lat="45.97816" lon="6.79754">
        <ele>2134</ele>
        <time>2022-07-16T15:55:50Z</time>
      </trkpt>
      <trkpt lat="45.97813" lon="6.79758">
        <ele>2133</ele>
        <time>2022-07-16T15:56:40Z</time>
      </trkpt>
      <trkpt lat="45.97804" lon="6.79755">
        <ele>2131</ele>
        <time>2022-07-16T15:56:50Z</time>
      </trkpt>
      <trkpt lat="45.97801" lon="6.7975">
        <ele>2128</ele>
        <time>2022-07-16T15:56:57Z</time>
      </trkpt>
      <trkpt lat="45.97798" lon="6.79744">
        <ele>2128</ele>
        <time>2022-07-16T15:57:01Z</time>
      </trkpt>
      <trkpt lat="45.97797" lon="6.79727">
        <ele>2125</ele>
        <time>2022-07-16T15:57:14Z</time>
      </trkpt>
      <trkpt lat="45.97796" lon="6.79717">
        <ele>2125</ele>
        <time>2022-07-16T15:57:23Z</time>
      </trkpt>
      <trkpt lat="45.9779" lon="6.79711">
        <ele>2123</ele>
        <time>2022-07-16T15:57:34Z</time>
      </trkpt>
      <trkpt lat="45.97785" lon="6.79706">
        <ele>2122</ele>
        <time>2022-07-16T15:57:39Z</time>
      </trkpt>
      <trkpt lat="45.97783" lon="6.79696">
        <ele>2120</ele>
        <time>2022-07-16T15:57:53Z</time>
      </trkpt>
      <trkpt lat="45.97779" lon="6.79686">
        <ele>2119</ele>
        <time>2022-07-16T15:58:02Z</time>
      </trkpt>
      <trkpt lat="45.97774" lon="6.79682">
        <ele>2117</ele>
        <time>2022-07-16T15:58:11Z</time>
      </trkpt>
      <trkpt lat="45.9777" lon="6.79677">
        <ele>2116</ele>
        <time>2022-07-16T15:58:15Z</time>
      </trkpt>
      <trkpt lat="45.97766" lon="6.79674">
        <ele>2116</ele>
        <time>2022-07-16T15:58:20Z</time>
      </trkpt>
      <trkpt lat="45.97763" lon="6.79668">
        <ele>2114</ele>
        <time>2022-07-16T15:58:29Z</time>
      </trkpt>
      <trkpt lat="45.97764" lon="6.79658">
        <ele>2113</ele>
        <time>2022-07-16T15:58:39Z</time>
      </trkpt>
      <trkpt lat="45.97761" lon="6.79651">
        <ele>2112</ele>
        <time>2022-07-16T15:58:45Z</time>
      </trkpt>
      <trkpt lat="45.97756" lon="6.79647">
        <ele>2110</ele>
        <time>2022-07-16T15:58:52Z</time>
      </trkpt>
      <trkpt lat="45.97755" lon="6.7964">
        <ele>2108</ele>
        <time>2022-07-16T15:59:04Z</time>
      </trkpt>
      <trkpt lat="45.9775" lon="6.79641">
        <ele>2107</ele>
        <time>2022-07-16T15:59:22Z</time>
      </trkpt>
      <trkpt lat="45.97744" lon="6.79653">
        <ele>2105</ele>
        <time>2022-07-16T15:59:31Z</time>
      </trkpt>
      <trkpt lat="45.97732" lon="6.79642">
        <ele>2100</ele>
        <time>2022-07-16T15:59:57Z</time>
      </trkpt>
      <trkpt lat="45.97726" lon="6.79635">
        <ele>2098</ele>
        <time>2022-07-16T16:00:10Z</time>
      </trkpt>
      <trkpt lat="45.97722" lon="6.79638">
        <ele>2097</ele>
        <time>2022-07-16T16:00:14Z</time>
      </trkpt>
      <trkpt lat="45.97721" lon="6.79652">
        <ele>2095</ele>
        <time>2022-07-16T16:00:25Z</time>
      </trkpt>
      <trkpt lat="45.97723" lon="6.79659">
        <ele>2094</ele>
        <time>2022-07-16T16:00:31Z</time>
      </trkpt>
      <trkpt lat="45.97725" lon="6.79666">
        <ele>2093</ele>
        <time>2022-07-16T16:00:39Z</time>
      </trkpt>
      <trkpt lat="45.97727" lon="6.79671">
        <ele>2092</ele>
        <time>2022-07-16T16:00:44Z</time>
      </trkpt>
      <trkpt lat="45.97729" lon="6.79676">
        <ele>2090</ele>
        <time>2022-07-16T16:00:51Z</time>
      </trkpt>
      <trkpt lat="45.97724" lon="6.79677">
        <ele>2089</ele>
        <time>2022-07-16T16:00:57Z</time>
      </trkpt>
      <trkpt lat="45.97717" lon="6.79671">
        <ele>2087</ele>
        <time>2022-07-16T16:01:08Z</time>
      </trkpt>
      <trkpt lat="45.97715" lon="6.79664">
        <ele>2085</ele>
        <time>2022-07-16T16:01:16Z</time>
      </trkpt>
      <trkpt lat="45.97708" lon="6.79657">
        <ele>2083</ele>
        <time>2022-07-16T16:01:29Z</time>
      </trkpt>
      <trkpt lat="45.97703" lon="6.79663">
        <ele>2083</ele>
        <time>2022-07-16T16:01:39Z</time>
      </trkpt>
      <trkpt lat="45.97701" lon="6.79669">
        <ele>2082</ele>
        <time>2022-07-16T16:01:44Z</time>
      </trkpt>
      <trkpt lat="45.97695" lon="6.79673">
        <ele>2079</ele>
        <time>2022-07-16T16:01:56Z</time>
      </trkpt>
      <trkpt lat="45.97691" lon="6.79673">
        <ele>2078</ele>
        <time>2022-07-16T16:02:02Z</time>
      </trkpt>
      <trkpt lat="45.97676" lon="6.79665">
        <ele>2073</ele>
        <time>2022-07-16T16:02:28Z</time>
      </trkpt>
      <trkpt lat="45.97672" lon="6.79659">
        <ele>2072</ele>
        <time>2022-07-16T16:02:33Z</time>
      </trkpt>
      <trkpt lat="45.97658" lon="6.79653">
        <ele>2068</ele>
        <time>2022-07-16T16:02:49Z</time>
      </trkpt>
      <trkpt lat="45.97651" lon="6.79654">
        <ele>2067</ele>
        <time>2022-07-16T16:02:57Z</time>
      </trkpt>
      <trkpt lat="45.97637" lon="6.79646">
        <ele>2062</ele>
        <time>2022-07-16T16:03:19Z</time>
      </trkpt>
      <trkpt lat="45.97631" lon="6.79646">
        <ele>2061</ele>
        <time>2022-07-16T16:03:29Z</time>
      </trkpt>
      <trkpt lat="45.97632" lon="6.79652">
        <ele>2061</ele>
        <time>2022-07-16T16:03:33Z</time>
      </trkpt>
      <trkpt lat="45.97634" lon="6.79657">
        <ele>2060</ele>
        <time>2022-07-16T16:03:38Z</time>
      </trkpt>
      <trkpt lat="45.97635" lon="6.79664">
        <ele>2059</ele>
        <time>2022-07-16T16:03:43Z</time>
      </trkpt>
      <trkpt lat="45.97633" lon="6.79671">
        <ele>2058</ele>
        <time>2022-07-16T16:03:50Z</time>
      </trkpt>
      <trkpt lat="45.97635" lon="6.79679">
        <ele>2057</ele>
        <time>2022-07-16T16:03:56Z</time>
      </trkpt>
      <trkpt lat="45.97634" lon="6.79695">
        <ele>2054</ele>
        <time>2022-07-16T16:04:10Z</time>
      </trkpt>
      <trkpt lat="45.9763" lon="6.79713">
        <ele>2051</ele>
        <time>2022-07-16T16:04:25Z</time>
      </trkpt>
      <trkpt lat="45.97632" lon="6.79729">
        <ele>2049</ele>
        <time>2022-07-16T16:04:37Z</time>
      </trkpt>
      <trkpt lat="45.97631" lon="6.79738">
        <ele>2048</ele>
        <time>2022-07-16T16:04:45Z</time>
      </trkpt>
      <trkpt lat="45.97631" lon="6.79748">
        <ele>2046</ele>
        <time>2022-07-16T16:04:55Z</time>
      </trkpt>
      <trkpt lat="45.97637" lon="6.79774">
        <ele>2042</ele>
        <time>2022-07-16T16:05:20Z</time>
      </trkpt>
      <trkpt lat="45.97636" lon="6.79785">
        <ele>2039</ele>
        <time>2022-07-16T16:05:30Z</time>
      </trkpt>
      <trkpt lat="45.9763" lon="6.79788">
        <ele>2038</ele>
        <time>2022-07-16T16:05:40Z</time>
      </trkpt>
      <trkpt lat="45.97631" lon="6.79794">
        <ele>2037</ele>
        <time>2022-07-16T16:05:45Z</time>
      </trkpt>
      <trkpt lat="45.97632" lon="6.79804">
        <ele>2035</ele>
        <time>2022-07-16T16:05:57Z</time>
      </trkpt>
      <trkpt lat="45.97628" lon="6.79807">
        <ele>2035</ele>
        <time>2022-07-16T16:06:02Z</time>
      </trkpt>
      <trkpt lat="45.97622" lon="6.79823">
        <ele>2036</ele>
        <time>2022-07-16T16:06:41Z</time>
      </trkpt>
      <trkpt lat="45.9762" lon="6.79846">
        <ele>2033</ele>
        <time>2022-07-16T16:07:01Z</time>
      </trkpt>
      <trkpt lat="45.97621" lon="6.79858">
        <ele>2032</ele>
        <time>2022-07-16T16:07:11Z</time>
      </trkpt>
      <trkpt lat="45.97621" lon="6.79868">
        <ele>2031</ele>
        <time>2022-07-16T16:07:19Z</time>
      </trkpt>
      <trkpt lat="45.97622" lon="6.79888">
        <ele>2029</ele>
        <time>2022-07-16T16:07:32Z</time>
      </trkpt>
      <trkpt lat="45.97618" lon="6.79894">
        <ele>2029</ele>
        <time>2022-07-16T16:07:39Z</time>
      </trkpt>
      <trkpt lat="45.97616" lon="6.799">
        <ele>2029</ele>
        <time>2022-07-16T16:07:44Z</time>
      </trkpt>
      <trkpt lat="45.97615" lon="6.79906">
        <ele>2028</ele>
        <time>2022-07-16T16:07:51Z</time>
      </trkpt>
      <trkpt lat="45.97615" lon="6.79913">
        <ele>2026</ele>
        <time>2022-07-16T16:07:57Z</time>
      </trkpt>
      <trkpt lat="45.97617" lon="6.79918">
        <ele>2024</ele>
        <time>2022-07-16T16:08:03Z</time>
      </trkpt>
      <trkpt lat="45.9762" lon="6.79923">
        <ele>2023</ele>
        <time>2022-07-16T16:08:08Z</time>
      </trkpt>
      <trkpt lat="45.97628" lon="6.79929">
        <ele>2021</ele>
        <time>2022-07-16T16:08:23Z</time>
      </trkpt>
      <trkpt lat="45.97631" lon="6.79935">
        <ele>2021</ele>
        <time>2022-07-16T16:08:28Z</time>
      </trkpt>
      <trkpt lat="45.97631" lon="6.79943">
        <ele>2022</ele>
        <time>2022-07-16T16:08:35Z</time>
      </trkpt>
      <trkpt lat="45.97628" lon="6.79955">
        <ele>2021</ele>
        <time>2022-07-16T16:08:45Z</time>
      </trkpt>
      <trkpt lat="45.97629" lon="6.79967">
        <ele>2020</ele>
        <time>2022-07-16T16:08:53Z</time>
      </trkpt>
      <trkpt lat="45.9763" lon="6.79973">
        <ele>2021</ele>
        <time>2022-07-16T16:08:57Z</time>
      </trkpt>
      <trkpt lat="45.97627" lon="6.7998">
        <ele>2021</ele>
        <time>2022-07-16T16:09:02Z</time>
      </trkpt>
      <trkpt lat="45.97624" lon="6.79987">
        <ele>2020</ele>
        <time>2022-07-16T16:09:09Z</time>
      </trkpt>
      <trkpt lat="45.9762" lon="6.79987">
        <ele>2020</ele>
        <time>2022-07-16T16:09:13Z</time>
      </trkpt>
      <trkpt lat="45.97607" lon="6.79993">
        <ele>2017</ele>
        <time>2022-07-16T16:09:27Z</time>
      </trkpt>
      <trkpt lat="45.97604" lon="6.79998">
        <ele>2017</ele>
        <time>2022-07-16T16:09:32Z</time>
      </trkpt>
      <trkpt lat="45.97583" lon="6.80013">
        <ele>2015</ele>
        <time>2022-07-16T16:09:53Z</time>
      </trkpt>
      <trkpt lat="45.97575" lon="6.8004">
        <ele>2011</ele>
        <time>2022-07-16T16:10:15Z</time>
      </trkpt>
      <trkpt lat="45.97565" lon="6.80041">
        <ele>2009</ele>
        <time>2022-07-16T16:10:23Z</time>
      </trkpt>
      <trkpt lat="45.9756" lon="6.80044">
        <ele>2008</ele>
        <time>2022-07-16T16:10:30Z</time>
      </trkpt>
      <trkpt lat="45.97556" lon="6.80049">
        <ele>2006</ele>
        <time>2022-07-16T16:10:36Z</time>
      </trkpt>
      <trkpt lat="45.97555" lon="6.80056">
        <ele>2006</ele>
        <time>2022-07-16T16:10:40Z</time>
      </trkpt>
      <trkpt lat="45.97548" lon="6.80065">
        <ele>2004</ele>
        <time>2022-07-16T16:10:49Z</time>
      </trkpt>
      <trkpt lat="45.97544" lon="6.80066">
        <ele>2004</ele>
        <time>2022-07-16T16:10:53Z</time>
      </trkpt>
      <trkpt lat="45.97539" lon="6.80067">
        <ele>2004</ele>
        <time>2022-07-16T16:11:00Z</time>
      </trkpt>
      <trkpt lat="45.97535" lon="6.80063">
        <ele>2004</ele>
        <time>2022-07-16T16:11:04Z</time>
      </trkpt>
      <trkpt lat="45.97531" lon="6.80059">
        <ele>2003</ele>
        <time>2022-07-16T16:11:08Z</time>
      </trkpt>
      <trkpt lat="45.97527" lon="6.80059">
        <ele>2003</ele>
        <time>2022-07-16T16:11:12Z</time>
      </trkpt>
      <trkpt lat="45.97521" lon="6.80061">
        <ele>2003</ele>
        <time>2022-07-16T16:11:16Z</time>
      </trkpt>
      <trkpt lat="45.97517" lon="6.80057">
        <ele>2002</ele>
        <time>2022-07-16T16:11:20Z</time>
      </trkpt>
      <trkpt lat="45.97512" lon="6.80056">
        <ele>2001</ele>
        <time>2022-07-16T16:11:26Z</time>
      </trkpt>
      <trkpt lat="45.97508" lon="6.80052">
        <ele>2000</ele>
        <time>2022-07-16T16:11:30Z</time>
      </trkpt>
      <trkpt lat="45.97495" lon="6.8006">
        <ele>1999</ele>
        <time>2022-07-16T16:11:46Z</time>
      </trkpt>
      <trkpt lat="45.97495" lon="6.80057">
        <ele>1998</ele>
        <time>2022-07-16T16:12:28Z</time>
      </trkpt>
      <trkpt lat="45.97488" lon="6.80058">
        <ele>1998</ele>
        <time>2022-07-16T16:12:32Z</time>
      </trkpt>
      <trkpt lat="45.9748" lon="6.80042">
        <ele>1997</ele>
        <time>2022-07-16T16:16:24Z</time>
      </trkpt>
      <trkpt lat="45.97484" lon="6.80082">
        <ele>1992</ele>
        <time>2022-07-16T16:22:22Z</time>
      </trkpt>
      <trkpt lat="45.97487" lon="6.80064">
        <ele>1993</ele>
        <time>2022-07-16T16:23:04Z</time>
      </trkpt>
      <trkpt lat="45.97492" lon="6.80064">
        <ele>1993</ele>
        <time>2022-07-16T16:24:09Z</time>
      </trkpt>
      <trkpt lat="45.97497" lon="6.80064">
        <ele>1996</ele>
        <time>2022-07-16T16:27:34Z</time>
      </trkpt>
      <trkpt lat="45.97497" lon="6.80058">
        <ele>1996</ele>
        <time>2022-07-16T16:27:39Z</time>
      </trkpt>
      <trkpt lat="45.97491" lon="6.80056">
        <ele>1995</ele>
        <time>2022-07-16T16:27:51Z</time>
      </trkpt>
      <trkpt lat="45.97493" lon="6.80049">
        <ele>1995</ele>
        <time>2022-07-16T16:28:31Z</time>
      </trkpt>
      <trkpt lat="45.97497" lon="6.80054">
        <ele>1995</ele>
        <time>2022-07-16T16:28:51Z</time>
      </trkpt>
      <trkpt lat="45.97492" lon="6.80066">
        <ele>1994</ele>
        <time>2022-07-16T16:36:39Z</time>
      </trkpt>
      <trkpt lat="45.97487" lon="6.80071">
        <ele>1995</ele>
        <time>2022-07-16T16:38:31Z</time>
      </trkpt>
      <trkpt lat="45.97489" lon="6.80068">
        <ele>1995</ele>
        <time>2022-07-16T16:39:30Z</time>
      </trkpt>
      <trkpt lat="45.9749" lon="6.80064">
        <ele>1996</ele>
        <time>2022-07-16T16:40:20Z</time>
      </trkpt>
      <trkpt lat="45.97496" lon="6.80066">
        <ele>1995</ele>
        <time>2022-07-16T16:41:44Z</time>
      </trkpt>
      <trkpt lat="45.97496" lon="6.80068">
        <ele>1997</ele>
        <time>2022-07-16T16:45:07Z</time>
      </trkpt>
      <trkpt lat="45.97496" lon="6.80067">
        <ele>1997</ele>
        <time>2022-07-16T16:45:26Z</time>
      </trkpt>
      <trkpt lat="45.97491" lon="6.80056">
        <ele>1996</ele>
        <time>2022-07-16T16:45:45Z</time>
      </trkpt>
      <trkpt lat="45.97486" lon="6.80066">
        <ele>1995</ele>
        <time>2022-07-16T17:33:05Z</time>
      </trkpt>
      <trkpt lat="45.97493" lon="6.80066">
        <ele>1995</ele>
        <time>2022-07-16T17:33:50Z</time>
      </trkpt>
      <trkpt lat="45.97491" lon="6.8006">
        <ele>1995</ele>
        <time>2022-07-16T17:34:45Z</time>
      </trkpt>
      <trkpt lat="45.97489" lon="6.80069">
        <ele>1996</ele>
        <time>2022-07-16T17:36:09Z</time>
      </trkpt>
      <trkpt lat="45.97489" lon="6.80068">
        <ele>1996</ele>
        <time>2022-07-16T17:36:49Z</time>
      </trkpt>
      <trkpt lat="45.9749" lon="6.80061">
        <ele>1996</ele>
        <time>2022-07-16T17:36:59Z</time>
      </trkpt>
      <trkpt lat="45.97492" lon="6.80052">
        <ele>1995</ele>
        <time>2022-07-16T17:37:09Z</time>
      </trkpt>
      <trkpt lat="45.97484" lon="6.80059">
        <ele>1997</ele>
        <time>2022-07-16T17:41:00Z</time>
      </trkpt>
      <trkpt lat="45.97493" lon="6.80067">
        <ele>1994</ele>
        <time>2022-07-16T17:45:46Z</time>
      </trkpt>
      <trkpt lat="45.97497" lon="6.80059">
        <ele>1994</ele>
        <time>2022-07-16T17:46:17Z</time>
      </trkpt>
      <trkpt lat="45.97502" lon="6.80057">
        <ele>1994</ele>
        <time>2022-07-16T17:46:22Z</time>
      </trkpt>
      <trkpt lat="45.975" lon="6.80051">
        <ele>1994</ele>
        <time>2022-07-16T17:46:29Z</time>
      </trkpt>
      <trkpt lat="45.97496" lon="6.80046">
        <ele>1993</ele>
        <time>2022-07-16T17:46:39Z</time>
      </trkpt>
      <trkpt lat="45.9749" lon="6.8004">
        <ele>1992</ele>
        <time>2022-07-16T17:46:50Z</time>
      </trkpt>
      <trkpt lat="45.97486" lon="6.80039">
        <ele>1991</ele>
        <time>2022-07-16T17:46:56Z</time>
      </trkpt>
      <trkpt lat="45.97479" lon="6.80037">
        <ele>1990</ele>
        <time>2022-07-16T17:47:06Z</time>
      </trkpt>
      <trkpt lat="45.97463" lon="6.8003">
        <ele>1987</ele>
        <time>2022-07-16T17:47:30Z</time>
      </trkpt>
      <trkpt lat="45.97454" lon="6.80022">
        <ele>1985</ele>
        <time>2022-07-16T17:47:45Z</time>
      </trkpt>
      <trkpt lat="45.97437" lon="6.79998">
        <ele>1983</ele>
        <time>2022-07-16T17:48:09Z</time>
      </trkpt>
      <trkpt lat="45.97418" lon="6.79991">
        <ele>1982</ele>
        <time>2022-07-16T17:48:28Z</time>
      </trkpt>
      <trkpt lat="45.97412" lon="6.79982">
        <ele>1982</ele>
        <time>2022-07-16T17:48:35Z</time>
      </trkpt>
      <trkpt lat="45.97406" lon="6.79977">
        <ele>1981</ele>
        <time>2022-07-16T17:48:41Z</time>
      </trkpt>
      <trkpt lat="45.97391" lon="6.79968">
        <ele>1981</ele>
        <time>2022-07-16T17:48:56Z</time>
      </trkpt>
      <trkpt lat="45.97378" lon="6.79953">
        <ele>1981</ele>
        <time>2022-07-16T17:49:09Z</time>
      </trkpt>
      <trkpt lat="45.97372" lon="6.79942">
        <ele>1981</ele>
        <time>2022-07-16T17:49:17Z</time>
      </trkpt>
      <trkpt lat="45.97362" lon="6.79929">
        <ele>1980</ele>
        <time>2022-07-16T17:49:28Z</time>
      </trkpt>
      <trkpt lat="45.97356" lon="6.79925">
        <ele>1980</ele>
        <time>2022-07-16T17:49:35Z</time>
      </trkpt>
      <trkpt lat="45.97353" lon="6.7992">
        <ele>1981</ele>
        <time>2022-07-16T17:49:39Z</time>
      </trkpt>
      <trkpt lat="45.97349" lon="6.79916">
        <ele>1981</ele>
        <time>2022-07-16T17:49:44Z</time>
      </trkpt>
      <trkpt lat="45.97342" lon="6.79906">
        <ele>1981</ele>
        <time>2022-07-16T17:49:52Z</time>
      </trkpt>
      <trkpt lat="45.97328" lon="6.79898">
        <ele>1981</ele>
        <time>2022-07-16T17:50:04Z</time>
      </trkpt>
      <trkpt lat="45.97319" lon="6.79894">
        <ele>1982</ele>
        <time>2022-07-16T17:50:13Z</time>
      </trkpt>
      <trkpt lat="45.97315" lon="6.7989">
        <ele>1983</ele>
        <time>2022-07-16T17:50:17Z</time>
      </trkpt>
      <trkpt lat="45.97311" lon="6.79886">
        <ele>1982</ele>
        <time>2022-07-16T17:50:21Z</time>
      </trkpt>
      <trkpt lat="45.97304" lon="6.79876">
        <ele>1981</ele>
        <time>2022-07-16T17:50:31Z</time>
      </trkpt>
      <trkpt lat="45.97278" lon="6.79854">
        <ele>1975</ele>
        <time>2022-07-16T17:51:04Z</time>
      </trkpt>
      <trkpt lat="45.97274" lon="6.79851">
        <ele>1974</ele>
        <time>2022-07-16T17:51:08Z</time>
      </trkpt>
      <trkpt lat="45.97262" lon="6.79838">
        <ele>1972</ele>
        <time>2022-07-16T17:51:20Z</time>
      </trkpt>
      <trkpt lat="45.97258" lon="6.79837">
        <ele>1972</ele>
        <time>2022-07-16T17:51:24Z</time>
      </trkpt>
      <trkpt lat="45.97255" lon="6.79832">
        <ele>1971</ele>
        <time>2022-07-16T17:51:28Z</time>
      </trkpt>
      <trkpt lat="45.97248" lon="6.79832">
        <ele>1970</ele>
        <time>2022-07-16T17:51:35Z</time>
      </trkpt>
      <trkpt lat="45.97233" lon="6.79823">
        <ele>1967</ele>
        <time>2022-07-16T17:51:51Z</time>
      </trkpt>
      <trkpt lat="45.97222" lon="6.79812">
        <ele>1967</ele>
        <time>2022-07-16T17:52:01Z</time>
      </trkpt>
      <trkpt lat="45.97218" lon="6.79809">
        <ele>1967</ele>
        <time>2022-07-16T17:52:05Z</time>
      </trkpt>
      <trkpt lat="45.97209" lon="6.79808">
        <ele>1966</ele>
        <time>2022-07-16T17:52:13Z</time>
      </trkpt>
      <trkpt lat="45.97205" lon="6.79805">
        <ele>1966</ele>
        <time>2022-07-16T17:52:17Z</time>
      </trkpt>
      <trkpt lat="45.97197" lon="6.79798">
        <ele>1966</ele>
        <time>2022-07-16T17:52:25Z</time>
      </trkpt>
      <trkpt lat="45.97191" lon="6.79793">
        <ele>1966</ele>
        <time>2022-07-16T17:52:31Z</time>
      </trkpt>
      <trkpt lat="45.97179" lon="6.79785">
        <ele>1966</ele>
        <time>2022-07-16T17:52:42Z</time>
      </trkpt>
      <trkpt lat="45.97171" lon="6.79782">
        <ele>1967</ele>
        <time>2022-07-16T17:52:52Z</time>
      </trkpt>
      <trkpt lat="45.97165" lon="6.79777">
        <ele>1966</ele>
        <time>2022-07-16T17:52:58Z</time>
      </trkpt>
      <trkpt lat="45.97143" lon="6.79745">
        <ele>1963</ele>
        <time>2022-07-16T17:53:28Z</time>
      </trkpt>
      <trkpt lat="45.97139" lon="6.79736">
        <ele>1962</ele>
        <time>2022-07-16T17:53:36Z</time>
      </trkpt>
      <trkpt lat="45.97131" lon="6.79725">
        <ele>1961</ele>
        <time>2022-07-16T17:53:47Z</time>
      </trkpt>
      <trkpt lat="45.97129" lon="6.7972">
        <ele>1961</ele>
        <time>2022-07-16T17:53:50Z</time>
      </trkpt>
      <trkpt lat="45.97114" lon="6.79705">
        <ele>1960</ele>
        <time>2022-07-16T17:54:05Z</time>
      </trkpt>
      <trkpt lat="45.97109" lon="6.79703">
        <ele>1959</ele>
        <time>2022-07-16T17:54:09Z</time>
      </trkpt>
      <trkpt lat="45.97105" lon="6.79702">
        <ele>1959</ele>
        <time>2022-07-16T17:54:13Z</time>
      </trkpt>
      <trkpt lat="45.971" lon="6.797">
        <ele>1959</ele>
        <time>2022-07-16T17:54:17Z</time>
      </trkpt>
      <trkpt lat="45.97092" lon="6.79694">
        <ele>1958</ele>
        <time>2022-07-16T17:54:26Z</time>
      </trkpt>
      <trkpt lat="45.97085" lon="6.79692">
        <ele>1956</ele>
        <time>2022-07-16T17:54:35Z</time>
      </trkpt>
      <trkpt lat="45.97081" lon="6.79688">
        <ele>1954</ele>
        <time>2022-07-16T17:54:45Z</time>
      </trkpt>
      <trkpt lat="45.97065" lon="6.7968">
        <ele>1952</ele>
        <time>2022-07-16T17:55:01Z</time>
      </trkpt>
      <trkpt lat="45.97055" lon="6.79671">
        <ele>1954</ele>
        <time>2022-07-16T17:55:13Z</time>
      </trkpt>
      <trkpt lat="45.97029" lon="6.7966">
        <ele>1957</ele>
        <time>2022-07-16T17:55:46Z</time>
      </trkpt>
      <trkpt lat="45.97014" lon="6.79652">
        <ele>1959</ele>
        <time>2022-07-16T17:56:04Z</time>
      </trkpt>
      <trkpt lat="45.97009" lon="6.79652">
        <ele>1959</ele>
        <time>2022-07-16T17:56:08Z</time>
      </trkpt>
      <trkpt lat="45.97004" lon="6.7965">
        <ele>1959</ele>
        <time>2022-07-16T17:56:13Z</time>
      </trkpt>
      <trkpt lat="45.97" lon="6.79646">
        <ele>1959</ele>
        <time>2022-07-16T17:56:18Z</time>
      </trkpt>
      <trkpt lat="45.96995" lon="6.79642">
        <ele>1959</ele>
        <time>2022-07-16T17:56:24Z</time>
      </trkpt>
      <trkpt lat="45.96986" lon="6.79633">
        <ele>1959</ele>
        <time>2022-07-16T17:56:33Z</time>
      </trkpt>
      <trkpt lat="45.96976" lon="6.79627">
        <ele>1959</ele>
        <time>2022-07-16T17:56:41Z</time>
      </trkpt>
      <trkpt lat="45.96967" lon="6.79624">
        <ele>1959</ele>
        <time>2022-07-16T17:56:51Z</time>
      </trkpt>
      <trkpt lat="45.96962" lon="6.79623">
        <ele>1959</ele>
        <time>2022-07-16T17:56:55Z</time>
      </trkpt>
      <trkpt lat="45.96958" lon="6.79623">
        <ele>1960</ele>
        <time>2022-07-16T17:57:00Z</time>
      </trkpt>
      <trkpt lat="45.96943" lon="6.79621">
        <ele>1962</ele>
        <time>2022-07-16T17:57:16Z</time>
      </trkpt>
      <trkpt lat="45.96933" lon="6.79623">
        <ele>1964</ele>
        <time>2022-07-16T17:57:26Z</time>
      </trkpt>
      <trkpt lat="45.96924" lon="6.79629">
        <ele>1965</ele>
        <time>2022-07-16T17:57:35Z</time>
      </trkpt>
      <trkpt lat="45.9692" lon="6.79628">
        <ele>1966</ele>
        <time>2022-07-16T17:57:40Z</time>
      </trkpt>
      <trkpt lat="45.96907" lon="6.79634">
        <ele>1967</ele>
        <time>2022-07-16T17:57:53Z</time>
      </trkpt>
      <trkpt lat="45.96897" lon="6.79632">
        <ele>1968</ele>
        <time>2022-07-16T17:58:03Z</time>
      </trkpt>
      <trkpt lat="45.96893" lon="6.7963">
        <ele>1968</ele>
        <time>2022-07-16T17:58:07Z</time>
      </trkpt>
      <trkpt lat="45.96889" lon="6.79635">
        <ele>1969</ele>
        <time>2022-07-16T17:58:12Z</time>
      </trkpt>
      <trkpt lat="45.96875" lon="6.79636">
        <ele>1969</ele>
        <time>2022-07-16T17:58:25Z</time>
      </trkpt>
      <trkpt lat="45.96868" lon="6.79642">
        <ele>1971</ele>
        <time>2022-07-16T17:58:34Z</time>
      </trkpt>
      <trkpt lat="45.96866" lon="6.79647">
        <ele>1971</ele>
        <time>2022-07-16T17:58:38Z</time>
      </trkpt>
      <trkpt lat="45.96858" lon="6.79654">
        <ele>1973</ele>
        <time>2022-07-16T17:58:48Z</time>
      </trkpt>
      <trkpt lat="45.96853" lon="6.79652">
        <ele>1973</ele>
        <time>2022-07-16T17:58:54Z</time>
      </trkpt>
      <trkpt lat="45.96848" lon="6.79652">
        <ele>1973</ele>
        <time>2022-07-16T17:58:59Z</time>
      </trkpt>
      <trkpt lat="45.96843" lon="6.79648">
        <ele>1973</ele>
        <time>2022-07-16T17:59:06Z</time>
      </trkpt>
      <trkpt lat="45.96835" lon="6.79642">
        <ele>1973</ele>
        <time>2022-07-16T17:59:15Z</time>
      </trkpt>
      <trkpt lat="45.96822" lon="6.79634">
        <ele>1972</ele>
        <time>2022-07-16T17:59:28Z</time>
      </trkpt>
      <trkpt lat="45.96803" lon="6.79616">
        <ele>1969</ele>
        <time>2022-07-16T17:59:50Z</time>
      </trkpt>
      <trkpt lat="45.96779" lon="6.79611">
        <ele>1966</ele>
        <time>2022-07-16T18:00:15Z</time>
      </trkpt>
      <trkpt lat="45.96774" lon="6.79612">
        <ele>1966</ele>
        <time>2022-07-16T18:00:20Z</time>
      </trkpt>
      <trkpt lat="45.96761" lon="6.79618">
        <ele>1965</ele>
        <time>2022-07-16T18:00:33Z</time>
      </trkpt>
      <trkpt lat="45.96752" lon="6.79615">
        <ele>1965</ele>
        <time>2022-07-16T18:00:42Z</time>
      </trkpt>
      <trkpt lat="45.96746" lon="6.79604">
        <ele>1963</ele>
        <time>2022-07-16T18:00:51Z</time>
      </trkpt>
      <trkpt lat="45.96741" lon="6.79602">
        <ele>1962</ele>
        <time>2022-07-16T18:00:56Z</time>
      </trkpt>
      <trkpt lat="45.96737" lon="6.79601">
        <ele>1962</ele>
        <time>2022-07-16T18:01:00Z</time>
      </trkpt>
      <trkpt lat="45.96709" lon="6.7958">
        <ele>1956</ele>
        <time>2022-07-16T18:01:34Z</time>
      </trkpt>
      <trkpt lat="45.96704" lon="6.79573">
        <ele>1953</ele>
        <time>2022-07-16T18:01:47Z</time>
      </trkpt>
      <trkpt lat="45.96696" lon="6.7955">
        <ele>1951</ele>
        <time>2022-07-16T18:02:04Z</time>
      </trkpt>
      <trkpt lat="45.96693" lon="6.79533">
        <ele>1949</ele>
        <time>2022-07-16T18:02:17Z</time>
      </trkpt>
      <trkpt lat="45.96691" lon="6.79527">
        <ele>1948</ele>
        <time>2022-07-16T18:02:22Z</time>
      </trkpt>
      <trkpt lat="45.96688" lon="6.79521">
        <ele>1947</ele>
        <time>2022-07-16T18:02:27Z</time>
      </trkpt>
      <trkpt lat="45.96673" lon="6.79506">
        <ele>1945</ele>
        <time>2022-07-16T18:02:45Z</time>
      </trkpt>
      <trkpt lat="45.96667" lon="6.79496">
        <ele>1943</ele>
        <time>2022-07-16T18:02:54Z</time>
      </trkpt>
      <trkpt lat="45.96659" lon="6.79492">
        <ele>1942</ele>
        <time>2022-07-16T18:03:02Z</time>
      </trkpt>
      <trkpt lat="45.96645" lon="6.79473">
        <ele>1939</ele>
        <time>2022-07-16T18:03:19Z</time>
      </trkpt>
      <trkpt lat="45.96642" lon="6.79468">
        <ele>1938</ele>
        <time>2022-07-16T18:03:23Z</time>
      </trkpt>
      <trkpt lat="45.96639" lon="6.79462">
        <ele>1938</ele>
        <time>2022-07-16T18:03:27Z</time>
      </trkpt>
      <trkpt lat="45.96635" lon="6.79458">
        <ele>1938</ele>
        <time>2022-07-16T18:03:31Z</time>
      </trkpt>
      <trkpt lat="45.96631" lon="6.79456">
        <ele>1937</ele>
        <time>2022-07-16T18:03:35Z</time>
      </trkpt>
      <trkpt lat="45.96623" lon="6.79442">
        <ele>1938</ele>
        <time>2022-07-16T18:03:47Z</time>
      </trkpt>
      <trkpt lat="45.96617" lon="6.79435">
        <ele>1936</ele>
        <time>2022-07-16T18:03:55Z</time>
      </trkpt>
      <trkpt lat="45.9661" lon="6.79426">
        <ele>1935</ele>
        <time>2022-07-16T18:04:04Z</time>
      </trkpt>
      <trkpt lat="45.96601" lon="6.79409">
        <ele>1934</ele>
        <time>2022-07-16T18:04:17Z</time>
      </trkpt>
      <trkpt lat="45.96594" lon="6.79406">
        <ele>1934</ele>
        <time>2022-07-16T18:04:26Z</time>
      </trkpt>
      <trkpt lat="45.96589" lon="6.79403">
        <ele>1934</ele>
        <time>2022-07-16T18:04:31Z</time>
      </trkpt>
      <trkpt lat="45.96585" lon="6.79403">
        <ele>1935</ele>
        <time>2022-07-16T18:04:38Z</time>
      </trkpt>
      <trkpt lat="45.9658" lon="6.79405">
        <ele>1936</ele>
        <time>2022-07-16T18:04:43Z</time>
      </trkpt>
      <trkpt lat="45.96564" lon="6.79416">
        <ele>1939</ele>
        <time>2022-07-16T18:05:13Z</time>
      </trkpt>
      <trkpt lat="45.96557" lon="6.79417">
        <ele>1940</ele>
        <time>2022-07-16T18:05:23Z</time>
      </trkpt>
      <trkpt lat="45.96552" lon="6.79419">
        <ele>1940</ele>
        <time>2022-07-16T18:05:28Z</time>
      </trkpt>
      <trkpt lat="45.96548" lon="6.79417">
        <ele>1941</ele>
        <time>2022-07-16T18:05:35Z</time>
      </trkpt>
      <trkpt lat="45.96542" lon="6.79417">
        <ele>1942</ele>
        <time>2022-07-16T18:05:45Z</time>
      </trkpt>
      <trkpt lat="45.96536" lon="6.79413">
        <ele>1944</ele>
        <time>2022-07-16T18:05:55Z</time>
      </trkpt>
      <trkpt lat="45.96532" lon="6.79414">
        <ele>1944</ele>
        <time>2022-07-16T18:06:00Z</time>
      </trkpt>
      <trkpt lat="45.96526" lon="6.7941">
        <ele>1944</ele>
        <time>2022-07-16T18:06:07Z</time>
      </trkpt>
      <trkpt lat="45.96518" lon="6.79401">
        <ele>1945</ele>
        <time>2022-07-16T18:06:19Z</time>
      </trkpt>
      <trkpt lat="45.96511" lon="6.79397">
        <ele>1946</ele>
        <time>2022-07-16T18:06:30Z</time>
      </trkpt>
      <trkpt lat="45.96507" lon="6.79402">
        <ele>1947</ele>
        <time>2022-07-16T18:06:40Z</time>
      </trkpt>
      <trkpt lat="45.96502" lon="6.79397">
        <ele>1949</ele>
        <time>2022-07-16T18:06:51Z</time>
      </trkpt>
      <trkpt lat="45.96493" lon="6.79393">
        <ele>1954</ele>
        <time>2022-07-16T18:07:23Z</time>
      </trkpt>
      <trkpt lat="45.96488" lon="6.79388">
        <ele>1955</ele>
        <time>2022-07-16T18:07:33Z</time>
      </trkpt>
      <trkpt lat="45.96483" lon="6.79386">
        <ele>1957</ele>
        <time>2022-07-16T18:07:48Z</time>
      </trkpt>
      <trkpt lat="45.96477" lon="6.79388">
        <ele>1960</ele>
        <time>2022-07-16T18:08:13Z</time>
      </trkpt>
      <trkpt lat="45.96471" lon="6.79387">
        <ele>1962</ele>
        <time>2022-07-16T18:08:23Z</time>
      </trkpt>
      <trkpt lat="45.96464" lon="6.79387">
        <ele>1964</ele>
        <time>2022-07-16T18:08:38Z</time>
      </trkpt>
      <trkpt lat="45.96457" lon="6.79383">
        <ele>1963</ele>
        <time>2022-07-16T18:08:48Z</time>
      </trkpt>
      <trkpt lat="45.96454" lon="6.79378">
        <ele>1963</ele>
        <time>2022-07-16T18:08:53Z</time>
      </trkpt>
      <trkpt lat="45.96446" lon="6.79378">
        <ele>1963</ele>
        <time>2022-07-16T18:09:02Z</time>
      </trkpt>
      <trkpt lat="45.96441" lon="6.7938">
        <ele>1963</ele>
        <time>2022-07-16T18:09:09Z</time>
      </trkpt>
      <trkpt lat="45.96437" lon="6.79385">
        <ele>1964</ele>
        <time>2022-07-16T18:09:19Z</time>
      </trkpt>
      <trkpt lat="45.96433" lon="6.7939">
        <ele>1964</ele>
        <time>2022-07-16T18:09:29Z</time>
      </trkpt>
      <trkpt lat="45.96427" lon="6.79394">
        <ele>1964</ele>
        <time>2022-07-16T18:09:39Z</time>
      </trkpt>
      <trkpt lat="45.96424" lon="6.7941">
        <ele>1962</ele>
        <time>2022-07-16T18:09:55Z</time>
      </trkpt>
      <trkpt lat="45.96419" lon="6.79413">
        <ele>1961</ele>
        <time>2022-07-16T18:09:59Z</time>
      </trkpt>
      <trkpt lat="45.96419" lon="6.79421">
        <ele>1961</ele>
        <time>2022-07-16T18:10:06Z</time>
      </trkpt>
      <trkpt lat="45.96415" lon="6.79425">
        <ele>1961</ele>
        <time>2022-07-16T18:10:13Z</time>
      </trkpt>
      <trkpt lat="45.96416" lon="6.79432">
        <ele>1961</ele>
        <time>2022-07-16T18:10:23Z</time>
      </trkpt>
      <trkpt lat="45.96413" lon="6.79438">
        <ele>1959</ele>
        <time>2022-07-16T18:10:33Z</time>
      </trkpt>
      <trkpt lat="45.96414" lon="6.79451">
        <ele>1957</ele>
        <time>2022-07-16T18:10:43Z</time>
      </trkpt>
      <trkpt lat="45.96409" lon="6.79456">
        <ele>1958</ele>
        <time>2022-07-16T18:10:50Z</time>
      </trkpt>
      <trkpt lat="45.96405" lon="6.79458">
        <ele>1957</ele>
        <time>2022-07-16T18:10:55Z</time>
      </trkpt>
      <trkpt lat="45.964" lon="6.79462">
        <ele>1955</ele>
        <time>2022-07-16T18:11:03Z</time>
      </trkpt>
      <trkpt lat="45.96396" lon="6.79468">
        <ele>1954</ele>
        <time>2022-07-16T18:11:10Z</time>
      </trkpt>
      <trkpt lat="45.96387" lon="6.79478">
        <ele>1952</ele>
        <time>2022-07-16T18:11:25Z</time>
      </trkpt>
      <trkpt lat="45.96369" lon="6.79494">
        <ele>1951</ele>
        <time>2022-07-16T18:11:49Z</time>
      </trkpt>
      <trkpt lat="45.96363" lon="6.79498">
        <ele>1951</ele>
        <time>2022-07-16T18:11:56Z</time>
      </trkpt>
      <trkpt lat="45.96353" lon="6.79509">
        <ele>1951</ele>
        <time>2022-07-16T18:12:13Z</time>
      </trkpt>
      <trkpt lat="45.96341" lon="6.79508">
        <ele>1949</ele>
        <time>2022-07-16T18:12:28Z</time>
      </trkpt>
      <trkpt lat="45.96334" lon="6.79519">
        <ele>1949</ele>
        <time>2022-07-16T18:12:40Z</time>
      </trkpt>
      <trkpt lat="45.9633" lon="6.79525">
        <ele>1949</ele>
        <time>2022-07-16T18:12:50Z</time>
      </trkpt>
      <trkpt lat="45.96326" lon="6.79528">
        <ele>1948</ele>
        <time>2022-07-16T18:15:25Z</time>
      </trkpt>
      <trkpt lat="45.96322" lon="6.79531">
        <ele>1948</ele>
        <time>2022-07-16T18:15:30Z</time>
      </trkpt>
      <trkpt lat="45.96317" lon="6.7953">
        <ele>1948</ele>
        <time>2022-07-16T18:15:35Z</time>
      </trkpt>
      <trkpt lat="45.96312" lon="6.79529">
        <ele>1947</ele>
        <time>2022-07-16T18:15:49Z</time>
      </trkpt>
      <trkpt lat="45.96312" lon="6.79528">
        <ele>1947</ele>
        <time>2022-07-16T18:24:16Z</time>
      </trkpt>
      <trkpt lat="45.96314" lon="6.79526">
        <ele>1947</ele>
        <time>2022-07-16T18:30:34Z</time>
      </trkpt>
      <trkpt lat="45.96307" lon="6.79527">
        <ele>1946</ele>
        <time>2022-07-16T18:31:54Z</time>
      </trkpt>
      <trkpt lat="45.96299" lon="6.79526">
        <ele>1946</ele>
        <time>2022-07-16T18:32:05Z</time>
      </trkpt>
    </trkseg>
  </trk>
  <rte>
    <name><![CDATA[4 avr. 2019 à 23:11:12]]></name>
    <cmt><![CDATA[4 avr. 2019 à 23:11:12]]></cmt>
    <desc><![CDATA[{DC1}Heure de fin	: 
Durée totale	: 0h00:00
Moyenne globale	: -
Pente moyenne	: 0.00 %
Aire incluse	: 7.4932 ha
Détails par segments
distance  | durée    | vit.moy. | vit.max. | déniv. + | déniv -
   km     | hh:mn:ss |   km/h   |   km/h   |    m     |    m
     0.81 | 00:00:00 |      0.0 |      0.0 |        0 |        0{DC2}]]></desc>
      <rtept lat="45.60077" lon="6.18221">
        <ele>1608.6</ele>
      </rtept>
      <rtept lat="45.59468" lon="6.1822">
        <ele>1760.9</ele>
      </rtept>
      <rtept lat="45.59468" lon="6.1822">
        <ele>1760.9</ele>
      </rtept>
    </rte>
  <rte>
    <name><![CDATA[10 févr. 2019 à 15:16:12]]></name>
    <cmt><![CDATA[10 févr. 2019 à 15:16:12]]></cmt>
    <desc><![CDATA[{DC1}Heure de fin	: 00:09:21
Durée totale	: -17690439h43:48
Moyenne globale	: -
Pente moyenne	: 7.00 %
Aire incluse	: 221.0936 ha
Détails par segments
distance  | durée    | vit.moy. | vit.max. | déniv. + | déniv -
   km     | hh:mn:ss |   km/h   |   km/h   |    m     |    m
     7.48 | 00:00:00 |      0.0 |      0.0 |        0 |        0{DC2}]]></desc>
      <rtept lat="45.55203" lon="5.93805">
        <ele>376</ele>
      </rtept>
      <rtept lat="45.55177" lon="5.93873">
        <ele>369</ele>
      </rtept>
      <rtept lat="45.55176" lon="5.93942">
        <ele>367</ele>
      </rtept>
      <rtept lat="45.55105" lon="5.93942">
        <ele>367</ele>
      </rtept>
      <rtept lat="45.54993" lon="5.93908">
        <ele>371</ele>
      </rtept>
      <rtept lat="45.54929" lon="5.94099">
        <ele>370</ele>
      </rtept>
      <rtept lat="45.54908" lon="5.94204">
        <ele>367</ele>
      </rtept>
      <rtept lat="45.54991" lon="5.94287">
        <ele>365</ele>
      </rtept>
      <rtept lat="45.5506" lon="5.94384">
        <ele>361</ele>
      </rtept>
      <rtept lat="45.55147" lon="5.94384">
        <ele>357</ele>
      </rtept>
      <rtept lat="45.55129" lon="5.94607">
        <ele>358</ele>
      </rtept>
      <rtept lat="45.55029" lon="5.94809">
        <ele>355</ele>
      </rtept>
      <rtept lat="45.54884" lon="5.94886">
        <ele>346</ele>
      </rtept>
      <rtept lat="45.5477" lon="5.94931">
        <ele>342</ele>
      </rtept>
      <rtept lat="45.5468" lon="5.95004">
        <ele>339</ele>
      </rtept>
      <rtept lat="45.54596" lon="5.95133">
        <ele>340</ele>
      </rtept>
      <rtept lat="45.54446" lon="5.95195">
        <ele>343</ele>
      </rtept>
      <rtept lat="45.543" lon="5.95262">
        <ele>344</ele>
      </rtept>
      <rtept lat="45.54156" lon="5.95212">
        <ele>337</ele>
      </rtept>
      <rtept lat="45.54041" lon="5.95204">
        <ele>338</ele>
      </rtept>
      <rtept lat="45.53917" lon="5.95141">
        <ele>343</ele>
      </rtept>
      <rtept lat="45.53844" lon="5.95135">
        <ele>347</ele>
      </rtept>
      <rtept lat="45.53765" lon="5.9503">
        <ele>349</ele>
      </rtept>
      <rtept lat="45.5381" lon="5.94993">
        <ele>352</ele>
      </rtept>
      <rtept lat="45.53781" lon="5.94901">
        <ele>358</ele>
      </rtept>
      <rtept lat="45.53711" lon="5.94845">
        <ele>365</ele>
      </rtept>
      <rtept lat="45.53702" lon="5.94764">
        <ele>369</ele>
      </rtept>
      <rtept lat="45.53817" lon="5.94807">
        <ele>376</ele>
      </rtept>
      <rtept lat="45.53865" lon="5.94633">
        <ele>389</ele>
      </rtept>
      <rtept lat="45.53778" lon="5.94491">
        <ele>408</ele>
      </rtept>
      <rtept lat="45.53757" lon="5.94371">
        <ele>425</ele>
      </rtept>
      <rtept lat="45.53775" lon="5.94279">
        <ele>434</ele>
      </rtept>
      <rtept lat="45.53726" lon="5.94227">
        <ele>442</ele>
      </rtept>
      <rtept lat="45.53572" lon="5.94146">
        <ele>468</ele>
      </rtept>
      <rtept lat="45.53664" lon="5.94039">
        <ele>483</ele>
      </rtept>
      <rtept lat="45.53532" lon="5.93983">
        <ele>505</ele>
      </rtept>
      <rtept lat="45.53416" lon="5.93985">
        <ele>516</ele>
      </rtept>
      <rtept lat="45.5355" lon="5.93869">
        <ele>532</ele>
      </rtept>
      <rtept lat="45.5359" lon="5.93845">
        <ele>537</ele>
      </rtept>
      <rtept lat="45.5355" lon="5.93802">
        <ele>544</ele>
      </rtept>
      <rtept lat="45.53724" lon="5.93554">
        <ele>587</ele>
      </rtept>
      <rtept lat="45.53691" lon="5.93339">
        <ele>592</ele>
      </rtept>
      <rtept lat="45.5376" lon="5.93178">
        <ele>575</ele>
      </rtept>
      <rtept lat="45.53843" lon="5.93069">
        <ele>555</ele>
      </rtept>
      <rtept lat="45.53939" lon="5.93157">
        <ele>541</ele>
      </rtept>
      <rtept lat="45.54068" lon="5.93234">
        <ele>522</ele>
      </rtept>
      <rtept lat="45.54219" lon="5.93247">
        <ele>514</ele>
      </rtept>
      <rtept lat="45.54355" lon="5.93232">
        <ele>512</ele>
      </rtept>
      <rtept lat="45.54489" lon="5.9326">
        <ele>508</ele>
      </rtept>
      <rtept lat="45.54636" lon="5.93249">
        <ele>510</ele>
      </rtept>
      <rtept lat="45.54758" lon="5.93249">
        <ele>510</ele>
      </rtept>
      <rtept lat="45.54818" lon="5.93298">
        <ele>507</ele>
      </rtept>
      <rtept lat="45.54796" lon="5.93418">
        <ele>496</ele>
      </rtept>
      <rtept lat="45.5491" lon="5.93433">
        <ele>483</ele>
      </rtept>
      <rtept lat="45.55126" lon="5.9341">
        <ele>463</ele>
      </rtept>
      <rtept lat="45.55256" lon="5.93453">
        <ele>444</ele>
      </rtept>
      <rtept lat="45.55329" lon="5.93558">
        <ele>430</ele>
      </rtept>
      <rtept lat="45.55222" lon="5.93642">
        <ele>415</ele>
      </rtept>
      <rtept lat="45.55195" lon="5.93811">
        <ele>375</ele>
      </rtept>
    </rte>
  <rte>
    <name><![CDATA[10 févr. 2019 à 15:15:48]]></name>
    <cmt><![CDATA[10 févr. 2019 à 15:15:48]]></cmt>
    <desc><![CDATA[{DC1}Heure de fin	: 00:09:21
Durée totale	: -17690439h44:12
Moyenne globale	: -
Pente moyenne	: nan %
Aire incluse	: 0.0000 ha
Détails par segments
distance  | durée    | vit.moy. | vit.max. | déniv. + | déniv -
   km     | hh:mn:ss |   km/h   |   km/h   |    m     |    m
     0.00 | 00:00:00 |      0.0 |      0.0 |        0 |        0{DC2}]]></desc>
      <rtept lat="45.5175" lon="5.93483">
        <ele>732.3</ele>
      </rtept>
    </rte>
  <rte>
    <name><![CDATA[10 févr. 2019 à 15:06:08]]></name>
    <cmt><![CDATA[10 févr. 2019 à 15:06:08]]></cmt>
    <desc><![CDATA[{DC1}Heure de fin	: 
Durée totale	: 0h00:00
Moyenne globale	: -
Pente moyenne	: 8.03 %
Aire incluse	: 204.0794 ha
Détails par segments
distance  | durée    | vit.moy. | vit.max. | déniv. + | déniv -
   km     | hh:mn:ss |   km/h   |   km/h   |    m     |    m
    12.88 | 00:00:00 |      0.0 |      0.0 |        0 |        0{DC2}]]></desc>
      <rtept lat="45.5509" lon="5.9394">
        <ele>368</ele>
      </rtept>
      <rtept lat="45.55217" lon="5.93791">
        <ele>377</ele>
      </rtept>
    </rte>
  <rte>
    <name><![CDATA[10 févr. 2019 à 14:22:06]]></name>
    <cmt><![CDATA[10 févr. 2019 à 14:22:06]]></cmt>
    <desc><![CDATA[{DC1}Heure de fin	: 00:09:21
Durée totale	: -17690438h37:54
Moyenne globale	: -
Pente moyenne	: 5.62 %
Aire incluse	: 5.7967 ha
Détails par segments
distance  | durée    | vit.moy. | vit.max. | déniv. + | déniv -
   km     | hh:mn:ss |   km/h   |   km/h   |    m     |    m
     3.30 | 00:00:00 |      0.0 |      0.0 |        0 |        0{DC2}]]></desc>
      <rtept lat="45.55169" lon="5.93089">
        <ele>415</ele>
      </rtept>
      <rtept lat="45.5518" lon="5.93905">
        <ele>366</ele>
      </rtept>
    </rte>
  <rte>
    <name><![CDATA[10 févr. 2019 à 09:50:45]]></name>
    <cmt><![CDATA[10 févr. 2019 à 09:50:45]]></cmt>
    <desc><![CDATA[{DC1}Heure de fin	: 00:09:21
Durée totale	: -17690433h09:14
Moyenne globale	: -
Pente moyenne	: 0.00 %
Aire incluse	: 50.7119 ha
Détails par segments
distance  | durée    | vit.moy. | vit.max. | déniv. + | déniv -
   km     | hh:mn:ss |   km/h   |   km/h   |    m     |    m
     4.33 | 00:00:00 |      0.0 |      0.0 |        0 |        0{DC2}]]></desc>
      <rtept lat="45.5503" lon="5.93918">
        <ele>373.6</ele>
      </rtept>
      <rtept lat="45.55191" lon="5.93893">
        <ele>366.7</ele>
      </rtept>
    </rte>
  <rte>
    <name><![CDATA[10 févr. 2019 à 09:07:08]]></name>
    <cmt><![CDATA[10 févr. 2019 à 09:07:08]]></cmt>
    <desc><![CDATA[{DC1}Heure de fin	: 00:09:21
Durée totale	: -17690433h52:52
Moyenne globale	: -
Pente moyenne	: nan %
Aire incluse	: 0.0000 ha
Détails par segments
distance  | durée    | vit.moy. | vit.max. | déniv. + | déniv -
   km     | hh:mn:ss |   km/h   |   km/h   |    m     |    m
     0.00 | 00:00:00 |      0.0 |      0.0 |        0 |        0{DC2}]]></desc>
      <rtept lat="45.55102" lon="5.93919">
        <ele>370.1</ele>
      </rtept>
    </rte>
  <rte>
    <name><![CDATA[10 févr. 2019 à 09:02:25]]></name>
    <cmt><![CDATA[10 févr. 2019 à 09:02:25]]></cmt>
    <desc><![CDATA[{DC1}Heure de fin	: 00:09:21
Durée totale	: -17690433h57:35
Moyenne globale	: -
Pente moyenne	: nan %
Aire incluse	: 0.0000 ha
Détails par segments
distance  | durée    | vit.moy. | vit.max. | déniv. + | déniv -
   km     | hh:mn:ss |   km/h   |   km/h   |    m     |    m
     0.00 | 00:00:00 |      0.0 |      0.0 |        0 |        0{DC2}]]></desc>
      <rtept lat="45.55207" lon="5.93813">
        <ele>375.2</ele>
      </rtept>
    </rte>
  <rte>
    <name><![CDATA[10 févr. 2019 à 09:00:27]]></name>
    <cmt><![CDATA[10 févr. 2019 à 09:00:27]]></cmt>
    <desc><![CDATA[{DC1}Heure de fin	: 00:09:21
Durée totale	: -17690433h59:32
Moyenne globale	: -
Pente moyenne	: nan %
Aire incluse	: 0.0000 ha
Détails par segments
distance  | durée    | vit.moy. | vit.max. | déniv. + | déniv -
   km     | hh:mn:ss |   km/h   |   km/h   |    m     |    m
     0.00 | 00:00:00 |      0.0 |      0.0 |        0 |        0{DC2}]]></desc>
      <rtept lat="45.55244" lon="5.93858">
        <ele>366.6</ele>
      </rtept>
    </rte>
</gpx>